Time,TemperatureF,DewpointF,PressureIn,WindDirection,WindDirectionDegrees,WindSpeedMPH,WindSpeedGustMPH,Humidity,HourlyPrecipIn,Conditions,Clouds,dailyrainin,SoftwareType,DateUTC
2013-01-16 00:00:00,15.9,9.4,30.18,SSW,202,3.5,3.5,75,0.00,,,0.00,VWS V14.01,2013-01-16 06:00:00,
2013-01-16 00:01:00,15.9,9.4,30.18,SSW,202,3.5,3.5,75,0.00,,,0.00,VWS V14.01,2013-01-16 06:01:00,
2013-01-16 00:02:00,15.9,9.4,30.18,SSW,202,6.4,6.4,75,0.00,,,0.00,VWS V14.01,2013-01-16 06:02:00,
2013-01-16 00:03:00,15.9,9.7,30.17,SSW,202,6.0,6.4,76,0.00,,,0.00,VWS V14.01,2013-01-16 06:03:00,
2013-01-16 00:04:00,15.9,9.7,30.18,SSW,202,6.0,6.0,76,0.00,,,0.00,VWS V14.01,2013-01-16 06:04:00,
2013-01-16 00:05:00,15.9,9.7,30.18,South,180,6.7,6.7,76,0.00,,,0.00,VWS V14.01,2013-01-16 06:05:00,
2013-01-16 00:06:00,15.9,9.7,30.18,South,180,6.7,6.7,76,0.00,,,0.00,VWS V14.01,2013-01-16 06:06:00,
2013-01-16 00:07:00,15.9,9.7,30.17,SSW,202,5.3,6.7,76,0.00,,,0.00,VWS V14.01,2013-01-16 06:07:00,
2013-01-16 00:08:00,15.9,9.7,30.17,SSW,202,5.3,5.3,76,0.00,,,0.00,VWS V14.01,2013-01-16 06:08:00,
2013-01-16 00:09:00,15.9,9.7,30.17,SSW,202,5.3,5.3,76,0.00,,,0.00,VWS V14.01,2013-01-16 06:09:00,
2013-01-16 00:10:00,15.8,9.6,30.17,SSW,202,5.8,5.8,76,0.00,,,0.00,VWS V14.01,2013-01-16 06:10:00,
2013-01-16 00:11:00,15.8,9.6,30.17,SSW,202,5.8,5.8,76,0.00,,,0.00,VWS V14.01,2013-01-16 06:11:00,
2013-01-16 00:12:00,15.8,9.6,30.17,SSW,202,4.9,4.9,76,0.00,,,0.00,VWS V14.01,2013-01-16 06:12:00,
2013-01-16 00:13:00,15.9,9.7,30.17,SSW,202,4.2,4.9,76,0.00,,,0.00,VWS V14.01,2013-01-16 06:13:00,
2013-01-16 00:14:00,15.9,9.7,30.17,SSW,202,4.2,4.2,76,0.00,,,0.00,VWS V14.01,2013-01-16 06:14:00,
2013-01-16 00:15:00,15.9,9.7,30.17,SSW,202,4.2,4.2,76,0.00,,,0.00,VWS V14.01,2013-01-16 06:15:00,
2013-01-16 00:16:00,15.9,9.7,30.17,SSW,202,4.2,4.2,76,0.00,,,0.00,VWS V14.01,2013-01-16 06:16:00,
2013-01-16 00:17:00,15.9,9.7,30.17,SSW,202,6.4,6.4,76,0.00,,,0.00,VWS V14.01,2013-01-16 06:17:00,
2013-01-16 00:18:00,15.9,9.7,30.17,SSW,202,6.4,6.4,76,0.00,,,0.00,VWS V14.01,2013-01-16 06:18:00,
2013-01-16 00:19:00,15.9,9.7,30.16,SSW,202,6.4,6.4,76,0.00,,,0.00,VWS V14.01,2013-01-16 06:19:00,
2013-01-16 00:20:00,15.9,9.7,30.17,SSW,202,7.6,7.6,76,0.00,,,0.00,VWS V14.01,2013-01-16 06:20:00,
2013-01-16 00:21:00,15.9,9.7,30.17,SSW,202,7.6,7.6,76,0.00,,,0.00,VWS V14.01,2013-01-16 06:21:00,
2013-01-16 00:22:00,15.9,9.7,30.17,SSW,202,6.9,7.6,76,0.00,,,0.00,VWS V14.01,2013-01-16 06:22:00,
2013-01-16 00:23:00,15.9,9.7,30.16,SSW,202,6.9,6.9,76,0.00,,,0.00,VWS V14.01,2013-01-16 06:23:00,
2013-01-16 00:24:00,16.1,9.9,30.17,SSW,202,6.7,6.9,76,0.00,,,0.00,VWS V14.01,2013-01-16 06:24:00,
2013-01-16 00:25:00,16.1,9.9,30.17,SSW,202,6.7,6.7,76,0.00,,,0.00,VWS V14.01,2013-01-16 06:25:00,
2013-01-16 00:26:00,16.1,9.9,30.17,SSW,202,6.7,6.7,76,0.00,,,0.00,VWS V14.01,2013-01-16 06:26:00,
2013-01-16 00:27:00,16.1,9.9,30.16,SSW,202,6.0,6.0,76,0.00,,,0.00,VWS V14.01,2013-01-16 06:27:00,
2013-01-16 00:28:00,16.3,10.1,30.16,SSW,202,5.5,6.0,76,0.00,,,0.00,VWS V14.01,2013-01-16 06:28:00,
2013-01-16 00:29:00,16.3,10.1,30.16,SSW,202,5.5,5.5,76,0.00,,,0.00,VWS V14.01,2013-01-16 06:29:00,
2013-01-16 00:30:00,16.3,10.1,30.16,SSW,202,5.5,5.5,76,0.00,,,0.00,VWS V14.01,2013-01-16 06:30:00,
2013-01-16 00:31:00,16.3,10.1,30.16,SSW,202,5.5,5.5,76,0.00,,,0.00,VWS V14.01,2013-01-16 06:31:00,
2013-01-16 00:32:00,16.1,9.6,30.16,SSW,202,5.3,5.3,75,0.00,,,0.00,VWS V14.01,2013-01-16 06:32:00,
2013-01-16 00:33:00,15.9,9.4,30.16,SSW,202,6.2,6.2,75,0.00,,,0.00,VWS V14.01,2013-01-16 06:33:00,
2013-01-16 00:34:00,15.9,9.4,30.16,SSW,202,6.2,6.2,75,0.00,,,0.00,VWS V14.01,2013-01-16 06:34:00,
2013-01-16 00:35:00,15.9,9.4,30.16,SSW,202,5.5,6.2,75,0.00,,,0.00,VWS V14.01,2013-01-16 06:35:00,
2013-01-16 00:36:00,15.9,9.4,30.16,SSW,202,5.5,5.5,75,0.00,,,0.00,VWS V14.01,2013-01-16 06:36:00,
2013-01-16 00:37:00,15.9,9.4,30.15,SSW,202,5.8,5.8,75,0.00,,,0.00,VWS V14.01,2013-01-16 06:37:00,
2013-01-16 00:38:00,15.9,9.4,30.15,SSW,202,5.8,5.8,75,0.00,,,0.00,VWS V14.01,2013-01-16 06:38:00,
2013-01-16 00:39:00,15.6,9.1,30.15,SSW,202,5.1,5.8,75,0.00,,,0.00,VWS V14.01,2013-01-16 06:39:00,
2013-01-16 00:40:00,15.6,9.1,30.15,SSW,202,5.1,5.1,75,0.00,,,0.00,VWS V14.01,2013-01-16 06:40:00,
2013-01-16 00:41:00,15.6,9.1,30.15,SSW,202,5.1,5.1,75,0.00,,,0.00,VWS V14.01,2013-01-16 06:41:00,
2013-01-16 00:42:00,15.6,9.1,30.15,SSW,202,6.9,6.9,75,0.00,,,0.00,VWS V14.01,2013-01-16 06:42:00,
2013-01-16 00:43:00,15.6,9.1,30.15,SSW,202,5.5,6.9,75,0.00,,,0.00,VWS V14.01,2013-01-16 06:43:00,
2013-01-16 00:44:00,15.8,9.3,30.15,SSW,202,5.5,5.5,75,0.00,,,0.00,VWS V14.01,2013-01-16 06:44:00,
2013-01-16 00:45:00,15.8,9.3,30.15,SSW,202,5.5,5.5,75,0.00,,,0.00,VWS V14.01,2013-01-16 06:45:00,
2013-01-16 00:46:00,15.8,9.3,30.15,SSW,202,5.5,5.5,75,0.00,,,0.00,VWS V14.01,2013-01-16 06:46:00,
2013-01-16 00:47:00,15.8,9.3,30.15,SSW,202,6.9,6.9,75,0.00,,,0.00,VWS V14.01,2013-01-16 06:47:00,
2013-01-16 00:48:00,15.8,9.3,30.15,SSW,202,7.1,7.1,75,0.00,,,0.00,VWS V14.01,2013-01-16 06:48:00,
2013-01-16 00:49:00,15.8,9.3,30.15,SSW,202,7.1,7.1,75,0.00,,,0.00,VWS V14.01,2013-01-16 06:49:00,
2013-01-16 00:50:00,15.8,9.3,30.15,South,180,8.2,8.2,75,0.00,,,0.00,VWS V14.01,2013-01-16 06:50:00,
2013-01-16 00:51:00,15.8,9.3,30.15,South,180,8.2,8.2,75,0.00,,,0.00,VWS V14.01,2013-01-16 06:51:00,
2013-01-16 00:52:00,15.9,9.4,30.15,SSW,202,5.8,8.2,75,0.00,,,0.00,VWS V14.01,2013-01-16 06:52:00,
2013-01-16 00:53:00,15.9,9.4,30.15,SSW,202,5.8,5.8,75,0.00,,,0.00,VWS V14.01,2013-01-16 06:53:00,
2013-01-16 00:54:00,15.8,9.3,30.15,South,180,8.5,8.5,75,0.00,,,0.00,VWS V14.01,2013-01-16 06:54:00,
2013-01-16 00:55:00,15.8,9.3,30.15,South,180,8.5,8.5,75,0.00,,,0.00,VWS V14.01,2013-01-16 06:55:00,
2013-01-16 00:56:00,15.8,9.3,30.15,South,180,8.5,8.5,75,0.00,,,0.00,VWS V14.01,2013-01-16 06:56:00,
2013-01-16 00:57:00,15.8,9.3,30.15,SSW,202,4.9,4.9,75,0.00,,,0.00,VWS V14.01,2013-01-16 06:57:00,
2013-01-16 00:58:00,15.8,9.3,30.15,SSW,202,4.2,4.9,75,0.00,,,0.00,VWS V14.01,2013-01-16 06:58:00,
2013-01-16 00:59:00,15.6,9.1,30.15,SSW,202,4.2,4.2,75,0.00,,,0.00,VWS V14.01,2013-01-16 06:59:00,
2013-01-16 01:00:00,15.6,9.1,30.15,SSW,202,4.2,4.2,75,0.00,,,0.00,VWS V14.01,2013-01-16 07:00:00,
2013-01-16 01:01:00,15.6,9.1,30.15,SSW,202,4.2,4.2,75,0.00,,,0.00,VWS V14.01,2013-01-16 07:01:00,
2013-01-16 01:02:00,15.6,9.1,30.15,SSW,202,4.2,4.2,75,0.00,,,0.00,VWS V14.01,2013-01-16 07:02:00,
2013-01-16 01:03:00,15.6,9.1,30.15,SSW,202,2.6,4.2,75,0.00,,,0.00,VWS V14.01,2013-01-16 07:03:00,
2013-01-16 01:04:00,15.6,9.1,30.15,SSW,202,2.6,2.6,75,0.00,,,0.00,VWS V14.01,2013-01-16 07:04:00,
2013-01-16 01:05:00,15.4,8.9,30.15,SSW,202,2.4,2.6,75,0.00,,,0.00,VWS V14.01,2013-01-16 07:05:00,
2013-01-16 01:06:00,15.4,8.9,30.15,SSW,202,2.4,2.4,75,0.00,,,0.00,VWS V14.01,2013-01-16 07:06:00,
2013-01-16 01:07:00,15.4,8.9,30.15,SSW,202,5.3,5.3,75,0.00,,,0.00,VWS V14.01,2013-01-16 07:07:00,
2013-01-16 01:08:00,15.4,8.9,30.15,SSW,202,5.3,5.3,75,0.00,,,0.00,VWS V14.01,2013-01-16 07:08:00,
2013-01-16 01:09:00,15.2,8.7,30.15,SSW,202,4.6,5.3,75,0.00,,,0.00,VWS V14.01,2013-01-16 07:09:00,
2013-01-16 01:10:00,15.2,8.7,30.15,SSW,202,4.6,4.6,75,0.00,,,0.00,VWS V14.01,2013-01-16 07:10:00,
2013-01-16 01:11:00,15.2,8.7,30.15,SSW,202,4.6,4.6,75,0.00,,,0.00,VWS V14.01,2013-01-16 07:11:00,
2013-01-16 01:12:00,15.0,8.5,30.15,SSW,202,3.5,3.5,75,0.00,,,0.00,VWS V14.01,2013-01-16 07:12:00,
2013-01-16 01:13:00,15.0,8.5,30.15,SSW,202,4.6,4.6,75,0.00,,,0.00,VWS V14.01,2013-01-16 07:13:00,
2013-01-16 01:14:00,15.0,8.5,30.15,SSW,202,4.6,4.6,75,0.00,,,0.00,VWS V14.01,2013-01-16 07:14:00,
2013-01-16 01:15:00,15.0,8.5,30.15,SSW,202,4.6,4.6,75,0.00,,,0.00,VWS V14.01,2013-01-16 07:15:00,
2013-01-16 01:16:00,15.0,8.5,30.15,SSW,202,5.3,5.3,75,0.00,,,0.00,VWS V14.01,2013-01-16 07:16:00,
2013-01-16 01:17:00,15.0,8.5,30.14,SSW,202,5.3,5.3,75,0.00,,,0.00,VWS V14.01,2013-01-16 07:17:00,
2013-01-16 01:18:00,15.0,8.5,30.14,SSW,202,5.8,5.8,75,0.00,,,0.00,VWS V14.01,2013-01-16 07:18:00,
2013-01-16 01:19:00,15.0,8.5,30.15,SSW,202,5.8,5.8,75,0.00,,,0.00,VWS V14.01,2013-01-16 07:19:00,
2013-01-16 01:20:00,14.9,8.4,30.15,SSW,202,5.8,5.8,75,0.00,,,0.00,VWS V14.01,2013-01-16 07:20:00,
2013-01-16 01:21:00,14.9,8.4,30.15,SSW,202,5.8,5.8,75,0.00,,,0.00,VWS V14.01,2013-01-16 07:21:00,
2013-01-16 01:22:00,14.9,8.4,30.15,SSW,202,5.8,5.8,75,0.00,,,0.00,VWS V14.01,2013-01-16 07:22:00,
2013-01-16 01:23:00,14.9,8.4,30.14,SSW,202,5.8,5.8,75,0.00,,,0.00,VWS V14.01,2013-01-16 07:23:00,
2013-01-16 01:24:00,14.9,8.4,30.14,SSW,202,4.9,5.8,75,0.00,,,0.00,VWS V14.01,2013-01-16 07:24:00,
2013-01-16 01:25:00,14.9,8.4,30.15,SSW,202,4.9,4.9,75,0.00,,,0.00,VWS V14.01,2013-01-16 07:25:00,
2013-01-16 01:26:00,14.9,8.7,30.14,SSW,202,5.5,5.5,76,0.00,,,0.00,VWS V14.01,2013-01-16 07:26:00,
2013-01-16 01:27:00,14.9,8.7,30.14,SSW,202,5.5,5.5,76,0.00,,,0.00,VWS V14.01,2013-01-16 07:27:00,
2013-01-16 01:28:00,14.9,8.7,30.15,SSW,202,5.3,5.5,76,0.00,,,0.00,VWS V14.01,2013-01-16 07:28:00,
2013-01-16 01:29:00,14.9,8.7,30.14,SSW,202,5.3,5.3,76,0.00,,,0.00,VWS V14.01,2013-01-16 07:29:00,
2013-01-16 01:30:00,14.9,8.7,30.15,SSW,202,5.3,5.3,76,0.00,,,0.00,VWS V14.01,2013-01-16 07:30:00,
2013-01-16 01:31:00,14.9,8.7,30.15,SSW,202,4.6,5.3,76,0.00,,,0.00,VWS V14.01,2013-01-16 07:31:00,
2013-01-16 01:32:00,14.9,8.7,30.15,SSW,202,4.6,4.6,76,0.00,,,0.00,VWS V14.01,2013-01-16 07:32:00,
2013-01-16 01:33:00,14.7,8.5,30.14,SSW,202,3.5,4.6,76,0.00,,,0.00,VWS V14.01,2013-01-16 07:33:00,
2013-01-16 01:34:00,14.7,8.5,30.14,SSW,202,3.5,3.5,76,0.00,,,0.00,VWS V14.01,2013-01-16 07:34:00,
2013-01-16 01:35:00,14.7,8.5,30.14,SSW,202,5.8,5.8,76,0.00,,,0.00,VWS V14.01,2013-01-16 07:35:00,
2013-01-16 01:36:00,14.7,8.5,30.14,SSW,202,5.8,5.8,76,0.00,,,0.00,VWS V14.01,2013-01-16 07:36:00,
2013-01-16 01:37:00,14.7,8.5,30.14,SSW,202,5.1,5.8,76,0.00,,,0.00,VWS V14.01,2013-01-16 07:37:00,
2013-01-16 01:38:00,14.7,8.5,30.14,SSW,202,5.1,5.1,76,0.00,,,0.00,VWS V14.01,2013-01-16 07:38:00,
2013-01-16 01:39:00,14.7,8.5,30.14,SSW,202,6.9,6.9,76,0.00,,,0.00,VWS V14.01,2013-01-16 07:39:00,
2013-01-16 01:40:00,14.7,8.5,30.14,SSW,202,6.9,6.9,76,0.00,,,0.00,VWS V14.01,2013-01-16 07:40:00,
2013-01-16 01:41:00,14.7,8.5,30.14,SSW,202,6.9,6.9,76,0.00,,,0.00,VWS V14.01,2013-01-16 07:41:00,
2013-01-16 01:42:00,14.7,8.5,30.14,SSW,202,6.7,6.7,76,0.00,,,0.00,VWS V14.01,2013-01-16 07:42:00,
2013-01-16 01:43:00,14.9,8.7,30.14,SSW,202,6.9,6.9,76,0.00,,,0.00,VWS V14.01,2013-01-16 07:43:00,
2013-01-16 01:44:00,14.9,8.7,30.14,SSW,202,6.9,6.9,76,0.00,,,0.00,VWS V14.01,2013-01-16 07:44:00,
2013-01-16 01:45:00,14.9,8.7,30.14,SSW,202,6.0,6.9,76,0.00,,,0.00,VWS V14.01,2013-01-16 07:45:00,
2013-01-16 01:46:00,14.9,8.7,30.14,SSW,202,6.0,6.0,76,0.00,,,0.00,VWS V14.01,2013-01-16 07:46:00,
2013-01-16 01:47:00,14.9,8.7,30.14,SSW,202,6.0,6.0,76,0.00,,,0.00,VWS V14.01,2013-01-16 07:47:00,
2013-01-16 01:48:00,14.9,8.7,30.14,SSW,202,6.0,6.0,76,0.00,,,0.00,VWS V14.01,2013-01-16 07:48:00,
2013-01-16 01:49:00,14.9,8.7,30.14,SSW,202,6.0,6.0,76,0.00,,,0.00,VWS V14.01,2013-01-16 07:49:00,
2013-01-16 01:50:00,14.9,8.7,30.14,SSW,202,5.8,6.0,76,0.00,,,0.00,VWS V14.01,2013-01-16 07:50:00,
2013-01-16 01:51:00,14.9,8.7,30.14,SSW,202,5.8,5.8,76,0.00,,,0.00,VWS V14.01,2013-01-16 07:51:00,
2013-01-16 01:52:00,14.9,8.7,30.14,SSW,202,6.4,6.4,76,0.00,,,0.00,VWS V14.01,2013-01-16 07:52:00,
2013-01-16 01:53:00,14.9,8.7,30.14,SSW,202,6.4,6.4,76,0.00,,,0.00,VWS V14.01,2013-01-16 07:53:00,
2013-01-16 01:54:00,14.9,8.7,30.13,SSW,202,6.7,6.7,76,0.00,,,0.00,VWS V14.01,2013-01-16 07:54:00,
2013-01-16 01:55:00,14.9,8.7,30.14,SSW,202,6.7,6.7,76,0.00,,,0.00,VWS V14.01,2013-01-16 07:55:00,
2013-01-16 01:56:00,14.9,8.7,30.14,SSW,202,6.7,6.7,76,0.00,,,0.00,VWS V14.01,2013-01-16 07:56:00,
2013-01-16 01:57:00,15.0,8.8,30.13,SSW,202,6.0,6.0,76,0.00,,,0.00,VWS V14.01,2013-01-16 07:57:00,
2013-01-16 01:58:00,15.0,8.8,30.13,South,180,6.7,6.7,76,0.00,,,0.00,VWS V14.01,2013-01-16 07:58:00,
2013-01-16 01:59:00,15.0,8.8,30.13,South,180,6.7,6.7,76,0.00,,,0.00,VWS V14.01,2013-01-16 07:59:00,
2013-01-16 02:00:00,15.0,8.8,30.13,South,180,6.7,6.7,76,0.00,,,0.00,VWS V14.01,2013-01-16 08:00:00,
2013-01-16 02:01:00,15.0,8.8,30.13,South,180,6.7,6.7,76,0.00,,,0.00,VWS V14.01,2013-01-16 08:01:00,
2013-01-16 02:02:00,15.0,8.8,30.13,South,180,6.7,6.7,76,0.00,,,0.00,VWS V14.01,2013-01-16 08:02:00,
2013-01-16 02:03:00,15.4,8.9,30.13,SSW,202,8.0,8.0,75,0.00,,,0.00,VWS V14.01,2013-01-16 08:03:00,
2013-01-16 02:04:00,15.4,8.9,30.13,SSW,202,8.0,8.0,75,0.00,,,0.00,VWS V14.01,2013-01-16 08:04:00,
2013-01-16 02:05:00,15.6,9.1,30.13,SSW,202,7.1,8.0,75,0.00,,,0.00,VWS V14.01,2013-01-16 08:05:00,
2013-01-16 02:06:00,15.6,9.1,30.13,SSW,202,7.1,7.1,75,0.00,,,0.00,VWS V14.01,2013-01-16 08:06:00,
2013-01-16 02:07:00,15.6,9.1,30.13,SSW,202,7.1,7.1,75,0.00,,,0.00,VWS V14.01,2013-01-16 08:07:00,
2013-01-16 02:08:00,15.6,9.1,30.13,SSW,202,7.1,7.1,75,0.00,,,0.00,VWS V14.01,2013-01-16 08:08:00,
2013-01-16 02:09:00,15.6,9.1,30.13,SSW,202,7.6,7.6,75,0.00,,,0.00,VWS V14.01,2013-01-16 08:09:00,
2013-01-16 02:10:00,15.6,9.1,30.13,SSW,202,7.6,7.6,75,0.00,,,0.00,VWS V14.01,2013-01-16 08:10:00,
2013-01-16 02:11:00,15.6,9.1,30.13,SSW,202,7.6,7.6,75,0.00,,,0.00,VWS V14.01,2013-01-16 08:11:00,
2013-01-16 02:12:00,15.6,9.1,30.13,SSW,202,10.2,10.2,75,0.00,,,0.00,VWS V14.01,2013-01-16 08:12:00,
2013-01-16 02:13:00,15.6,8.8,30.13,SSW,202,8.5,10.2,74,0.00,,,0.00,VWS V14.01,2013-01-16 08:13:00,
2013-01-16 02:14:00,15.8,9.0,30.13,SSW,202,8.5,8.5,74,0.00,,,0.00,VWS V14.01,2013-01-16 08:14:00,
2013-01-16 02:15:00,15.8,9.0,30.13,SSW,202,9.1,9.1,74,0.00,,,0.00,VWS V14.01,2013-01-16 08:15:00,
2013-01-16 02:16:00,15.8,9.0,30.13,SSW,202,9.1,9.1,74,0.00,,,0.00,VWS V14.01,2013-01-16 08:16:00,
2013-01-16 02:17:00,15.9,9.1,30.12,SSW,202,9.1,9.1,74,0.00,,,0.00,VWS V14.01,2013-01-16 08:17:00,
2013-01-16 02:18:00,16.1,9.3,30.12,SSW,202,8.9,9.1,74,0.00,,,0.00,VWS V14.01,2013-01-16 08:18:00,
2013-01-16 02:19:00,16.1,9.3,30.12,SSW,202,8.9,8.9,74,0.00,,,0.00,VWS V14.01,2013-01-16 08:19:00,
2013-01-16 02:20:00,16.1,9.3,30.12,SSW,202,11.8,11.8,74,0.00,,,0.00,VWS V14.01,2013-01-16 08:20:00,
2013-01-16 02:21:00,16.1,9.3,30.12,SSW,202,11.8,11.8,74,0.00,,,0.00,VWS V14.01,2013-01-16 08:21:00,
2013-01-16 02:22:00,16.3,9.5,30.12,SSW,202,10.5,11.8,74,0.00,,,0.00,VWS V14.01,2013-01-16 08:22:00,
2013-01-16 02:23:00,16.3,9.5,30.12,SSW,202,10.5,10.5,74,0.00,,,0.00,VWS V14.01,2013-01-16 08:23:00,
2013-01-16 02:24:00,16.3,9.5,30.12,SSW,202,10.9,10.9,74,0.00,,,0.00,VWS V14.01,2013-01-16 08:24:00,
2013-01-16 02:25:00,16.3,9.5,30.12,SSW,202,10.9,10.9,74,0.00,,,0.00,VWS V14.01,2013-01-16 08:25:00,
2013-01-16 02:26:00,16.3,9.5,30.12,SSW,202,10.9,10.9,74,0.00,,,0.00,VWS V14.01,2013-01-16 08:26:00,
2013-01-16 02:27:00,16.3,9.5,30.12,SSW,202,10.9,10.9,74,0.00,,,0.00,VWS V14.01,2013-01-16 08:27:00,
2013-01-16 02:28:00,16.3,9.2,30.12,SW,225,14.0,14.0,73,0.00,,,0.00,VWS V14.01,2013-01-16 08:28:00,
2013-01-16 02:29:00,16.3,9.2,30.12,SW,225,14.0,14.0,73,0.00,,,0.00,VWS V14.01,2013-01-16 08:29:00,
2013-01-16 02:30:00,16.3,9.2,30.12,SSW,202,12.9,14.0,73,0.00,,,0.00,VWS V14.01,2013-01-16 08:30:00,
2013-01-16 02:31:00,16.3,9.2,30.12,SSW,202,12.9,12.9,73,0.00,,,0.00,VWS V14.01,2013-01-16 08:31:00,
2013-01-16 02:32:00,16.7,9.6,30.12,SSW,202,12.9,12.9,73,0.00,,,0.00,VWS V14.01,2013-01-16 08:32:00,
2013-01-16 02:33:00,16.8,9.7,30.11,SSW,202,12.0,12.9,73,0.00,,,0.00,VWS V14.01,2013-01-16 08:33:00,
2013-01-16 02:34:00,16.8,9.7,30.11,SSW,202,12.0,12.0,73,0.00,,,0.00,VWS V14.01,2013-01-16 08:34:00,
2013-01-16 02:35:00,16.8,9.4,30.11,SSW,202,11.1,12.0,72,0.00,,,0.00,VWS V14.01,2013-01-16 08:35:00,
2013-01-16 02:36:00,16.8,9.4,30.11,SSW,202,11.1,11.1,72,0.00,,,0.00,VWS V14.01,2013-01-16 08:36:00,
2013-01-16 02:37:00,16.8,9.4,30.12,SSW,202,11.4,11.4,72,0.00,,,0.00,VWS V14.01,2013-01-16 08:37:00,
2013-01-16 02:38:00,16.8,9.4,30.11,SSW,202,11.4,11.4,72,0.00,,,0.00,VWS V14.01,2013-01-16 08:38:00,
2013-01-16 02:39:00,16.8,9.4,30.12,SSW,202,10.2,11.4,72,0.00,,,0.00,VWS V14.01,2013-01-16 08:39:00,
2013-01-16 02:40:00,16.8,9.4,30.11,SSW,202,10.2,10.2,72,0.00,,,0.00,VWS V14.01,2013-01-16 08:40:00,
2013-01-16 02:41:00,16.8,9.4,30.11,SSW,202,10.2,10.2,72,0.00,,,0.00,VWS V14.01,2013-01-16 08:41:00,
2013-01-16 02:42:00,16.8,9.4,30.11,SSW,202,11.4,11.4,72,0.00,,,0.00,VWS V14.01,2013-01-16 08:42:00,
2013-01-16 02:43:00,16.8,9.4,30.11,SSW,202,14.0,14.0,72,0.00,,,0.00,VWS V14.01,2013-01-16 08:43:00,
2013-01-16 02:44:00,16.8,9.4,30.11,SSW,202,14.0,14.0,72,0.00,,,0.00,VWS V14.01,2013-01-16 08:44:00,
2013-01-16 02:45:00,16.8,9.4,30.11,SSW,202,10.5,14.0,72,0.00,,,0.00,VWS V14.01,2013-01-16 08:45:00,
2013-01-16 02:46:00,16.8,9.4,30.11,SSW,202,10.5,10.5,72,0.00,,,0.00,VWS V14.01,2013-01-16 08:46:00,
2013-01-16 02:47:00,16.8,9.4,30.11,SSW,202,10.5,10.5,72,0.00,,,0.00,VWS V14.01,2013-01-16 08:47:00,
2013-01-16 02:48:00,16.8,9.4,30.11,SSW,202,10.9,10.9,72,0.00,,,0.00,VWS V14.01,2013-01-16 08:48:00,
2013-01-16 02:49:00,16.8,9.4,30.11,SSW,202,10.9,10.9,72,0.00,,,0.00,VWS V14.01,2013-01-16 08:49:00,
2013-01-16 02:50:00,16.8,9.4,30.11,SSW,202,9.6,10.9,72,0.00,,,0.00,VWS V14.01,2013-01-16 08:50:00,
2013-01-16 02:51:00,16.8,9.4,30.11,SSW,202,9.6,9.6,72,0.00,,,0.00,VWS V14.01,2013-01-16 08:51:00,
2013-01-16 02:52:00,16.7,9.3,30.11,SSW,202,8.0,9.6,72,0.00,,,0.00,VWS V14.01,2013-01-16 08:52:00,
2013-01-16 02:53:00,16.7,9.3,30.11,SSW,202,8.0,8.0,72,0.00,,,0.00,VWS V14.01,2013-01-16 08:53:00,
2013-01-16 02:54:00,16.5,9.1,30.11,SSW,202,11.6,11.6,72,0.00,,,0.00,VWS V14.01,2013-01-16 08:54:00,
2013-01-16 02:55:00,16.5,9.1,30.11,SSW,202,11.6,11.6,72,0.00,,,0.00,VWS V14.01,2013-01-16 08:55:00,
2013-01-16 02:56:00,16.5,9.1,30.11,SSW,202,11.6,11.6,72,0.00,,,0.00,VWS V14.01,2013-01-16 08:56:00,
2013-01-16 02:57:00,16.5,9.4,30.11,SSW,202,8.2,8.2,73,0.00,,,0.00,VWS V14.01,2013-01-16 08:57:00,
2013-01-16 02:58:00,16.3,9.2,30.11,SSW,202,8.7,8.7,73,0.00,,,0.00,VWS V14.01,2013-01-16 08:58:00,
2013-01-16 02:59:00,16.3,9.2,30.11,SSW,202,8.7,8.7,73,0.00,,,0.00,VWS V14.01,2013-01-16 08:59:00,
2013-01-16 03:00:00,16.3,9.2,30.11,SSW,202,8.7,8.7,73,0.00,,,0.00,VWS V14.01,2013-01-16 09:00:00,
2013-01-16 03:01:00,16.3,9.2,30.11,SSW,202,8.7,8.7,73,0.00,,,0.00,VWS V14.01,2013-01-16 09:01:00,
2013-01-16 03:02:00,16.3,9.2,30.11,SSW,202,8.7,8.7,73,0.00,,,0.00,VWS V14.01,2013-01-16 09:02:00,
2013-01-16 03:03:00,16.3,9.2,30.11,SSW,202,8.5,8.7,73,0.00,,,0.00,VWS V14.01,2013-01-16 09:03:00,
2013-01-16 03:04:00,16.3,9.2,30.11,SSW,202,8.5,8.5,73,0.00,,,0.00,VWS V14.01,2013-01-16 09:04:00,
2013-01-16 03:05:00,16.1,9.0,30.11,SSW,202,7.8,8.5,73,0.00,,,0.00,VWS V14.01,2013-01-16 09:05:00,
2013-01-16 03:06:00,16.1,9.0,30.11,SSW,202,7.8,7.8,73,0.00,,,0.00,VWS V14.01,2013-01-16 09:06:00,
2013-01-16 03:07:00,15.9,8.8,30.11,SSW,202,7.6,7.8,73,0.00,,,0.00,VWS V14.01,2013-01-16 09:07:00,
2013-01-16 03:08:00,15.9,8.8,30.11,SSW,202,7.6,7.6,73,0.00,,,0.00,VWS V14.01,2013-01-16 09:08:00,
2013-01-16 03:09:00,15.9,8.8,30.11,SSW,202,10.2,10.2,73,0.00,,,0.00,VWS V14.01,2013-01-16 09:09:00,
2013-01-16 03:10:00,15.9,8.8,30.11,SSW,202,10.2,10.2,73,0.00,,,0.00,VWS V14.01,2013-01-16 09:10:00,
2013-01-16 03:11:00,15.9,8.8,30.11,SSW,202,10.2,10.2,73,0.00,,,0.00,VWS V14.01,2013-01-16 09:11:00,
2013-01-16 03:12:00,16.1,9.0,30.11,SSW,202,8.5,8.5,73,0.00,,,0.00,VWS V14.01,2013-01-16 09:12:00,
2013-01-16 03:13:00,16.1,9.0,30.11,SSW,202,11.8,11.8,73,0.00,,,0.00,VWS V14.01,2013-01-16 09:13:00,
2013-01-16 03:14:00,16.1,9.0,30.11,SSW,202,11.8,11.8,73,0.00,,,0.00,VWS V14.01,2013-01-16 09:14:00,
2013-01-16 03:15:00,16.1,9.0,30.11,SSW,202,8.2,11.8,73,0.00,,,0.00,VWS V14.01,2013-01-16 09:15:00,
2013-01-16 03:16:00,16.1,9.0,30.11,SSW,202,8.2,8.2,73,0.00,,,0.00,VWS V14.01,2013-01-16 09:16:00,
2013-01-16 03:17:00,16.1,9.0,30.11,SSW,202,8.2,8.2,73,0.00,,,0.00,VWS V14.01,2013-01-16 09:17:00,
2013-01-16 03:18:00,16.1,9.0,30.11,SSW,202,10.0,10.0,73,0.00,,,0.00,VWS V14.01,2013-01-16 09:18:00,
2013-01-16 03:19:00,16.1,9.0,30.11,SSW,202,10.0,10.0,73,0.00,,,0.00,VWS V14.01,2013-01-16 09:19:00,
2013-01-16 03:20:00,16.1,9.0,30.11,SSW,202,7.1,10.0,73,0.00,,,0.00,VWS V14.01,2013-01-16 09:20:00,
2013-01-16 03:21:00,16.1,9.0,30.11,SSW,202,7.1,7.1,73,0.00,,,0.00,VWS V14.01,2013-01-16 09:21:00,
2013-01-16 03:22:00,15.9,8.8,30.10,SSW,202,8.2,8.2,73,0.00,,,0.00,VWS V14.01,2013-01-16 09:22:00,
2013-01-16 03:23:00,15.9,8.8,30.10,SSW,202,8.2,8.2,73,0.00,,,0.00,VWS V14.01,2013-01-16 09:23:00,
2013-01-16 03:24:00,15.9,8.8,30.10,SSW,202,10.0,10.0,73,0.00,,,0.00,VWS V14.01,2013-01-16 09:24:00,
2013-01-16 03:25:00,15.9,8.8,30.10,SSW,202,10.0,10.0,73,0.00,,,0.00,VWS V14.01,2013-01-16 09:25:00,
2013-01-16 03:26:00,15.9,8.8,30.10,SSW,202,10.0,10.0,73,0.00,,,0.00,VWS V14.01,2013-01-16 09:26:00,
2013-01-16 03:27:00,15.8,8.7,30.10,SSW,202,8.9,8.9,73,0.00,,,0.00,VWS V14.01,2013-01-16 09:27:00,
2013-01-16 03:28:00,15.8,8.7,30.10,SSW,202,9.1,9.1,73,0.00,,,0.00,VWS V14.01,2013-01-16 09:28:00,
2013-01-16 03:29:00,15.8,8.7,30.10,SSW,202,9.1,9.1,73,0.00,,,0.00,VWS V14.01,2013-01-16 09:29:00,
2013-01-16 03:30:00,15.8,9.0,30.10,SSW,202,8.0,9.1,74,0.00,,,0.00,VWS V14.01,2013-01-16 09:30:00,
2013-01-16 03:31:00,15.8,9.0,30.10,SSW,202,8.0,8.0,74,0.00,,,0.00,VWS V14.01,2013-01-16 09:31:00,
2013-01-16 03:32:00,15.6,8.8,30.10,SSW,202,8.0,8.0,74,0.00,,,0.00,VWS V14.01,2013-01-16 09:32:00,
2013-01-16 03:33:00,15.6,8.8,30.10,SSW,202,7.6,8.0,74,0.00,,,0.00,VWS V14.01,2013-01-16 09:33:00,
2013-01-16 03:34:00,15.6,8.8,30.10,SSW,202,7.6,7.6,74,0.00,,,0.00,VWS V14.01,2013-01-16 09:34:00,
2013-01-16 03:35:00,15.6,8.8,30.10,SW,225,6.7,7.6,74,0.00,,,0.00,VWS V14.01,2013-01-16 09:35:00,
2013-01-16 03:36:00,15.6,8.8,30.10,SW,225,6.7,6.7,74,0.00,,,0.00,VWS V14.01,2013-01-16 09:36:00,
2013-01-16 03:37:00,15.6,8.8,30.10,SSW,202,8.0,8.0,74,0.00,,,0.00,VWS V14.01,2013-01-16 09:37:00,
2013-01-16 03:38:00,15.6,8.8,30.10,SSW,202,8.0,8.0,74,0.00,,,0.00,VWS V14.01,2013-01-16 09:38:00,
2013-01-16 03:39:00,15.6,8.8,30.10,SSW,202,8.7,8.7,74,0.00,,,0.00,VWS V14.01,2013-01-16 09:39:00,
2013-01-16 03:40:00,15.6,8.8,30.10,SSW,202,8.7,8.7,74,0.00,,,0.00,VWS V14.01,2013-01-16 09:40:00,
2013-01-16 03:41:00,15.6,8.8,30.10,SSW,202,8.7,8.7,74,0.00,,,0.00,VWS V14.01,2013-01-16 09:41:00,
2013-01-16 03:42:00,15.6,8.8,30.10,SSW,202,8.2,8.2,74,0.00,,,0.00,VWS V14.01,2013-01-16 09:42:00,
2013-01-16 03:43:00,15.4,8.6,30.10,SSW,202,8.9,8.9,74,0.00,,,0.00,VWS V14.01,2013-01-16 09:43:00,
2013-01-16 03:44:00,15.4,8.6,30.10,SSW,202,8.9,8.9,74,0.00,,,0.00,VWS V14.01,2013-01-16 09:44:00,
2013-01-16 03:45:00,15.4,8.6,30.10,SSW,202,6.9,8.9,74,0.00,,,0.00,VWS V14.01,2013-01-16 09:45:00,
2013-01-16 03:46:00,15.4,8.6,30.10,SSW,202,6.9,6.9,74,0.00,,,0.00,VWS V14.01,2013-01-16 09:46:00,
2013-01-16 03:47:00,15.4,8.6,30.10,SSW,202,6.9,6.9,74,0.00,,,0.00,VWS V14.01,2013-01-16 09:47:00,
2013-01-16 03:48:00,15.4,8.6,30.10,SSW,202,9.1,9.1,74,0.00,,,0.00,VWS V14.01,2013-01-16 09:48:00,
2013-01-16 03:49:00,15.4,8.6,30.10,SSW,202,9.1,9.1,74,0.00,,,0.00,VWS V14.01,2013-01-16 09:49:00,
2013-01-16 03:50:00,15.4,8.6,30.09,South,180,8.5,9.1,74,0.00,,,0.00,VWS V14.01,2013-01-16 09:50:00,
2013-01-16 03:51:00,15.4,8.6,30.09,South,180,8.5,8.5,74,0.00,,,0.00,VWS V14.01,2013-01-16 09:51:00,
2013-01-16 03:52:00,15.4,8.6,30.09,SSW,202,7.1,8.5,74,0.00,,,0.00,VWS V14.01,2013-01-16 09:52:00,
2013-01-16 03:53:00,15.4,8.6,30.09,SSW,202,7.1,7.1,74,0.00,,,0.00,VWS V14.01,2013-01-16 09:53:00,
2013-01-16 03:54:00,15.4,8.6,30.09,SSW,202,8.5,8.5,74,0.00,,,0.00,VWS V14.01,2013-01-16 09:54:00,
2013-01-16 03:55:00,15.4,8.6,30.09,SSW,202,8.5,8.5,74,0.00,,,0.00,VWS V14.01,2013-01-16 09:55:00,
2013-01-16 03:56:00,15.4,8.6,30.09,SSW,202,8.5,8.5,74,0.00,,,0.00,VWS V14.01,2013-01-16 09:56:00,
2013-01-16 03:57:00,15.4,8.6,30.09,SSW,202,7.6,7.6,74,0.00,,,0.00,VWS V14.01,2013-01-16 09:57:00,
2013-01-16 03:58:00,15.2,8.4,30.09,SSW,202,8.2,8.2,74,0.00,,,0.00,VWS V14.01,2013-01-16 09:58:00,
2013-01-16 03:59:00,15.2,8.4,30.08,SSW,202,8.2,8.2,74,0.00,,,0.00,VWS V14.01,2013-01-16 09:59:00,
2013-01-16 04:00:00,15.2,8.4,30.08,SSW,202,8.2,8.2,74,0.00,,,0.00,VWS V14.01,2013-01-16 10:00:00,
2013-01-16 04:01:00,15.2,8.4,30.08,SSW,202,8.2,8.2,74,0.00,,,0.00,VWS V14.01,2013-01-16 10:01:00,
2013-01-16 04:02:00,15.2,8.4,30.08,SSW,202,8.2,8.2,74,0.00,,,0.00,VWS V14.01,2013-01-16 10:02:00,
2013-01-16 04:03:00,15.0,8.5,30.09,SSW,202,9.8,9.8,75,0.00,,,0.00,VWS V14.01,2013-01-16 10:03:00,
2013-01-16 04:04:00,15.0,8.5,30.08,SSW,202,9.8,9.8,75,0.00,,,0.00,VWS V14.01,2013-01-16 10:04:00,
2013-01-16 04:05:00,15.0,8.5,30.09,SSW,202,8.7,9.8,75,0.00,,,0.00,VWS V14.01,2013-01-16 10:05:00,
2013-01-16 04:06:00,15.0,8.5,30.09,SSW,202,8.7,8.7,75,0.00,,,0.00,VWS V14.01,2013-01-16 10:06:00,
2013-01-16 04:07:00,15.0,8.5,30.08,SSW,202,11.4,11.4,75,0.00,,,0.00,VWS V14.01,2013-01-16 10:07:00,
2013-01-16 04:08:00,15.0,8.5,30.08,SSW,202,11.4,11.4,75,0.00,,,0.00,VWS V14.01,2013-01-16 10:08:00,
2013-01-16 04:09:00,15.0,8.5,30.08,SSW,202,10.2,11.4,75,0.00,,,0.00,VWS V14.01,2013-01-16 10:09:00,
2013-01-16 04:10:00,15.0,8.5,30.07,SSW,202,10.2,10.2,75,0.00,,,0.00,VWS V14.01,2013-01-16 10:10:00,
2013-01-16 04:11:00,15.0,8.5,30.07,SSW,202,10.2,10.2,75,0.00,,,0.00,VWS V14.01,2013-01-16 10:11:00,
2013-01-16 04:12:00,15.2,8.7,30.08,SSW,202,6.2,6.2,75,0.00,,,0.00,VWS V14.01,2013-01-16 10:12:00,
2013-01-16 04:13:00,15.0,8.5,30.07,SSW,202,9.3,9.3,75,0.00,,,0.00,VWS V14.01,2013-01-16 10:13:00,
2013-01-16 04:14:00,15.0,8.5,30.07,SSW,202,9.3,9.3,75,0.00,,,0.00,VWS V14.01,2013-01-16 10:14:00,
2013-01-16 04:15:00,15.2,8.7,30.07,SSW,202,7.3,9.3,75,0.00,,,0.00,VWS V14.01,2013-01-16 10:15:00,
2013-01-16 04:16:00,15.2,8.7,30.07,SSW,202,7.3,7.3,75,0.00,,,0.00,VWS V14.01,2013-01-16 10:16:00,
2013-01-16 04:17:00,15.2,8.7,30.07,SSW,202,7.3,7.3,75,0.00,,,0.00,VWS V14.01,2013-01-16 10:17:00,
2013-01-16 04:18:00,15.0,8.5,30.07,SSW,202,9.1,9.1,75,0.00,,,0.00,VWS V14.01,2013-01-16 10:18:00,
2013-01-16 04:19:00,15.0,8.5,30.07,SSW,202,9.1,9.1,75,0.00,,,0.00,VWS V14.01,2013-01-16 10:19:00,
2013-01-16 04:20:00,15.2,8.7,30.07,SSW,202,7.1,9.1,75,0.00,,,0.00,VWS V14.01,2013-01-16 10:20:00,
2013-01-16 04:21:00,15.2,8.7,30.07,SSW,202,7.1,7.1,75,0.00,,,0.00,VWS V14.01,2013-01-16 10:21:00,
2013-01-16 04:22:00,15.0,8.5,30.07,SSW,202,8.2,8.2,75,0.00,,,0.00,VWS V14.01,2013-01-16 10:22:00,
2013-01-16 04:23:00,15.0,8.5,30.07,SSW,202,8.2,8.2,75,0.00,,,0.00,VWS V14.01,2013-01-16 10:23:00,
2013-01-16 04:24:00,15.2,8.7,30.07,SSW,202,6.7,8.2,75,0.00,,,0.00,VWS V14.01,2013-01-16 10:24:00,
2013-01-16 04:25:00,15.2,8.7,30.07,SSW,202,6.7,6.7,75,0.00,,,0.00,VWS V14.01,2013-01-16 10:25:00,
2013-01-16 04:26:00,15.2,8.7,30.07,SSW,202,6.7,6.7,75,0.00,,,0.00,VWS V14.01,2013-01-16 10:26:00,
2013-01-16 04:27:00,15.2,8.7,30.07,SSW,202,9.1,9.1,75,0.00,,,0.00,VWS V14.01,2013-01-16 10:27:00,
2013-01-16 04:28:00,15.0,8.5,30.07,SSW,202,6.7,9.1,75,0.00,,,0.00,VWS V14.01,2013-01-16 10:28:00,
2013-01-16 04:29:00,15.0,8.5,30.07,SSW,202,6.7,6.7,75,0.00,,,0.00,VWS V14.01,2013-01-16 10:29:00,
2013-01-16 04:30:00,15.0,8.5,30.07,SSW,202,9.1,9.1,75,0.00,,,0.00,VWS V14.01,2013-01-16 10:30:00,
2013-01-16 04:31:00,15.0,8.5,30.07,SSW,202,9.1,9.1,75,0.00,,,0.00,VWS V14.01,2013-01-16 10:31:00,
2013-01-16 04:32:00,15.0,8.5,30.07,SSW,202,9.1,9.1,75,0.00,,,0.00,VWS V14.01,2013-01-16 10:32:00,
2013-01-16 04:33:00,15.2,8.7,30.07,SSW,202,10.0,10.0,75,0.00,,,0.00,VWS V14.01,2013-01-16 10:33:00,
2013-01-16 04:34:00,15.2,8.7,30.07,SSW,202,10.0,10.0,75,0.00,,,0.00,VWS V14.01,2013-01-16 10:34:00,
2013-01-16 04:35:00,15.4,8.9,30.06,SSW,202,11.6,11.6,75,0.00,,,0.00,VWS V14.01,2013-01-16 10:35:00,
2013-01-16 04:36:00,15.4,8.9,30.06,SSW,202,11.6,11.6,75,0.00,,,0.00,VWS V14.01,2013-01-16 10:36:00,
2013-01-16 04:37:00,15.6,9.1,30.06,SSW,202,10.5,11.6,75,0.00,,,0.00,VWS V14.01,2013-01-16 10:37:00,
2013-01-16 04:38:00,15.6,9.1,30.06,SSW,202,10.5,10.5,75,0.00,,,0.00,VWS V14.01,2013-01-16 10:38:00,
2013-01-16 04:39:00,15.6,9.1,30.06,SSW,202,10.5,10.5,75,0.00,,,0.00,VWS V14.01,2013-01-16 10:39:00,
2013-01-16 04:40:00,15.6,9.1,30.07,SSW,202,10.5,10.5,75,0.00,,,0.00,VWS V14.01,2013-01-16 10:40:00,
2013-01-16 04:41:00,15.6,9.1,30.07,SSW,202,10.5,10.5,75,0.00,,,0.00,VWS V14.01,2013-01-16 10:41:00,
2013-01-16 04:42:00,15.6,9.1,30.06,South,180,10.2,10.2,75,0.00,,,0.00,VWS V14.01,2013-01-16 10:42:00,
2013-01-16 04:43:00,15.8,9.3,30.06,SSW,202,10.2,10.2,75,0.00,,,0.00,VWS V14.01,2013-01-16 10:43:00,
2013-01-16 04:44:00,15.8,9.3,30.06,SSW,202,10.2,10.2,75,0.00,,,0.00,VWS V14.01,2013-01-16 10:44:00,
2013-01-16 04:45:00,15.8,9.3,30.06,SSW,202,10.0,10.2,75,0.00,,,0.00,VWS V14.01,2013-01-16 10:45:00,
2013-01-16 04:46:00,15.8,9.3,30.06,SSW,202,10.0,10.0,75,0.00,,,0.00,VWS V14.01,2013-01-16 10:46:00,
2013-01-16 04:47:00,15.9,9.4,30.06,SSW,202,10.0,10.0,75,0.00,,,0.00,VWS V14.01,2013-01-16 10:47:00,
2013-01-16 04:48:00,15.9,9.4,30.06,SSW,202,12.0,12.0,75,0.00,,,0.00,VWS V14.01,2013-01-16 10:48:00,
2013-01-16 04:49:00,15.9,9.4,30.06,SSW,202,12.0,12.0,75,0.00,,,0.00,VWS V14.01,2013-01-16 10:49:00,
2013-01-16 04:50:00,15.9,9.4,30.06,SSW,202,12.5,12.5,75,0.00,,,0.00,VWS V14.01,2013-01-16 10:50:00,
2013-01-16 04:51:00,15.9,9.4,30.06,SSW,202,12.5,12.5,75,0.00,,,0.00,VWS V14.01,2013-01-16 10:51:00,
2013-01-16 04:52:00,15.9,9.4,30.06,SSW,202,10.2,12.5,75,0.00,,,0.00,VWS V14.01,2013-01-16 10:52:00,
2013-01-16 04:53:00,15.9,9.4,30.06,SSW,202,10.2,10.2,75,0.00,,,0.00,VWS V14.01,2013-01-16 10:53:00,
2013-01-16 04:54:00,15.9,9.4,30.05,SSW,202,10.2,10.2,75,0.00,,,0.00,VWS V14.01,2013-01-16 10:54:00,
2013-01-16 04:55:00,15.9,9.4,30.05,SSW,202,10.2,10.2,75,0.00,,,0.00,VWS V14.01,2013-01-16 10:55:00,
2013-01-16 04:56:00,15.9,9.4,30.05,SSW,202,10.2,10.2,75,0.00,,,0.00,VWS V14.01,2013-01-16 10:56:00,
2013-01-16 04:57:00,15.8,9.3,30.06,SSW,202,8.5,8.5,75,0.00,,,0.00,VWS V14.01,2013-01-16 10:57:00,
2013-01-16 04:58:00,15.8,9.3,30.06,SSW,202,9.1,9.1,75,0.00,,,0.00,VWS V14.01,2013-01-16 10:58:00,
2013-01-16 04:59:00,15.8,9.3,30.06,SSW,202,9.1,9.1,75,0.00,,,0.00,VWS V14.01,2013-01-16 10:59:00,
2013-01-16 05:00:00,15.8,9.3,30.06,SSW,202,9.1,9.1,75,0.00,,,0.00,VWS V14.01,2013-01-16 11:00:00,
2013-01-16 05:01:00,15.8,9.3,30.06,SSW,202,9.1,9.1,75,0.00,,,0.00,VWS V14.01,2013-01-16 11:01:00,
2013-01-16 05:02:00,15.8,9.3,30.06,SSW,202,9.1,9.1,75,0.00,,,0.00,VWS V14.01,2013-01-16 11:02:00,
2013-01-16 05:03:00,15.6,9.1,30.06,SSW,202,8.7,9.1,75,0.00,,,0.00,VWS V14.01,2013-01-16 11:03:00,
2013-01-16 05:04:00,15.6,9.1,30.05,SSW,202,8.7,8.7,75,0.00,,,0.00,VWS V14.01,2013-01-16 11:04:00,
2013-01-16 05:05:00,15.8,9.3,30.05,SSW,202,10.7,10.7,75,0.00,,,0.00,VWS V14.01,2013-01-16 11:05:00,
2013-01-16 05:06:00,15.8,9.3,30.05,SSW,202,10.7,10.7,75,0.00,,,0.00,VWS V14.01,2013-01-16 11:06:00,
2013-01-16 05:07:00,15.8,9.3,30.05,SSW,202,6.4,10.7,75,0.00,,,0.00,VWS V14.01,2013-01-16 11:07:00,
2013-01-16 05:08:00,15.8,9.3,30.05,SSW,202,6.4,6.4,75,0.00,,,0.00,VWS V14.01,2013-01-16 11:08:00,
2013-01-16 05:09:00,15.8,9.3,30.05,SSW,202,8.7,8.7,75,0.00,,,0.00,VWS V14.01,2013-01-16 11:09:00,
2013-01-16 05:10:00,15.8,9.3,30.05,SSW,202,8.7,8.7,75,0.00,,,0.00,VWS V14.01,2013-01-16 11:10:00,
2013-01-16 05:11:00,15.8,9.3,30.05,SSW,202,8.7,8.7,75,0.00,,,0.00,VWS V14.01,2013-01-16 11:11:00,
2013-01-16 05:12:00,15.8,9.3,30.05,SSW,202,9.3,9.3,75,0.00,,,0.00,VWS V14.01,2013-01-16 11:12:00,
2013-01-16 05:13:00,15.8,9.3,30.05,South,180,15.2,15.2,75,0.00,,,0.00,VWS V14.01,2013-01-16 11:13:00,
2013-01-16 05:14:00,15.8,9.3,30.05,South,180,15.2,15.2,75,0.00,,,0.00,VWS V14.01,2013-01-16 11:14:00,
2013-01-16 05:15:00,15.9,9.4,30.05,SSW,202,10.9,15.2,75,0.00,,,0.00,VWS V14.01,2013-01-16 11:15:00,
2013-01-16 05:16:00,15.9,9.4,30.05,SSW,202,10.9,10.9,75,0.00,,,0.00,VWS V14.01,2013-01-16 11:16:00,
2013-01-16 05:17:00,15.9,9.4,30.05,SSW,202,10.9,10.9,75,0.00,,,0.00,VWS V14.01,2013-01-16 11:17:00,
2013-01-16 05:18:00,16.1,9.6,30.05,SSW,202,11.6,11.6,75,0.00,,,0.00,VWS V14.01,2013-01-16 11:18:00,
2013-01-16 05:19:00,16.1,9.6,30.05,SSW,202,11.6,11.6,75,0.00,,,0.00,VWS V14.01,2013-01-16 11:19:00,
2013-01-16 05:20:00,16.1,9.6,30.05,SSW,202,6.0,11.6,75,0.00,,,0.00,VWS V14.01,2013-01-16 11:20:00,
2013-01-16 05:21:00,16.1,9.6,30.05,SSW,202,6.0,6.0,75,0.00,,,0.00,VWS V14.01,2013-01-16 11:21:00,
2013-01-16 05:22:00,16.3,9.8,30.05,SSW,202,9.3,9.3,75,0.00,,,0.00,VWS V14.01,2013-01-16 11:22:00,
2013-01-16 05:23:00,16.3,9.8,30.05,SSW,202,9.3,9.3,75,0.00,,,0.00,VWS V14.01,2013-01-16 11:23:00,
2013-01-16 05:24:00,16.3,9.8,30.05,SSW,202,10.0,10.0,75,0.00,,,0.00,VWS V14.01,2013-01-16 11:24:00,
2013-01-16 05:25:00,16.3,9.8,30.04,SSW,202,10.0,10.0,75,0.00,,,0.00,VWS V14.01,2013-01-16 11:25:00,
2013-01-16 05:26:00,16.3,9.8,30.04,SSW,202,10.0,10.0,75,0.00,,,0.00,VWS V14.01,2013-01-16 11:26:00,
2013-01-16 05:27:00,16.5,10.0,30.04,SSW,202,12.9,12.9,75,0.00,,,0.00,VWS V14.01,2013-01-16 11:27:00,
2013-01-16 05:28:00,16.5,10.0,30.04,SSW,202,12.5,12.9,75,0.00,,,0.00,VWS V14.01,2013-01-16 11:28:00,
2013-01-16 05:29:00,16.5,10.0,30.04,SSW,202,12.5,12.5,75,0.00,,,0.00,VWS V14.01,2013-01-16 11:29:00,
2013-01-16 05:30:00,16.5,10.0,30.04,SSW,202,10.0,12.5,75,0.00,,,0.00,VWS V14.01,2013-01-16 11:30:00,
2013-01-16 05:31:00,16.5,10.0,30.04,SSW,202,10.0,10.0,75,0.00,,,0.00,VWS V14.01,2013-01-16 11:31:00,
2013-01-16 05:32:00,16.5,10.0,30.04,SSW,202,12.3,12.3,75,0.00,,,0.00,VWS V14.01,2013-01-16 11:32:00,
2013-01-16 05:33:00,16.7,10.2,30.04,SSW,202,12.3,12.3,75,0.00,,,0.00,VWS V14.01,2013-01-16 11:33:00,
2013-01-16 05:34:00,16.7,10.2,30.04,SSW,202,12.3,12.3,75,0.00,,,0.00,VWS V14.01,2013-01-16 11:34:00,
2013-01-16 05:35:00,16.7,10.2,30.04,SSW,202,12.9,12.9,75,0.00,,,0.00,VWS V14.01,2013-01-16 11:35:00,
2013-01-16 05:36:00,16.7,10.2,30.04,SSW,202,12.9,12.9,75,0.00,,,0.00,VWS V14.01,2013-01-16 11:36:00,
2013-01-16 05:37:00,16.7,9.9,30.03,SW,225,11.4,12.9,74,0.00,,,0.00,VWS V14.01,2013-01-16 11:37:00,
2013-01-16 05:38:00,16.7,9.9,30.03,SW,225,11.4,11.4,74,0.00,,,0.00,VWS V14.01,2013-01-16 11:38:00,
2013-01-16 05:39:00,16.7,9.9,30.03,SSW,202,10.0,11.4,74,0.00,,,0.00,VWS V14.01,2013-01-16 11:39:00,
2013-01-16 05:40:00,16.7,9.9,30.03,SSW,202,10.0,10.0,74,0.00,,,0.00,VWS V14.01,2013-01-16 11:40:00,
2013-01-16 05:41:00,16.7,9.9,30.03,SSW,202,10.0,10.0,74,0.00,,,0.00,VWS V14.01,2013-01-16 11:41:00,
2013-01-16 05:42:00,16.7,9.9,30.03,SSW,202,9.6,9.6,74,0.00,,,0.00,VWS V14.01,2013-01-16 11:42:00,
2013-01-16 05:43:00,16.7,9.9,30.03,SSW,202,10.9,10.9,74,0.00,,,0.00,VWS V14.01,2013-01-16 11:43:00,
2013-01-16 05:44:00,16.7,9.9,30.03,SSW,202,10.9,10.9,74,0.00,,,0.00,VWS V14.01,2013-01-16 11:44:00,
2013-01-16 05:45:00,16.8,10.0,30.03,SSW,202,10.0,10.9,74,0.00,,,0.00,VWS V14.01,2013-01-16 11:45:00,
2013-01-16 05:46:00,16.8,10.0,30.03,SSW,202,10.0,10.0,74,0.00,,,0.00,VWS V14.01,2013-01-16 11:46:00,
2013-01-16 05:47:00,16.8,10.0,30.03,SSW,202,10.0,10.0,74,0.00,,,0.00,VWS V14.01,2013-01-16 11:47:00,
2013-01-16 05:48:00,16.7,9.9,30.02,SSW,202,11.4,11.4,74,0.00,,,0.00,VWS V14.01,2013-01-16 11:48:00,
2013-01-16 05:49:00,16.7,9.9,30.02,SSW,202,11.4,11.4,74,0.00,,,0.00,VWS V14.01,2013-01-16 11:49:00,
2013-01-16 05:50:00,16.8,10.0,30.02,South,180,9.6,11.4,74,0.00,,,0.00,VWS V14.01,2013-01-16 11:50:00,
2013-01-16 05:51:00,16.8,10.0,30.02,South,180,9.6,9.6,74,0.00,,,0.00,VWS V14.01,2013-01-16 11:51:00,
2013-01-16 05:52:00,16.7,9.9,30.02,SSW,202,11.6,11.6,74,0.00,,,0.00,VWS V14.01,2013-01-16 11:52:00,
2013-01-16 05:53:00,16.7,9.9,30.02,SSW,202,11.6,11.6,74,0.00,,,0.00,VWS V14.01,2013-01-16 11:53:00,
2013-01-16 05:54:00,16.8,10.0,30.02,SSW,202,9.8,11.6,74,0.00,,,0.00,VWS V14.01,2013-01-16 11:54:00,
2013-01-16 05:55:00,16.8,10.0,30.02,SSW,202,9.8,9.8,74,0.00,,,0.00,VWS V14.01,2013-01-16 11:55:00,
2013-01-16 05:56:00,16.8,10.0,30.02,SSW,202,9.8,9.8,74,0.00,,,0.00,VWS V14.01,2013-01-16 11:56:00,
2013-01-16 05:57:00,16.8,10.0,30.02,SSW,202,10.2,10.2,74,0.00,,,0.00,VWS V14.01,2013-01-16 11:57:00,
2013-01-16 05:58:00,16.8,10.0,30.02,SSW,202,10.0,10.2,74,0.00,,,0.00,VWS V14.01,2013-01-16 11:58:00,
2013-01-16 05:59:00,16.8,10.0,30.02,SSW,202,10.0,10.0,74,0.00,,,0.00,VWS V14.01,2013-01-16 11:59:00,
2013-01-16 06:00:00,16.8,10.0,30.02,SSW,202,10.0,10.0,74,0.00,,,0.00,VWS V14.01,2013-01-16 12:00:00,
2013-01-16 06:01:00,16.8,10.0,30.02,SSW,202,10.0,10.0,74,0.00,,,0.00,VWS V14.01,2013-01-16 12:01:00,
2013-01-16 06:02:00,16.8,10.0,30.02,SSW,202,17.0,17.0,74,0.00,,,0.00,VWS V14.01,2013-01-16 12:02:00,
2013-01-16 06:03:00,16.8,10.0,30.01,SSW,202,17.0,17.0,74,0.00,,,0.00,VWS V14.01,2013-01-16 12:03:00,
2013-01-16 06:04:00,16.8,10.0,30.01,SSW,202,17.0,17.0,74,0.00,,,0.00,VWS V14.01,2013-01-16 12:04:00,
2013-01-16 06:05:00,16.8,10.0,30.01,SSW,202,14.5,17.0,74,0.00,,,0.00,VWS V14.01,2013-01-16 12:05:00,
2013-01-16 06:06:00,16.8,10.0,30.01,SSW,202,14.5,14.5,74,0.00,,,0.00,VWS V14.01,2013-01-16 12:06:00,
2013-01-16 06:07:00,16.8,10.0,30.01,SSW,202,9.6,14.5,74,0.00,,,0.00,VWS V14.01,2013-01-16 12:07:00,
2013-01-16 06:08:00,16.8,10.0,30.01,SSW,202,9.6,9.6,74,0.00,,,0.00,VWS V14.01,2013-01-16 12:08:00,
2013-01-16 06:09:00,16.8,10.0,30.00,SSW,202,11.8,11.8,74,0.00,,,0.00,VWS V14.01,2013-01-16 12:09:00,
2013-01-16 06:10:00,16.8,10.0,30.01,SSW,202,11.8,11.8,74,0.00,,,0.00,VWS V14.01,2013-01-16 12:10:00,
2013-01-16 06:11:00,16.8,10.0,30.01,SSW,202,11.8,11.8,74,0.00,,,0.00,VWS V14.01,2013-01-16 12:11:00,
2013-01-16 06:12:00,16.8,10.0,30.01,SSW,202,10.5,11.8,74,0.00,,,0.00,VWS V14.01,2013-01-16 12:12:00,
2013-01-16 06:13:00,16.8,10.0,30.01,SSW,202,15.6,15.6,74,0.00,,,0.00,VWS V14.01,2013-01-16 12:13:00,
2013-01-16 06:14:00,16.8,10.0,30.00,SSW,202,15.6,15.6,74,0.00,,,0.00,VWS V14.01,2013-01-16 12:14:00,
2013-01-16 06:15:00,17.2,10.4,30.00,SSW,202,13.8,15.6,74,0.00,,,0.00,VWS V14.01,2013-01-16 12:15:00,
2013-01-16 06:16:00,17.2,10.4,30.00,SSW,202,13.8,13.8,74,0.00,,,0.00,VWS V14.01,2013-01-16 12:16:00,
2013-01-16 06:17:00,17.2,10.4,30.00,SW,225,11.4,13.8,74,0.00,,,0.00,VWS V14.01,2013-01-16 12:17:00,
2013-01-16 06:18:00,17.2,10.4,30.00,SW,225,11.4,11.4,74,0.00,,,0.00,VWS V14.01,2013-01-16 12:18:00,
2013-01-16 06:19:00,17.2,10.4,30.00,SW,225,11.4,11.4,74,0.00,,,0.00,VWS V14.01,2013-01-16 12:19:00,
2013-01-16 06:20:00,17.2,10.4,30.00,SSW,202,15.2,15.2,74,0.00,,,0.00,VWS V14.01,2013-01-16 12:20:00,
2013-01-16 06:21:00,17.2,10.4,30.00,SSW,202,15.2,15.2,74,0.00,,,0.00,VWS V14.01,2013-01-16 12:21:00,
2013-01-16 06:22:00,17.2,10.4,30.00,SW,225,11.1,15.2,74,0.00,,,0.00,VWS V14.01,2013-01-16 12:22:00,
2013-01-16 06:23:00,17.2,10.4,30.00,SW,225,11.1,11.1,74,0.00,,,0.00,VWS V14.01,2013-01-16 12:23:00,
2013-01-16 06:24:00,17.2,10.4,30.00,SSW,202,8.9,11.1,74,0.00,,,0.00,VWS V14.01,2013-01-16 12:24:00,
2013-01-16 06:25:00,17.2,10.4,30.00,SSW,202,8.9,8.9,74,0.00,,,0.00,VWS V14.01,2013-01-16 12:25:00,
2013-01-16 06:26:00,17.2,10.4,30.00,SSW,202,8.9,8.9,74,0.00,,,0.00,VWS V14.01,2013-01-16 12:26:00,
2013-01-16 06:27:00,17.2,10.4,30.00,SW,225,13.8,13.8,74,0.00,,,0.00,VWS V14.01,2013-01-16 12:27:00,
2013-01-16 06:28:00,17.2,10.4,30.00,SSW,202,11.1,13.8,74,0.00,,,0.00,VWS V14.01,2013-01-16 12:28:00,
2013-01-16 06:29:00,17.2,10.4,30.00,SSW,202,11.1,11.1,74,0.00,,,0.00,VWS V14.01,2013-01-16 12:29:00,
2013-01-16 06:30:00,17.4,10.6,30.00,SSW,202,15.6,15.6,74,0.00,,,0.00,VWS V14.01,2013-01-16 12:30:00,
2013-01-16 06:31:00,17.4,10.6,30.00,SSW,202,15.6,15.6,74,0.00,,,0.00,VWS V14.01,2013-01-16 12:31:00,
2013-01-16 06:32:00,17.4,10.6,30.00,SSW,202,18.7,18.7,74,0.00,,,0.00,VWS V14.01,2013-01-16 12:32:00,
2013-01-16 06:33:00,17.4,10.6,30.00,SSW,202,18.7,18.7,74,0.00,,,0.00,VWS V14.01,2013-01-16 12:33:00,
2013-01-16 06:34:00,17.4,10.6,30.00,SSW,202,11.4,18.7,74,0.00,,,0.00,VWS V14.01,2013-01-16 12:34:00,
2013-01-16 06:35:00,17.4,10.6,30.00,SSW,202,11.4,11.4,74,0.00,,,0.00,VWS V14.01,2013-01-16 12:35:00,
2013-01-16 06:36:00,17.4,10.6,30.00,SSW,202,11.4,11.4,74,0.00,,,0.00,VWS V14.01,2013-01-16 12:36:00,
2013-01-16 06:37:00,17.4,10.6,30.00,SW,225,10.0,11.4,74,0.00,,,0.00,VWS V14.01,2013-01-16 12:37:00,
2013-01-16 06:38:00,17.4,10.6,30.00,SW,225,10.0,10.0,74,0.00,,,0.00,VWS V14.01,2013-01-16 12:38:00,
2013-01-16 06:39:00,17.4,10.6,30.00,SSW,202,17.4,17.4,74,0.00,,,0.00,VWS V14.01,2013-01-16 12:39:00,
2013-01-16 06:40:00,17.4,10.6,30.00,SSW,202,17.4,17.4,74,0.00,,,0.00,VWS V14.01,2013-01-16 12:40:00,
2013-01-16 06:41:00,17.4,10.6,30.00,SSW,202,17.4,17.4,74,0.00,,,0.00,VWS V14.01,2013-01-16 12:41:00,
2013-01-16 06:42:00,17.7,10.8,30.01,SSW,202,11.8,11.8,74,0.00,,,0.00,VWS V14.01,2013-01-16 12:42:00,
2013-01-16 06:43:00,17.7,10.8,30.01,SSW,202,10.0,11.8,74,0.00,,,0.00,VWS V14.01,2013-01-16 12:43:00,
2013-01-16 06:44:00,17.7,10.8,30.01,SSW,202,10.0,10.0,74,0.00,,,0.00,VWS V14.01,2013-01-16 12:44:00,
2013-01-16 06:45:00,17.7,10.8,30.01,SW,225,7.3,10.0,74,0.00,,,0.00,VWS V14.01,2013-01-16 12:45:00,
2013-01-16 06:46:00,17.7,10.8,30.01,SW,225,7.3,7.3,74,0.00,,,0.00,VWS V14.01,2013-01-16 12:46:00,
2013-01-16 06:47:00,17.4,10.6,30.01,SSW,202,8.5,8.5,74,0.00,,,0.00,VWS V14.01,2013-01-16 12:47:00,
2013-01-16 06:48:00,17.4,10.6,30.01,SSW,202,8.5,8.5,74,0.00,,,0.00,VWS V14.01,2013-01-16 12:48:00,
2013-01-16 06:49:00,17.4,10.6,30.01,SW,225,8.2,8.5,74,0.00,,,0.00,VWS V14.01,2013-01-16 12:49:00,
2013-01-16 06:50:00,17.4,10.6,30.02,SW,225,8.2,8.2,74,0.00,,,0.00,VWS V14.01,2013-01-16 12:50:00,
2013-01-16 06:51:00,17.4,10.6,30.02,SW,225,8.2,8.2,74,0.00,,,0.00,VWS V14.01,2013-01-16 12:51:00,
2013-01-16 06:52:00,17.4,10.6,30.01,SSW,202,6.7,8.2,74,0.00,,,0.00,VWS V14.01,2013-01-16 12:52:00,
2013-01-16 06:53:00,17.4,10.6,30.01,SSW,202,6.7,6.7,74,0.00,,,0.00,VWS V14.01,2013-01-16 12:53:00,
2013-01-16 06:54:00,17.4,10.6,30.01,SW,225,6.0,6.7,74,0.00,,,0.00,VWS V14.01,2013-01-16 12:54:00,
2013-01-16 06:55:00,17.4,10.6,30.01,SW,225,6.0,6.0,74,0.00,,,0.00,VWS V14.01,2013-01-16 12:55:00,
2013-01-16 06:56:00,17.4,10.6,30.01,SW,225,6.0,6.0,74,0.00,,,0.00,VWS V14.01,2013-01-16 12:56:00,
2013-01-16 06:57:00,17.4,10.6,30.01,SSW,202,8.2,8.2,74,0.00,,,0.00,VWS V14.01,2013-01-16 12:57:00,
2013-01-16 06:58:00,17.4,10.6,30.01,SSW,202,7.1,8.2,74,0.00,,,0.00,VWS V14.01,2013-01-16 12:58:00,
2013-01-16 06:59:00,17.4,10.6,30.01,SSW,202,7.1,7.1,74,0.00,,,0.00,VWS V14.01,2013-01-16 12:59:00,
2013-01-16 07:00:00,17.4,10.6,30.01,SSW,202,7.1,7.1,74,0.00,,,0.00,VWS V14.01,2013-01-16 13:00:00,
2013-01-16 07:01:00,17.4,10.6,30.01,SSW,202,7.1,7.1,74,0.00,,,0.00,VWS V14.01,2013-01-16 13:01:00,
2013-01-16 07:02:00,17.4,10.6,30.01,SSW,202,7.1,7.1,74,0.00,,,0.00,VWS V14.01,2013-01-16 13:02:00,
2013-01-16 07:03:00,17.4,10.6,30.01,SSW,202,7.1,7.1,74,0.00,,,0.00,VWS V14.01,2013-01-16 13:03:00,
2013-01-16 07:04:00,17.4,10.6,30.01,SSW,202,11.4,11.4,74,0.00,,,0.00,VWS V14.01,2013-01-16 13:04:00,
2013-01-16 07:05:00,17.4,10.6,30.01,SSW,202,11.4,11.4,74,0.00,,,0.00,VWS V14.01,2013-01-16 13:05:00,
2013-01-16 07:06:00,17.4,10.6,30.01,SSW,202,11.4,11.4,74,0.00,,,0.00,VWS V14.01,2013-01-16 13:06:00,
2013-01-16 07:07:00,17.4,10.6,30.01,SSW,202,7.6,7.6,74,0.00,,,0.00,VWS V14.01,2013-01-16 13:07:00,
2013-01-16 07:08:00,17.4,10.6,30.01,SW,225,7.8,7.8,74,0.00,,,0.00,VWS V14.01,2013-01-16 13:08:00,
2013-01-16 07:09:00,17.4,10.6,30.01,SW,225,7.8,7.8,74,0.00,,,0.00,VWS V14.01,2013-01-16 13:09:00,
2013-01-16 07:10:00,17.4,10.6,30.01,SW,225,7.8,7.8,74,0.00,,,0.00,VWS V14.01,2013-01-16 13:10:00,
2013-01-16 07:11:00,17.4,10.6,30.01,SW,225,7.8,7.8,74,0.00,,,0.00,VWS V14.01,2013-01-16 13:11:00,
2013-01-16 07:12:00,17.4,10.6,30.01,SSW,202,11.4,11.4,74,0.00,,,0.00,VWS V14.01,2013-01-16 13:12:00,
2013-01-16 07:13:00,17.2,10.4,30.02,SSW,202,6.0,11.4,74,0.00,,,0.00,VWS V14.01,2013-01-16 13:13:00,
2013-01-16 07:14:00,17.2,10.4,30.01,SSW,202,6.0,6.0,74,0.00,,,0.00,VWS V14.01,2013-01-16 13:14:00,
2013-01-16 07:15:00,17.4,10.6,30.02,SW,225,7.3,7.3,74,0.00,,,0.00,VWS V14.01,2013-01-16 13:15:00,
2013-01-16 07:16:00,17.4,10.6,30.02,SW,225,7.3,7.3,74,0.00,,,0.00,VWS V14.01,2013-01-16 13:16:00,
2013-01-16 07:17:00,17.4,10.6,30.02,SSW,202,9.1,9.1,74,0.00,,,0.00,VWS V14.01,2013-01-16 13:17:00,
2013-01-16 07:18:00,17.4,10.6,30.02,SSW,202,9.1,9.1,74,0.00,,,0.00,VWS V14.01,2013-01-16 13:18:00,
2013-01-16 07:19:00,17.4,10.6,30.02,SW,225,6.2,9.1,74,0.00,,,0.00,VWS V14.01,2013-01-16 13:19:00,
2013-01-16 07:20:00,17.4,10.6,30.02,SW,225,6.2,6.2,74,0.00,,,0.00,VWS V14.01,2013-01-16 13:20:00,
2013-01-16 07:21:00,17.4,10.6,30.02,SW,225,6.2,6.2,74,0.00,,,0.00,VWS V14.01,2013-01-16 13:21:00,
2013-01-16 07:22:00,17.4,10.6,30.02,SSW,202,14.9,14.9,74,0.00,,,0.00,VWS V14.01,2013-01-16 13:22:00,
2013-01-16 07:23:00,17.4,10.6,30.02,SSW,202,7.6,14.9,74,0.00,,,0.00,VWS V14.01,2013-01-16 13:23:00,
2013-01-16 07:24:00,17.4,10.6,30.02,SSW,202,7.6,7.6,74,0.00,,,0.00,VWS V14.01,2013-01-16 13:24:00,
2013-01-16 07:25:00,17.4,10.6,30.02,SSW,202,7.6,7.6,74,0.00,,,0.00,VWS V14.01,2013-01-16 13:25:00,
2013-01-16 07:26:00,17.4,10.6,30.02,SSW,202,7.6,7.6,74,0.00,,,0.00,VWS V14.01,2013-01-16 13:26:00,
2013-01-16 07:27:00,17.4,10.6,30.02,SSW,202,8.7,8.7,74,0.00,,,0.00,VWS V14.01,2013-01-16 13:27:00,
2013-01-16 07:28:00,17.4,10.6,30.02,SW,225,16.1,16.1,74,0.00,,,0.00,VWS V14.01,2013-01-16 13:28:00,
2013-01-16 07:29:00,17.4,10.6,30.02,SW,225,16.1,16.1,74,0.00,,,0.00,VWS V14.01,2013-01-16 13:29:00,
2013-01-16 07:30:00,17.7,10.8,30.02,SSW,202,10.5,16.1,74,0.00,,,0.00,VWS V14.01,2013-01-16 13:30:00,
2013-01-16 07:31:00,17.7,10.8,30.02,SSW,202,10.5,10.5,74,0.00,,,0.00,VWS V14.01,2013-01-16 13:31:00,
2013-01-16 07:32:00,17.7,10.8,30.02,SSW,202,18.7,18.7,74,0.00,,,0.00,VWS V14.01,2013-01-16 13:32:00,
2013-01-16 07:33:00,17.7,10.8,30.01,SSW,202,18.7,18.7,74,0.00,,,0.00,VWS V14.01,2013-01-16 13:33:00,
2013-01-16 07:34:00,18.1,10.9,30.01,SSW,202,13.6,18.7,73,0.00,,,0.00,VWS V14.01,2013-01-16 13:34:00,
2013-01-16 07:35:00,18.1,10.9,30.01,SSW,202,13.6,13.6,73,0.00,,,0.00,VWS V14.01,2013-01-16 13:35:00,
2013-01-16 07:36:00,18.1,10.9,30.01,SSW,202,13.6,13.6,73,0.00,,,0.00,VWS V14.01,2013-01-16 13:36:00,
2013-01-16 07:37:00,18.5,11.0,30.02,SSW,202,9.8,9.8,72,0.00,,,0.00,VWS V14.01,2013-01-16 13:37:00,
2013-01-16 07:38:00,18.8,11.3,30.01,SSW,202,11.4,11.4,72,0.00,,,0.00,VWS V14.01,2013-01-16 13:38:00,
2013-01-16 07:39:00,18.8,11.3,30.02,SSW,202,11.4,11.4,72,0.00,,,0.00,VWS V14.01,2013-01-16 13:39:00,
2013-01-16 07:40:00,18.8,11.3,30.02,SSW,202,11.4,11.4,72,0.00,,,0.00,VWS V14.01,2013-01-16 13:40:00,
2013-01-16 07:41:00,18.8,11.3,30.02,SSW,202,11.4,11.4,72,0.00,,,0.00,VWS V14.01,2013-01-16 13:41:00,
2013-01-16 07:42:00,19.2,11.4,30.01,SSW,202,9.6,9.6,71,0.00,,,0.00,VWS V14.01,2013-01-16 13:42:00,
2013-01-16 07:43:00,19.5,11.6,30.01,SSW,202,13.6,13.6,71,0.00,,,0.00,VWS V14.01,2013-01-16 13:43:00,
2013-01-16 07:44:00,19.5,11.6,30.01,SSW,202,13.6,13.6,71,0.00,,,0.00,VWS V14.01,2013-01-16 13:44:00,
2013-01-16 07:45:00,19.7,11.5,30.01,SW,225,9.1,13.6,70,0.00,,,0.00,VWS V14.01,2013-01-16 13:45:00,
2013-01-16 07:46:00,19.7,11.5,30.01,SW,225,9.1,9.1,70,0.00,,,0.00,VWS V14.01,2013-01-16 13:46:00,
2013-01-16 07:47:00,20.1,11.6,30.01,SSW,202,10.5,10.5,69,0.00,,,0.00,VWS V14.01,2013-01-16 13:47:00,
2013-01-16 07:48:00,20.1,11.6,30.01,SSW,202,10.5,10.5,69,0.00,,,0.00,VWS V14.01,2013-01-16 13:48:00,
2013-01-16 07:49:00,20.3,11.8,30.01,SSW,202,10.9,10.9,69,0.00,,,0.00,VWS V14.01,2013-01-16 13:49:00,
2013-01-16 07:50:00,20.3,11.8,30.01,SSW,202,10.9,10.9,69,0.00,,,0.00,VWS V14.01,2013-01-16 13:50:00,
2013-01-16 07:51:00,20.3,11.8,30.01,SSW,202,10.9,10.9,69,0.00,,,0.00,VWS V14.01,2013-01-16 13:51:00,
2013-01-16 07:52:00,20.6,12.1,30.01,SSW,202,14.5,14.5,69,0.00,,,0.00,VWS V14.01,2013-01-16 13:52:00,
2013-01-16 07:53:00,21.0,12.1,30.01,SSW,202,7.1,14.5,68,0.00,,,0.00,VWS V14.01,2013-01-16 13:53:00,
2013-01-16 07:54:00,21.0,12.1,30.02,SSW,202,7.1,7.1,68,0.00,,,0.00,VWS V14.01,2013-01-16 13:54:00,
2013-01-16 07:55:00,21.0,12.1,30.01,SSW,202,7.1,7.1,68,0.00,,,0.00,VWS V14.01,2013-01-16 13:55:00,
2013-01-16 07:56:00,21.0,12.1,30.01,SSW,202,7.1,7.1,68,0.00,,,0.00,VWS V14.01,2013-01-16 13:56:00,
2013-01-16 07:57:00,21.3,12.4,30.01,SW,225,13.6,13.6,68,0.00,,,0.00,VWS V14.01,2013-01-16 13:57:00,
2013-01-16 07:58:00,21.5,12.3,30.01,SSW,202,11.8,13.6,67,0.00,,,0.00,VWS V14.01,2013-01-16 13:58:00,
2013-01-16 07:59:00,21.5,12.3,30.01,SSW,202,11.8,11.8,67,0.00,,,0.00,VWS V14.01,2013-01-16 13:59:00,
2013-01-16 08:00:00,21.7,12.1,30.01,SSW,202,10.5,11.8,66,0.00,,,0.00,VWS V14.01,2013-01-16 14:00:00,
2013-01-16 08:01:00,21.7,12.1,30.01,SSW,202,10.5,10.5,66,0.00,,,0.00,VWS V14.01,2013-01-16 14:01:00,
2013-01-16 08:02:00,22.1,12.5,30.01,SSW,202,11.4,11.4,66,0.00,,,0.00,VWS V14.01,2013-01-16 14:02:00,
2013-01-16 08:03:00,22.1,12.5,30.01,SSW,202,11.4,11.4,66,0.00,,,0.00,VWS V14.01,2013-01-16 14:03:00,
2013-01-16 08:04:00,22.1,12.5,30.01,SW,225,12.7,12.7,66,0.00,,,0.00,VWS V14.01,2013-01-16 14:04:00,
2013-01-16 08:05:00,22.1,12.5,30.01,SW,225,12.7,12.7,66,0.00,,,0.00,VWS V14.01,2013-01-16 14:05:00,
2013-01-16 08:06:00,22.1,12.5,30.01,SW,225,12.7,12.7,66,0.00,,,0.00,VWS V14.01,2013-01-16 14:06:00,
2013-01-16 08:07:00,22.2,12.6,30.00,SSW,202,14.5,14.5,66,0.00,,,0.00,VWS V14.01,2013-01-16 14:07:00,
2013-01-16 08:08:00,22.6,13.0,30.00,SSW,202,15.2,15.2,66,0.00,,,0.00,VWS V14.01,2013-01-16 14:08:00,
2013-01-16 08:09:00,22.6,13.0,30.01,SSW,202,15.2,15.2,66,0.00,,,0.00,VWS V14.01,2013-01-16 14:09:00,
2013-01-16 08:10:00,22.6,13.0,30.01,SSW,202,15.2,15.2,66,0.00,,,0.00,VWS V14.01,2013-01-16 14:10:00,
2013-01-16 08:11:00,22.6,13.0,30.01,SSW,202,15.2,15.2,66,0.00,,,0.00,VWS V14.01,2013-01-16 14:11:00,
2013-01-16 08:12:00,22.4,12.4,30.00,SSW,202,14.3,14.3,65,0.00,,,0.00,VWS V14.01,2013-01-16 14:12:00,
2013-01-16 08:13:00,22.6,12.6,30.00,SSW,202,15.4,15.4,65,0.00,,,0.00,VWS V14.01,2013-01-16 14:13:00,
2013-01-16 08:14:00,22.6,12.6,30.00,SSW,202,15.4,15.4,65,0.00,,,0.00,VWS V14.01,2013-01-16 14:14:00,
2013-01-16 08:15:00,22.8,12.8,30.00,SSW,202,14.5,15.4,65,0.00,,,0.00,VWS V14.01,2013-01-16 14:15:00,
2013-01-16 08:16:00,22.8,12.8,30.00,SSW,202,14.5,14.5,65,0.00,,,0.00,VWS V14.01,2013-01-16 14:16:00,
2013-01-16 08:17:00,22.8,12.8,30.00,SSW,202,19.4,19.4,65,0.00,,,0.00,VWS V14.01,2013-01-16 14:17:00,
2013-01-16 08:18:00,22.8,12.8,30.00,SSW,202,19.4,19.4,65,0.00,,,0.00,VWS V14.01,2013-01-16 14:18:00,
2013-01-16 08:19:00,23.0,13.0,30.00,SSW,202,13.4,19.4,65,0.00,,,0.00,VWS V14.01,2013-01-16 14:19:00,
2013-01-16 08:20:00,23.0,13.0,30.00,SSW,202,13.4,13.4,65,0.00,,,0.00,VWS V14.01,2013-01-16 14:20:00,
2013-01-16 08:21:00,23.0,13.0,30.00,SSW,202,13.4,13.4,65,0.00,,,0.00,VWS V14.01,2013-01-16 14:21:00,
2013-01-16 08:22:00,23.0,13.0,29.99,SSW,202,12.7,12.7,65,0.00,,,0.00,VWS V14.01,2013-01-16 14:22:00,
2013-01-16 08:23:00,23.1,13.1,30.00,SSW,202,13.6,13.6,65,0.00,,,0.00,VWS V14.01,2013-01-16 14:23:00,
2013-01-16 08:24:00,23.1,13.1,30.00,SSW,202,13.6,13.6,65,0.00,,,0.00,VWS V14.01,2013-01-16 14:24:00,
2013-01-16 08:25:00,23.1,13.1,30.00,SSW,202,13.6,13.6,65,0.00,,,0.00,VWS V14.01,2013-01-16 14:25:00,
2013-01-16 08:26:00,23.1,13.1,30.00,SSW,202,13.6,13.6,65,0.00,,,0.00,VWS V14.01,2013-01-16 14:26:00,
2013-01-16 08:27:00,23.5,13.5,29.99,SSW,202,17.6,17.6,65,0.00,,,0.00,VWS V14.01,2013-01-16 14:27:00,
2013-01-16 08:28:00,23.7,13.7,30.00,SSW,202,16.7,17.6,65,0.00,,,0.00,VWS V14.01,2013-01-16 14:28:00,
2013-01-16 08:29:00,23.7,13.7,30.00,SSW,202,16.7,16.7,65,0.00,,,0.00,VWS V14.01,2013-01-16 14:29:00,
2013-01-16 08:30:00,24.0,14.0,30.00,SSW,202,16.7,16.7,65,0.00,,,0.00,VWS V14.01,2013-01-16 14:30:00,
2013-01-16 08:31:00,24.0,14.0,30.00,SSW,202,16.7,16.7,65,0.00,,,0.00,VWS V14.01,2013-01-16 14:31:00,
2013-01-16 08:32:00,24.4,14.3,30.00,SW,225,12.0,16.7,65,0.00,,,0.00,VWS V14.01,2013-01-16 14:32:00,
2013-01-16 08:33:00,24.4,14.3,30.00,SW,225,12.0,12.0,65,0.00,,,0.00,VWS V14.01,2013-01-16 14:33:00,
2013-01-16 08:34:00,24.4,14.0,30.00,SW,225,20.5,20.5,64,0.00,,,0.00,VWS V14.01,2013-01-16 14:34:00,
2013-01-16 08:35:00,24.4,14.0,30.00,SW,225,20.5,20.5,64,0.00,,,0.00,VWS V14.01,2013-01-16 14:35:00,
2013-01-16 08:36:00,24.4,14.0,30.00,SW,225,20.5,20.5,64,0.00,,,0.00,VWS V14.01,2013-01-16 14:36:00,
2013-01-16 08:37:00,24.6,14.5,30.00,SSW,202,20.1,20.1,65,0.00,,,0.00,VWS V14.01,2013-01-16 14:37:00,
2013-01-16 08:38:00,24.9,14.5,30.00,SSW,202,13.8,20.1,64,0.00,,,0.00,VWS V14.01,2013-01-16 14:38:00,
2013-01-16 08:39:00,24.9,14.5,30.00,SSW,202,13.8,13.8,64,0.00,,,0.00,VWS V14.01,2013-01-16 14:39:00,
2013-01-16 08:40:00,24.9,14.5,30.00,SSW,202,9.1,13.8,64,0.00,,,0.00,VWS V14.01,2013-01-16 14:40:00,
2013-01-16 08:41:00,24.9,14.5,30.00,SSW,202,9.1,9.1,64,0.00,,,0.00,VWS V14.01,2013-01-16 14:41:00,
2013-01-16 08:42:00,25.5,15.0,30.00,SSW,202,9.1,9.1,64,0.00,,,0.00,VWS V14.01,2013-01-16 14:42:00,
2013-01-16 08:43:00,25.7,15.2,30.00,SSW,202,12.5,12.5,64,0.00,,,0.00,VWS V14.01,2013-01-16 14:43:00,
2013-01-16 08:44:00,25.7,15.2,30.00,SSW,202,12.5,12.5,64,0.00,,,0.00,VWS V14.01,2013-01-16 14:44:00,
2013-01-16 08:45:00,24.6,14.5,30.00,SSW,202,19.2,19.2,65,0.00,,,0.00,VWS V14.01,2013-01-16 14:45:00,
2013-01-16 08:46:00,24.6,14.5,30.00,SSW,202,19.2,19.2,65,0.00,,,0.00,VWS V14.01,2013-01-16 14:46:00,
2013-01-16 08:47:00,24.4,14.7,30.00,SW,225,7.8,19.2,66,0.00,,,0.00,VWS V14.01,2013-01-16 14:47:00,
2013-01-16 08:48:00,24.4,14.7,30.00,SW,225,7.8,7.8,66,0.00,,,0.00,VWS V14.01,2013-01-16 14:48:00,
2013-01-16 08:49:00,24.6,14.9,30.00,SSW,202,15.2,15.2,66,0.00,,,0.00,VWS V14.01,2013-01-16 14:49:00,
2013-01-16 08:50:00,24.6,14.9,30.00,SSW,202,15.2,15.2,66,0.00,,,0.00,VWS V14.01,2013-01-16 14:50:00,
2013-01-16 08:51:00,24.6,14.9,30.00,SSW,202,15.2,15.2,66,0.00,,,0.00,VWS V14.01,2013-01-16 14:51:00,
2013-01-16 08:52:00,24.6,14.5,30.00,SSW,202,16.7,16.7,65,0.00,,,0.00,VWS V14.01,2013-01-16 14:52:00,
2013-01-16 08:53:00,23.7,14.4,30.00,SW,225,5.8,16.7,67,0.00,,,0.00,VWS V14.01,2013-01-16 14:53:00,
2013-01-16 08:54:00,23.7,14.4,30.00,SW,225,5.8,5.8,67,0.00,,,0.00,VWS V14.01,2013-01-16 14:54:00,
2013-01-16 08:55:00,23.7,14.4,29.99,SW,225,5.8,5.8,67,0.00,,,0.00,VWS V14.01,2013-01-16 14:55:00,
2013-01-16 08:56:00,23.7,14.4,29.99,SW,225,5.8,5.8,67,0.00,,,0.00,VWS V14.01,2013-01-16 14:56:00,
2013-01-16 08:57:00,23.1,14.1,30.00,SSW,202,12.0,12.0,68,0.00,,,0.00,VWS V14.01,2013-01-16 14:57:00,
2013-01-16 08:58:00,23.5,14.5,29.99,SSW,202,12.0,12.0,68,0.00,,,0.00,VWS V14.01,2013-01-16 14:58:00,
2013-01-16 08:59:00,23.5,14.5,30.00,SSW,202,12.0,12.0,68,0.00,,,0.00,VWS V14.01,2013-01-16 14:59:00,
2013-01-16 09:00:00,24.0,15.0,30.00,SW,225,15.6,15.6,68,0.00,,,0.00,VWS V14.01,2013-01-16 15:00:00,
2013-01-16 09:01:00,24.0,15.0,30.00,SW,225,15.6,15.6,68,0.00,,,0.00,VWS V14.01,2013-01-16 15:01:00,
2013-01-16 09:02:00,24.0,14.6,30.00,SSW,202,11.6,15.6,67,0.00,,,0.00,VWS V14.01,2013-01-16 15:02:00,
2013-01-16 09:03:00,24.0,14.6,30.00,SSW,202,11.6,11.6,67,0.00,,,0.00,VWS V14.01,2013-01-16 15:03:00,
2013-01-16 09:04:00,23.9,14.9,30.00,SSW,202,10.0,11.6,68,0.00,,,0.00,VWS V14.01,2013-01-16 15:04:00,
2013-01-16 09:05:00,23.9,14.9,29.99,SSW,202,10.0,10.0,68,0.00,,,0.00,VWS V14.01,2013-01-16 15:05:00,
2013-01-16 09:06:00,23.9,14.9,29.99,SSW,202,10.0,10.0,68,0.00,,,0.00,VWS V14.01,2013-01-16 15:06:00,
2013-01-16 09:07:00,23.5,14.8,29.99,South,180,9.1,9.1,69,0.00,,,0.00,VWS V14.01,2013-01-16 15:07:00,
2013-01-16 09:08:00,23.5,14.8,29.99,SSW,202,14.7,14.7,69,0.00,,,0.00,VWS V14.01,2013-01-16 15:08:00,
2013-01-16 09:09:00,23.5,14.8,29.99,SSW,202,14.7,14.7,69,0.00,,,0.00,VWS V14.01,2013-01-16 15:09:00,
2013-01-16 09:10:00,23.5,14.8,29.99,SSW,202,14.7,14.7,69,0.00,,,0.00,VWS V14.01,2013-01-16 15:10:00,
2013-01-16 09:11:00,23.5,14.8,29.99,SSW,202,14.7,14.7,69,0.00,,,0.00,VWS V14.01,2013-01-16 15:11:00,
2013-01-16 09:12:00,24.0,15.3,29.99,SSW,202,20.5,20.5,69,0.00,,,0.00,VWS V14.01,2013-01-16 15:12:00,
2013-01-16 09:13:00,24.9,15.9,29.99,SW,225,17.2,20.5,68,0.00,,,0.00,VWS V14.01,2013-01-16 15:13:00,
2013-01-16 09:14:00,24.9,15.9,29.98,SW,225,17.2,17.2,68,0.00,,,0.00,VWS V14.01,2013-01-16 15:14:00,
2013-01-16 09:15:00,24.9,15.9,29.99,SW,225,14.5,17.2,68,0.00,,,0.00,VWS V14.01,2013-01-16 15:15:00,
2013-01-16 09:16:00,24.9,15.9,29.99,SW,225,14.5,14.5,68,0.00,,,0.00,VWS V14.01,2013-01-16 15:16:00,
2013-01-16 09:17:00,24.6,15.6,29.98,SSW,202,13.8,14.5,68,0.00,,,0.00,VWS V14.01,2013-01-16 15:17:00,
2013-01-16 09:18:00,24.6,15.6,29.98,SSW,202,13.8,13.8,68,0.00,,,0.00,VWS V14.01,2013-01-16 15:18:00,
2013-01-16 09:19:00,24.8,16.1,29.99,SW,225,8.9,13.8,69,0.00,,,0.00,VWS V14.01,2013-01-16 15:19:00,
2013-01-16 09:20:00,24.8,16.1,29.98,SW,225,8.9,8.9,69,0.00,,,0.00,VWS V14.01,2013-01-16 15:20:00,
2013-01-16 09:21:00,24.8,16.1,29.98,SW,225,8.9,8.9,69,0.00,,,0.00,VWS V14.01,2013-01-16 15:21:00,
2013-01-16 09:22:00,25.5,16.4,29.98,SSW,202,17.4,17.4,68,0.00,,,0.00,VWS V14.01,2013-01-16 15:22:00,
2013-01-16 09:23:00,25.8,16.4,29.98,SSW,202,14.5,17.4,67,0.00,,,0.00,VWS V14.01,2013-01-16 15:23:00,
2013-01-16 09:24:00,25.8,16.4,29.98,SSW,202,14.5,14.5,67,0.00,,,0.00,VWS V14.01,2013-01-16 15:24:00,
2013-01-16 09:25:00,25.8,16.4,29.98,SSW,202,14.5,14.5,67,0.00,,,0.00,VWS V14.01,2013-01-16 15:25:00,
2013-01-16 09:26:00,25.8,16.4,29.98,SSW,202,14.5,14.5,67,0.00,,,0.00,VWS V14.01,2013-01-16 15:26:00,
2013-01-16 09:27:00,25.5,16.1,29.97,SSW,202,14.5,14.5,67,0.00,,,0.00,VWS V14.01,2013-01-16 15:27:00,
2013-01-16 09:28:00,25.3,16.2,29.97,SSW,202,12.7,14.5,68,0.00,,,0.00,VWS V14.01,2013-01-16 15:28:00,
2013-01-16 09:29:00,25.3,16.2,29.97,SSW,202,12.7,12.7,68,0.00,,,0.00,VWS V14.01,2013-01-16 15:29:00,
2013-01-16 09:30:00,25.3,16.6,29.97,SW,225,9.3,12.7,69,0.00,,,0.00,VWS V14.01,2013-01-16 15:30:00,
2013-01-16 09:31:00,25.3,16.6,29.97,SW,225,9.3,9.3,69,0.00,,,0.00,VWS V14.01,2013-01-16 15:31:00,
2013-01-16 09:32:00,25.8,17.0,29.97,SSW,202,16.1,16.1,69,0.00,,,0.00,VWS V14.01,2013-01-16 15:32:00,
2013-01-16 09:33:00,25.8,17.0,29.97,SSW,202,16.1,16.1,69,0.00,,,0.00,VWS V14.01,2013-01-16 15:33:00,
2013-01-16 09:34:00,26.4,17.3,29.97,SW,225,17.0,17.0,68,0.00,,,0.00,VWS V14.01,2013-01-16 15:34:00,
2013-01-16 09:35:00,26.4,17.3,29.97,SW,225,17.0,17.0,68,0.00,,,0.00,VWS V14.01,2013-01-16 15:35:00,
2013-01-16 09:36:00,26.4,17.3,29.97,WSW,248,10.7,17.0,68,0.00,,,0.00,VWS V14.01,2013-01-16 15:36:00,
2013-01-16 09:37:00,26.4,16.9,29.97,WSW,248,10.7,10.7,67,0.00,,,0.00,VWS V14.01,2013-01-16 15:37:00,
2013-01-16 09:38:00,26.4,16.9,29.97,SSW,202,5.8,10.7,67,0.00,,,0.00,VWS V14.01,2013-01-16 15:38:00,
2013-01-16 09:39:00,26.4,16.9,29.97,SSW,202,5.8,5.8,67,0.00,,,0.00,VWS V14.01,2013-01-16 15:39:00,
2013-01-16 09:40:00,26.4,16.9,29.97,SSW,202,5.8,5.8,67,0.00,,,0.00,VWS V14.01,2013-01-16 15:40:00,
2013-01-16 09:41:00,26.4,17.3,29.97,SSW,202,15.4,15.4,68,0.00,,,0.00,VWS V14.01,2013-01-16 15:41:00,
2013-01-16 09:42:00,26.4,17.3,29.97,SSW,202,15.4,15.4,68,0.00,,,0.00,VWS V14.01,2013-01-16 15:42:00,
2013-01-16 09:43:00,26.4,16.9,29.97,SSW,202,16.3,16.3,67,0.00,,,0.00,VWS V14.01,2013-01-16 15:43:00,
2013-01-16 09:44:00,26.4,16.9,29.97,SSW,202,16.3,16.3,67,0.00,,,0.00,VWS V14.01,2013-01-16 15:44:00,
2013-01-16 09:45:00,26.9,17.4,29.97,SSW,202,17.8,17.8,67,0.00,,,0.00,VWS V14.01,2013-01-16 15:45:00,
2013-01-16 09:46:00,26.9,17.4,29.97,SSW,202,17.8,17.8,67,0.00,,,0.00,VWS V14.01,2013-01-16 15:46:00,
2013-01-16 09:47:00,27.6,18.1,29.97,SSW,202,14.0,17.8,67,0.00,,,0.00,VWS V14.01,2013-01-16 15:47:00,
2013-01-16 09:48:00,27.6,18.1,29.97,SSW,202,14.0,14.0,67,0.00,,,0.00,VWS V14.01,2013-01-16 15:48:00,
2013-01-16 09:49:00,28.5,18.6,29.97,SSW,202,15.6,15.6,66,0.00,,,0.00,VWS V14.01,2013-01-16 15:49:00,
2013-01-16 09:50:00,28.5,18.6,29.97,SSW,202,15.6,15.6,66,0.00,,,0.00,VWS V14.01,2013-01-16 15:50:00,
2013-01-16 09:51:00,28.5,17.9,29.97,SSW,202,15.6,15.6,64,0.00,,,0.00,VWS V14.01,2013-01-16 15:51:00,
2013-01-16 09:52:00,28.7,18.1,29.97,SSW,202,18.5,18.5,64,0.00,,,0.00,VWS V14.01,2013-01-16 15:52:00,
2013-01-16 09:53:00,29.1,18.8,29.97,SSW,202,16.1,18.5,65,0.00,,,0.00,VWS V14.01,2013-01-16 15:53:00,
2013-01-16 09:54:00,29.1,18.8,29.96,SSW,202,16.1,16.1,65,0.00,,,0.00,VWS V14.01,2013-01-16 15:54:00,
2013-01-16 09:55:00,29.4,19.1,29.96,SSW,202,16.1,16.1,65,0.00,,,0.00,VWS V14.01,2013-01-16 15:55:00,
2013-01-16 09:56:00,29.4,19.1,29.96,SSW,202,16.7,16.7,65,0.00,,,0.00,VWS V14.01,2013-01-16 15:56:00,
2013-01-16 09:57:00,29.4,19.1,29.97,SSW,202,16.7,16.7,65,0.00,,,0.00,VWS V14.01,2013-01-16 15:57:00,
2013-01-16 09:58:00,29.4,18.7,29.96,SSW,202,10.9,16.7,64,0.00,,,0.00,VWS V14.01,2013-01-16 15:58:00,
2013-01-16 09:59:00,29.4,18.7,29.97,SSW,202,10.9,10.9,64,0.00,,,0.00,VWS V14.01,2013-01-16 15:59:00,
2013-01-16 10:00:00,29.8,19.1,29.97,SSW,202,17.2,17.2,64,0.00,,,0.00,VWS V14.01,2013-01-16 16:00:00,
2013-01-16 10:01:00,29.8,19.1,29.97,SSW,202,17.2,17.2,64,0.00,,,0.00,VWS V14.01,2013-01-16 16:01:00,
2013-01-16 10:02:00,30.0,19.0,29.96,SW,225,14.5,17.2,63,0.00,,,0.00,VWS V14.01,2013-01-16 16:02:00,
2013-01-16 10:03:00,30.0,19.0,29.96,SW,225,14.5,14.5,63,0.00,,,0.00,VWS V14.01,2013-01-16 16:03:00,
2013-01-16 10:04:00,29.8,18.8,29.97,SW,225,17.2,17.2,63,0.00,,,0.00,VWS V14.01,2013-01-16 16:04:00,
2013-01-16 10:05:00,29.8,18.8,29.96,SW,225,17.2,17.2,63,0.00,,,0.00,VWS V14.01,2013-01-16 16:05:00,
2013-01-16 10:06:00,30.0,19.0,29.96,SSW,202,18.5,18.5,63,0.00,,,0.00,VWS V14.01,2013-01-16 16:06:00,
2013-01-16 10:07:00,30.0,19.0,29.96,SSW,202,18.5,18.5,63,0.00,,,0.00,VWS V14.01,2013-01-16 16:07:00,
2013-01-16 10:08:00,30.0,19.0,29.96,SSW,202,18.7,18.7,63,0.00,,,0.00,VWS V14.01,2013-01-16 16:08:00,
2013-01-16 10:09:00,30.0,19.0,29.96,SSW,202,18.7,18.7,63,0.00,,,0.00,VWS V14.01,2013-01-16 16:09:00,
2013-01-16 10:10:00,30.0,19.0,29.96,SSW,202,18.7,18.7,63,0.00,,,0.00,VWS V14.01,2013-01-16 16:10:00,
2013-01-16 10:11:00,30.0,19.0,29.96,SSW,202,15.6,18.7,63,0.00,,,0.00,VWS V14.01,2013-01-16 16:11:00,
2013-01-16 10:12:00,30.0,19.0,29.96,SSW,202,15.6,15.6,63,0.00,,,0.00,VWS V14.01,2013-01-16 16:12:00,
2013-01-16 10:13:00,30.3,19.2,29.96,SSW,202,15.8,15.8,63,0.00,,,0.00,VWS V14.01,2013-01-16 16:13:00,
2013-01-16 10:14:00,30.3,19.2,29.96,SSW,202,15.8,15.8,63,0.00,,,0.00,VWS V14.01,2013-01-16 16:14:00,
2013-01-16 10:15:00,30.3,18.9,29.96,WNW,292,17.8,17.8,62,0.00,,,0.00,VWS V14.01,2013-01-16 16:15:00,
2013-01-16 10:16:00,30.3,18.9,29.96,WNW,292,17.8,17.8,62,0.00,,,0.00,VWS V14.01,2013-01-16 16:16:00,
2013-01-16 10:17:00,30.7,19.6,29.96,SSW,202,14.5,17.8,63,0.00,,,0.00,VWS V14.01,2013-01-16 16:17:00,
2013-01-16 10:18:00,30.7,19.6,29.96,SSW,202,14.5,14.5,63,0.00,,,0.00,VWS V14.01,2013-01-16 16:18:00,
2013-01-16 10:19:00,31.1,19.6,29.96,WSW,248,19.0,19.0,62,0.00,,,0.00,VWS V14.01,2013-01-16 16:19:00,
2013-01-16 10:20:00,31.1,19.6,29.96,WSW,248,19.0,19.0,62,0.00,,,0.00,VWS V14.01,2013-01-16 16:20:00,
2013-01-16 10:21:00,30.9,19.8,29.96,SSW,202,18.7,19.0,63,0.00,,,0.00,VWS V14.01,2013-01-16 16:21:00,
2013-01-16 10:22:00,30.9,19.8,29.96,SSW,202,18.7,18.7,63,0.00,,,0.00,VWS V14.01,2013-01-16 16:22:00,
2013-01-16 10:23:00,30.2,19.1,29.96,SSW,202,17.0,18.7,63,0.00,,,0.00,VWS V14.01,2013-01-16 16:23:00,
2013-01-16 10:24:00,30.2,19.1,29.95,SSW,202,17.0,17.0,63,0.00,,,0.00,VWS V14.01,2013-01-16 16:24:00,
2013-01-16 10:25:00,30.2,19.5,29.96,SSW,202,13.6,13.6,64,0.00,,,0.00,VWS V14.01,2013-01-16 16:25:00,
2013-01-16 10:26:00,29.8,19.1,29.95,SSW,202,13.6,13.6,64,0.00,,,0.00,VWS V14.01,2013-01-16 16:26:00,
2013-01-16 10:27:00,29.8,19.1,29.95,SSW,202,13.6,13.6,64,0.00,,,0.00,VWS V14.01,2013-01-16 16:27:00,
2013-01-16 10:28:00,30.3,19.6,29.95,SSW,202,20.5,20.5,64,0.00,,,0.00,VWS V14.01,2013-01-16 16:28:00,
2013-01-16 10:29:00,30.3,19.6,29.95,SSW,202,20.5,20.5,64,0.00,,,0.00,VWS V14.01,2013-01-16 16:29:00,
2013-01-16 10:30:00,30.3,20.0,29.95,SSW,202,10.2,10.2,65,0.00,,,0.00,VWS V14.01,2013-01-16 16:30:00,
2013-01-16 10:31:00,30.3,20.0,29.96,SSW,202,10.2,10.2,65,0.00,,,0.00,VWS V14.01,2013-01-16 16:31:00,
2013-01-16 10:32:00,30.0,19.3,29.95,SSW,202,17.6,17.6,64,0.00,,,0.00,VWS V14.01,2013-01-16 16:32:00,
2013-01-16 10:33:00,30.0,19.3,29.95,SSW,202,17.6,17.6,64,0.00,,,0.00,VWS V14.01,2013-01-16 16:33:00,
2013-01-16 10:34:00,29.8,19.5,29.95,SSW,202,10.0,17.6,65,0.00,,,0.00,VWS V14.01,2013-01-16 16:34:00,
2013-01-16 10:35:00,29.8,19.5,29.95,SSW,202,10.0,10.0,65,0.00,,,0.00,VWS V14.01,2013-01-16 16:35:00,
2013-01-16 10:36:00,29.8,19.5,29.95,SSW,202,17.2,17.2,65,0.00,,,0.00,VWS V14.01,2013-01-16 16:36:00,
2013-01-16 10:37:00,29.8,19.5,29.95,SSW,202,17.2,17.2,65,0.00,,,0.00,VWS V14.01,2013-01-16 16:37:00,
2013-01-16 10:38:00,29.8,19.5,29.95,SW,225,14.3,17.2,65,0.00,,,0.00,VWS V14.01,2013-01-16 16:38:00,
2013-01-16 10:39:00,29.8,19.5,29.95,SW,225,14.3,14.3,65,0.00,,,0.00,VWS V14.01,2013-01-16 16:39:00,
2013-01-16 10:40:00,29.8,19.1,29.95,SW,225,15.2,15.2,64,0.00,,,0.00,VWS V14.01,2013-01-16 16:40:00,
2013-01-16 10:41:00,30.0,19.3,29.95,SW,225,15.2,15.2,64,0.00,,,0.00,VWS V14.01,2013-01-16 16:41:00,
2013-01-16 10:42:00,30.0,19.3,29.95,SW,225,15.2,15.2,64,0.00,,,0.00,VWS V14.01,2013-01-16 16:42:00,
2013-01-16 10:43:00,30.3,19.6,29.95,SSW,202,7.6,15.2,64,0.00,,,0.00,VWS V14.01,2013-01-16 16:43:00,
2013-01-16 10:44:00,30.3,19.6,29.95,SSW,202,7.6,7.6,64,0.00,,,0.00,VWS V14.01,2013-01-16 16:44:00,
2013-01-16 10:45:00,31.8,21.0,29.95,SSW,202,19.4,19.4,64,0.00,,,0.00,VWS V14.01,2013-01-16 16:45:00,
2013-01-16 10:46:00,31.8,21.0,29.95,SSW,202,19.4,19.4,64,0.00,,,0.00,VWS V14.01,2013-01-16 16:46:00,
2013-01-16 10:47:00,32.7,21.5,29.95,SSW,202,15.6,19.4,63,0.00,,,0.00,VWS V14.01,2013-01-16 16:47:00,
2013-01-16 10:48:00,32.7,21.5,29.95,SSW,202,15.6,15.6,63,0.00,,,0.00,VWS V14.01,2013-01-16 16:48:00,
2013-01-16 10:49:00,33.4,21.0,29.94,SW,225,15.6,15.6,60,0.00,,,0.00,VWS V14.01,2013-01-16 16:49:00,
2013-01-16 10:50:00,33.4,21.0,29.94,SW,225,15.6,15.6,60,0.00,,,0.00,VWS V14.01,2013-01-16 16:50:00,
2013-01-16 10:51:00,33.6,21.6,29.94,SSW,202,7.8,15.6,61,0.00,,,0.00,VWS V14.01,2013-01-16 16:51:00,
2013-01-16 10:52:00,33.6,21.6,29.94,SSW,202,7.8,7.8,61,0.00,,,0.00,VWS V14.01,2013-01-16 16:52:00,
2013-01-16 10:53:00,33.9,21.1,29.94,SW,225,8.2,8.2,59,0.00,,,0.00,VWS V14.01,2013-01-16 16:53:00,
2013-01-16 10:54:00,33.9,21.1,29.94,SW,225,8.2,8.2,59,0.00,,,0.00,VWS V14.01,2013-01-16 16:54:00,
2013-01-16 10:55:00,34.3,21.9,29.94,SSW,202,18.7,18.7,60,0.00,,,0.00,VWS V14.01,2013-01-16 16:55:00,
2013-01-16 10:56:00,34.3,21.9,29.94,SSW,202,18.7,18.7,60,0.00,,,0.00,VWS V14.01,2013-01-16 16:56:00,
2013-01-16 10:57:00,34.3,21.9,29.94,SSW,202,18.7,18.7,60,0.00,,,0.00,VWS V14.01,2013-01-16 16:57:00,
2013-01-16 10:58:00,34.3,21.5,29.94,SSW,202,9.8,18.7,59,0.00,,,0.00,VWS V14.01,2013-01-16 16:58:00,
2013-01-16 10:59:00,34.3,21.5,29.94,SSW,202,9.8,9.8,59,0.00,,,0.00,VWS V14.01,2013-01-16 16:59:00,
2013-01-16 11:00:00,34.7,21.9,29.94,SW,225,17.6,17.6,59,0.00,,,0.00,VWS V14.01,2013-01-16 17:00:00,
2013-01-16 11:01:00,34.7,21.9,29.94,SW,225,17.6,17.6,59,0.00,,,0.00,VWS V14.01,2013-01-16 17:01:00,
2013-01-16 11:02:00,34.8,21.5,29.94,SW,225,14.9,17.6,58,0.00,,,0.00,VWS V14.01,2013-01-16 17:02:00,
2013-01-16 11:03:00,34.8,21.5,29.94,SW,225,14.9,14.9,58,0.00,,,0.00,VWS V14.01,2013-01-16 17:03:00,
2013-01-16 11:04:00,34.3,21.9,29.94,SSW,202,10.7,14.9,60,0.00,,,0.00,VWS V14.01,2013-01-16 17:04:00,
2013-01-16 11:05:00,34.3,21.9,29.94,SSW,202,10.7,10.7,60,0.00,,,0.00,VWS V14.01,2013-01-16 17:05:00,
2013-01-16 11:06:00,34.3,21.9,29.95,SW,225,5.5,10.7,60,0.00,,,0.00,VWS V14.01,2013-01-16 17:06:00,
2013-01-16 11:07:00,34.3,21.9,29.94,SW,225,5.5,5.5,60,0.00,,,0.00,VWS V14.01,2013-01-16 17:07:00,
2013-01-16 11:08:00,33.9,21.5,29.95,WNW,292,3.5,5.5,60,0.00,,,0.00,VWS V14.01,2013-01-16 17:08:00,
2013-01-16 11:09:00,33.9,21.5,29.94,WNW,292,3.5,3.5,60,0.00,,,0.00,VWS V14.01,2013-01-16 17:09:00,
2013-01-16 11:10:00,33.6,21.2,29.94,SW,225,5.3,5.3,60,0.00,,,0.00,VWS V14.01,2013-01-16 17:10:00,
2013-01-16 11:11:00,33.6,21.2,29.95,SW,225,5.3,5.3,60,0.00,,,0.00,VWS V14.01,2013-01-16 17:11:00,
2013-01-16 11:12:00,33.6,21.2,29.94,SW,225,5.3,5.3,60,0.00,,,0.00,VWS V14.01,2013-01-16 17:12:00,
2013-01-16 11:13:00,33.6,21.2,29.94,SSW,202,7.8,7.8,60,0.00,,,0.00,VWS V14.01,2013-01-16 17:13:00,
2013-01-16 11:14:00,33.6,21.2,29.94,SSW,202,7.8,7.8,60,0.00,,,0.00,VWS V14.01,2013-01-16 17:14:00,
2013-01-16 11:15:00,33.6,21.2,29.94,SSW,202,8.7,8.7,60,0.00,,,0.00,VWS V14.01,2013-01-16 17:15:00,
2013-01-16 11:16:00,33.6,21.2,29.94,SSW,202,8.7,8.7,60,0.00,,,0.00,VWS V14.01,2013-01-16 17:16:00,
2013-01-16 11:17:00,33.6,21.2,29.93,SSW,202,16.5,16.5,60,0.00,,,0.00,VWS V14.01,2013-01-16 17:17:00,
2013-01-16 11:18:00,33.6,21.2,29.93,SSW,202,16.5,16.5,60,0.00,,,0.00,VWS V14.01,2013-01-16 17:18:00,
2013-01-16 11:19:00,33.6,21.6,29.93,SSW,202,15.8,16.5,61,0.00,,,0.00,VWS V14.01,2013-01-16 17:19:00,
2013-01-16 11:20:00,33.6,21.6,29.93,SSW,202,15.8,15.8,61,0.00,,,0.00,VWS V14.01,2013-01-16 17:20:00,
2013-01-16 11:21:00,33.6,21.6,29.93,SSW,202,15.8,15.8,61,0.00,,,0.00,VWS V14.01,2013-01-16 17:21:00,
2013-01-16 11:22:00,34.3,22.3,29.93,SSW,202,8.2,15.8,61,0.00,,,0.00,VWS V14.01,2013-01-16 17:22:00,
2013-01-16 11:23:00,34.8,22.3,29.93,SW,225,8.2,8.2,60,0.00,,,0.00,VWS V14.01,2013-01-16 17:23:00,
2013-01-16 11:24:00,34.8,22.3,29.93,SW,225,8.2,8.2,60,0.00,,,0.00,VWS V14.01,2013-01-16 17:24:00,
2013-01-16 11:25:00,34.8,22.3,29.93,SSW,202,12.5,12.5,60,0.00,,,0.00,VWS V14.01,2013-01-16 17:25:00,
2013-01-16 11:26:00,34.5,21.7,29.94,SSW,202,12.5,12.5,59,0.00,,,0.00,VWS V14.01,2013-01-16 17:26:00,
2013-01-16 11:27:00,34.5,21.7,29.93,SSW,202,12.5,12.5,59,0.00,,,0.00,VWS V14.01,2013-01-16 17:27:00,
2013-01-16 11:28:00,34.3,21.9,29.93,West,270,8.5,12.5,60,0.00,,,0.00,VWS V14.01,2013-01-16 17:28:00,
2013-01-16 11:29:00,34.3,21.9,29.93,West,270,8.5,8.5,60,0.00,,,0.00,VWS V14.01,2013-01-16 17:29:00,
2013-01-16 11:30:00,34.3,21.9,29.93,SSW,202,17.8,17.8,60,0.00,,,0.00,VWS V14.01,2013-01-16 17:30:00,
2013-01-16 11:31:00,34.3,21.9,29.93,SSW,202,17.8,17.8,60,0.00,,,0.00,VWS V14.01,2013-01-16 17:31:00,
2013-01-16 11:32:00,34.3,22.3,29.94,SW,225,6.9,17.8,61,0.00,,,0.00,VWS V14.01,2013-01-16 17:32:00,
2013-01-16 11:33:00,34.3,22.3,29.93,SW,225,6.9,6.9,61,0.00,,,0.00,VWS V14.01,2013-01-16 17:33:00,
2013-01-16 11:34:00,35.2,23.1,29.93,SSW,202,6.2,6.9,61,0.00,,,0.00,VWS V14.01,2013-01-16 17:34:00,
2013-01-16 11:35:00,35.2,23.1,29.93,SSW,202,6.2,6.2,61,0.00,,,0.00,VWS V14.01,2013-01-16 17:35:00,
2013-01-16 11:36:00,35.2,23.1,29.93,WSW,248,6.4,6.4,61,0.00,,,0.00,VWS V14.01,2013-01-16 17:36:00,
2013-01-16 11:37:00,35.2,23.1,29.93,WSW,248,6.4,6.4,61,0.00,,,0.00,VWS V14.01,2013-01-16 17:37:00,
2013-01-16 11:38:00,34.8,22.3,29.92,SSW,202,14.3,14.3,60,0.00,,,0.00,VWS V14.01,2013-01-16 17:38:00,
2013-01-16 11:39:00,34.8,22.3,29.93,SSW,202,14.3,14.3,60,0.00,,,0.00,VWS V14.01,2013-01-16 17:39:00,
2013-01-16 11:40:00,34.7,22.2,29.93,SSW,202,14.3,14.3,60,0.00,,,0.00,VWS V14.01,2013-01-16 17:40:00,
2013-01-16 11:41:00,34.7,22.2,29.92,SSW,202,10.2,14.3,60,0.00,,,0.00,VWS V14.01,2013-01-16 17:41:00,
2013-01-16 11:42:00,34.7,22.2,29.92,SSW,202,10.2,10.2,60,0.00,,,0.00,VWS V14.01,2013-01-16 17:42:00,
2013-01-16 11:43:00,34.3,22.3,29.92,SSW,202,8.9,10.2,61,0.00,,,0.00,VWS V14.01,2013-01-16 17:43:00,
2013-01-16 11:44:00,34.3,22.3,29.93,SSW,202,8.9,8.9,61,0.00,,,0.00,VWS V14.01,2013-01-16 17:44:00,
2013-01-16 11:45:00,34.3,21.9,29.92,SSW,202,9.6,9.6,60,0.00,,,0.00,VWS V14.01,2013-01-16 17:45:00,
2013-01-16 11:46:00,34.3,21.9,29.92,SSW,202,9.6,9.6,60,0.00,,,0.00,VWS V14.01,2013-01-16 17:46:00,
2013-01-16 11:47:00,34.3,22.3,29.92,SW,225,9.1,9.6,61,0.00,,,0.00,VWS V14.01,2013-01-16 17:47:00,
2013-01-16 11:48:00,34.3,22.3,29.92,SW,225,9.1,9.1,61,0.00,,,0.00,VWS V14.01,2013-01-16 17:48:00,
2013-01-16 11:49:00,34.3,22.6,29.92,SSW,202,7.8,9.1,62,0.00,,,0.00,VWS V14.01,2013-01-16 17:49:00,
2013-01-16 11:50:00,34.3,22.6,29.92,SSW,202,7.8,7.8,62,0.00,,,0.00,VWS V14.01,2013-01-16 17:50:00,
2013-01-16 11:51:00,34.3,22.6,29.92,WSW,248,7.6,7.8,62,0.00,,,0.00,VWS V14.01,2013-01-16 17:51:00,
2013-01-16 11:52:00,34.3,22.6,29.92,WSW,248,7.6,7.6,62,0.00,,,0.00,VWS V14.01,2013-01-16 17:52:00,
2013-01-16 11:53:00,34.3,22.6,29.92,SSW,202,9.3,9.3,62,0.00,,,0.00,VWS V14.01,2013-01-16 17:53:00,
2013-01-16 11:54:00,34.3,22.6,29.92,SSW,202,9.3,9.3,62,0.00,,,0.00,VWS V14.01,2013-01-16 17:54:00,
2013-01-16 11:55:00,34.3,22.6,29.92,WSW,248,12.3,12.3,62,0.00,,,0.00,VWS V14.01,2013-01-16 17:55:00,
2013-01-16 11:56:00,34.3,22.6,29.92,WSW,248,12.3,12.3,62,0.00,,,0.00,VWS V14.01,2013-01-16 17:56:00,
2013-01-16 11:57:00,34.3,22.6,29.93,WSW,248,12.3,12.3,62,0.00,,,0.00,VWS V14.01,2013-01-16 17:57:00,
2013-01-16 11:58:00,33.9,22.6,29.93,SW,225,8.5,12.3,63,0.00,,,0.00,VWS V14.01,2013-01-16 17:58:00,
2013-01-16 11:59:00,33.9,22.6,29.93,SW,225,8.5,8.5,63,0.00,,,0.00,VWS V14.01,2013-01-16 17:59:00,
2013-01-16 12:00:00,33.8,22.5,29.93,SSW,202,6.0,8.5,63,0.00,,,0.00,VWS V14.01,2013-01-16 18:00:00,
2013-01-16 12:01:00,33.8,22.5,29.93,SSW,202,6.0,6.0,63,0.00,,,0.00,VWS V14.01,2013-01-16 18:01:00,
2013-01-16 12:02:00,33.6,22.7,29.93,SSW,202,5.1,6.0,64,0.00,,,0.00,VWS V14.01,2013-01-16 18:02:00,
2013-01-16 12:03:00,33.6,22.7,29.93,SSW,202,5.1,5.1,64,0.00,,,0.00,VWS V14.01,2013-01-16 18:03:00,
2013-01-16 12:04:00,33.6,22.7,29.93,SW,225,11.8,11.8,64,0.00,,,0.00,VWS V14.01,2013-01-16 18:04:00,
2013-01-16 12:05:00,33.6,22.7,29.93,SW,225,11.8,11.8,64,0.00,,,0.00,VWS V14.01,2013-01-16 18:05:00,
2013-01-16 12:06:00,33.6,22.7,29.93,South,180,6.0,11.8,64,0.00,,,0.00,VWS V14.01,2013-01-16 18:06:00,
2013-01-16 12:07:00,33.6,22.7,29.93,South,180,6.0,6.0,64,0.00,,,0.00,VWS V14.01,2013-01-16 18:07:00,
2013-01-16 12:08:00,33.6,23.1,29.93,SW,225,9.6,9.6,65,0.00,,,0.00,VWS V14.01,2013-01-16 18:08:00,
2013-01-16 12:09:00,33.6,23.1,29.93,SW,225,9.6,9.6,65,0.00,,,0.00,VWS V14.01,2013-01-16 18:09:00,
2013-01-16 12:10:00,33.6,23.1,29.93,SW,225,4.6,9.6,65,0.00,,,0.00,VWS V14.01,2013-01-16 18:10:00,
2013-01-16 12:11:00,33.6,23.1,29.93,SW,225,4.6,4.6,65,0.00,,,0.00,VWS V14.01,2013-01-16 18:11:00,
2013-01-16 12:12:00,33.6,23.1,29.93,SW,225,4.6,4.6,65,0.00,,,0.00,VWS V14.01,2013-01-16 18:12:00,
2013-01-16 12:13:00,33.8,23.7,29.93,SSW,202,5.3,5.3,66,0.00,,,0.00,VWS V14.01,2013-01-16 18:13:00,
2013-01-16 12:14:00,33.8,23.7,29.93,SSW,202,5.3,5.3,66,0.00,,,0.00,VWS V14.01,2013-01-16 18:14:00,
2013-01-16 12:15:00,33.9,23.8,29.93,SSW,202,14.0,14.0,66,0.00,,,0.00,VWS V14.01,2013-01-16 18:15:00,
2013-01-16 12:16:00,33.9,23.8,29.93,SSW,202,14.0,14.0,66,0.00,,,0.00,VWS V14.01,2013-01-16 18:16:00,
2013-01-16 12:17:00,33.9,23.4,29.93,West,270,6.9,14.0,65,0.00,,,0.00,VWS V14.01,2013-01-16 18:17:00,
2013-01-16 12:18:00,33.9,23.4,29.93,West,270,6.9,6.9,65,0.00,,,0.00,VWS V14.01,2013-01-16 18:18:00,
2013-01-16 12:19:00,33.8,23.3,29.93,SW,225,6.4,6.9,65,0.00,,,0.00,VWS V14.01,2013-01-16 18:19:00,
2013-01-16 12:20:00,33.8,23.3,29.93,SW,225,6.4,6.4,65,0.00,,,0.00,VWS V14.01,2013-01-16 18:20:00,
2013-01-16 12:21:00,33.8,23.3,29.93,SSW,202,5.3,6.4,65,0.00,,,0.00,VWS V14.01,2013-01-16 18:21:00,
2013-01-16 12:22:00,33.8,23.3,29.93,SSW,202,5.3,5.3,65,0.00,,,0.00,VWS V14.01,2013-01-16 18:22:00,
2013-01-16 12:23:00,33.8,23.7,29.93,SSW,202,5.8,5.8,66,0.00,,,0.00,VWS V14.01,2013-01-16 18:23:00,
2013-01-16 12:24:00,33.8,23.7,29.93,SSW,202,5.8,5.8,66,0.00,,,0.00,VWS V14.01,2013-01-16 18:24:00,
2013-01-16 12:25:00,33.8,23.7,29.93,SSW,202,10.5,10.5,66,0.00,,,0.00,VWS V14.01,2013-01-16 18:25:00,
2013-01-16 12:26:00,33.8,23.7,29.93,SSW,202,10.5,10.5,66,0.00,,,0.00,VWS V14.01,2013-01-16 18:26:00,
2013-01-16 12:27:00,33.8,23.7,29.93,SSW,202,10.5,10.5,66,0.00,,,0.00,VWS V14.01,2013-01-16 18:27:00,
2013-01-16 12:28:00,33.9,23.8,29.93,SSW,202,8.2,10.5,66,0.00,,,0.00,VWS V14.01,2013-01-16 18:28:00,
2013-01-16 12:29:00,33.9,23.8,29.93,SSW,202,8.2,8.2,66,0.00,,,0.00,VWS V14.01,2013-01-16 18:29:00,
2013-01-16 12:30:00,33.8,23.7,29.93,SW,225,14.9,14.9,66,0.00,,,0.00,VWS V14.01,2013-01-16 18:30:00,
2013-01-16 12:31:00,33.8,23.7,29.93,SW,225,14.9,14.9,66,0.00,,,0.00,VWS V14.01,2013-01-16 18:31:00,
2013-01-16 12:32:00,33.9,23.8,29.93,WSW,248,3.8,14.9,66,0.00,,,0.00,VWS V14.01,2013-01-16 18:32:00,
2013-01-16 12:33:00,33.9,23.8,29.93,WSW,248,3.8,3.8,66,0.00,,,0.00,VWS V14.01,2013-01-16 18:33:00,
2013-01-16 12:34:00,33.9,23.8,29.93,SW,225,7.8,7.8,66,0.00,,,0.00,VWS V14.01,2013-01-16 18:34:00,
2013-01-16 12:35:00,33.9,23.8,29.93,SW,225,7.8,7.8,66,0.00,,,0.00,VWS V14.01,2013-01-16 18:35:00,
2013-01-16 12:36:00,33.9,23.8,29.93,SW,225,3.5,7.8,66,0.00,,,0.00,VWS V14.01,2013-01-16 18:36:00,
2013-01-16 12:37:00,33.9,23.8,29.93,SW,225,3.5,3.5,66,0.00,,,0.00,VWS V14.01,2013-01-16 18:37:00,
2013-01-16 12:38:00,33.9,23.8,29.93,WSW,248,4.0,4.0,66,0.00,,,0.00,VWS V14.01,2013-01-16 18:38:00,
2013-01-16 12:39:00,33.9,23.8,29.93,WSW,248,4.0,4.0,66,0.00,,,0.00,VWS V14.01,2013-01-16 18:39:00,
2013-01-16 12:40:00,33.9,23.8,29.93,WSW,248,4.0,4.0,66,0.00,,,0.00,VWS V14.01,2013-01-16 18:40:00,
2013-01-16 12:41:00,33.9,23.8,29.93,SW,225,5.8,5.8,66,0.00,,,0.00,VWS V14.01,2013-01-16 18:41:00,
2013-01-16 12:42:00,33.9,23.8,29.93,SW,225,5.8,5.8,66,0.00,,,0.00,VWS V14.01,2013-01-16 18:42:00,
2013-01-16 12:43:00,34.1,24.3,29.93,SW,225,5.3,5.8,67,0.00,,,0.00,VWS V14.01,2013-01-16 18:43:00,
2013-01-16 12:44:00,34.1,24.3,29.93,SW,225,5.3,5.3,67,0.00,,,0.00,VWS V14.01,2013-01-16 18:44:00,
2013-01-16 12:45:00,34.1,24.3,29.92,West,270,4.6,4.6,67,0.00,,,0.00,VWS V14.01,2013-01-16 18:45:00,
2013-01-16 12:46:00,34.1,24.3,29.92,West,270,4.6,4.6,67,0.00,,,0.00,VWS V14.01,2013-01-16 18:46:00,
2013-01-16 12:47:00,34.1,24.3,29.92,SW,225,3.5,4.6,67,0.00,,,0.00,VWS V14.01,2013-01-16 18:47:00,
2013-01-16 12:48:00,34.1,24.3,29.92,SW,225,3.5,3.5,67,0.00,,,0.00,VWS V14.01,2013-01-16 18:48:00,
2013-01-16 12:49:00,34.3,24.5,29.92,SW,225,4.6,4.6,67,0.00,,,0.00,VWS V14.01,2013-01-16 18:49:00,
2013-01-16 12:50:00,34.3,24.5,29.92,SW,225,4.6,4.6,67,0.00,,,0.00,VWS V14.01,2013-01-16 18:50:00,
2013-01-16 12:51:00,34.1,24.3,29.93,SSW,202,1.5,4.6,67,0.00,,,0.00,VWS V14.01,2013-01-16 18:51:00,
2013-01-16 12:52:00,34.1,24.3,29.93,SSW,202,1.5,1.5,67,0.00,,,0.00,VWS V14.01,2013-01-16 18:52:00,
2013-01-16 12:53:00,34.1,24.3,29.92,West,270,10.7,10.7,67,0.00,,,0.00,VWS V14.01,2013-01-16 18:53:00,
2013-01-16 12:54:00,34.1,24.3,29.93,West,270,10.7,10.7,67,0.00,,,0.00,VWS V14.01,2013-01-16 18:54:00,
2013-01-16 12:55:00,34.1,24.3,29.93,SW,225,5.1,5.1,67,0.00,,,0.00,VWS V14.01,2013-01-16 18:55:00,
2013-01-16 12:56:00,34.3,24.5,29.93,SW,225,5.1,5.1,67,0.00,,,0.00,VWS V14.01,2013-01-16 18:56:00,
2013-01-16 12:57:00,34.3,24.5,29.93,SSW,202,3.3,5.1,67,0.00,,,0.00,VWS V14.01,2013-01-16 18:57:00,
2013-01-16 12:58:00,34.3,24.9,29.93,SSW,202,3.3,3.3,68,0.00,,,0.00,VWS V14.01,2013-01-16 18:58:00,
2013-01-16 12:59:00,34.3,24.9,29.92,SSW,202,3.3,3.3,68,0.00,,,0.00,VWS V14.01,2013-01-16 18:59:00,
2013-01-16 13:00:00,34.3,24.9,29.92,SW,225,4.9,4.9,68,0.00,,,0.00,VWS V14.01,2013-01-16 19:00:00,
2013-01-16 13:01:00,34.3,24.9,29.92,SW,225,4.9,4.9,68,0.00,,,0.00,VWS V14.01,2013-01-16 19:01:00,
2013-01-16 13:02:00,34.5,25.0,29.92,West,270,3.8,4.9,68,0.00,,,0.00,VWS V14.01,2013-01-16 19:02:00,
2013-01-16 13:03:00,34.5,25.0,29.92,West,270,3.8,3.8,68,0.00,,,0.00,VWS V14.01,2013-01-16 19:03:00,
2013-01-16 13:04:00,34.7,24.9,29.92,South,180,3.8,3.8,67,0.00,,,0.00,VWS V14.01,2013-01-16 19:04:00,
2013-01-16 13:05:00,34.7,24.9,29.92,South,180,3.8,3.8,67,0.00,,,0.00,VWS V14.01,2013-01-16 19:05:00,
2013-01-16 13:06:00,34.8,25.0,29.92,SSW,202,5.5,5.5,67,0.00,,,0.00,VWS V14.01,2013-01-16 19:06:00,
2013-01-16 13:07:00,34.8,25.0,29.92,SSW,202,5.5,5.5,67,0.00,,,0.00,VWS V14.01,2013-01-16 19:07:00,
2013-01-16 13:08:00,34.8,25.0,29.92,West,270,3.3,5.5,67,0.00,,,0.00,VWS V14.01,2013-01-16 19:08:00,
2013-01-16 13:09:00,34.8,25.0,29.92,West,270,3.3,3.3,67,0.00,,,0.00,VWS V14.01,2013-01-16 19:09:00,
2013-01-16 13:10:00,34.8,25.0,29.92,West,270,3.3,3.3,67,0.00,,,0.00,VWS V14.01,2013-01-16 19:10:00,
2013-01-16 13:11:00,35.2,25.4,29.92,SW,225,4.6,4.6,67,0.00,,,0.00,VWS V14.01,2013-01-16 19:11:00,
2013-01-16 13:12:00,35.2,25.4,29.92,SW,225,4.6,4.6,67,0.00,,,0.00,VWS V14.01,2013-01-16 19:12:00,
2013-01-16 13:13:00,35.2,25.4,29.92,SW,225,4.4,4.6,67,0.00,,,0.00,VWS V14.01,2013-01-16 19:13:00,
2013-01-16 13:14:00,35.2,25.4,29.92,SW,225,4.4,4.4,67,0.00,,,0.00,VWS V14.01,2013-01-16 19:14:00,
2013-01-16 13:15:00,35.2,25.4,29.92,SW,225,4.4,4.4,67,0.00,,,0.00,VWS V14.01,2013-01-16 19:15:00,
2013-01-16 13:16:00,35.2,25.4,29.92,WSW,248,2.2,2.2,67,0.00,,,0.00,VWS V14.01,2013-01-16 19:16:00,
2013-01-16 13:17:00,35.2,25.4,29.92,WSW,248,5.5,5.5,67,0.00,,,0.00,VWS V14.01,2013-01-16 19:17:00,
2013-01-16 13:18:00,35.2,25.4,29.92,WSW,248,5.5,5.5,67,0.00,,,0.00,VWS V14.01,2013-01-16 19:18:00,
2013-01-16 13:19:00,35.2,25.7,29.92,SSW,202,6.7,6.7,68,0.00,,,0.00,VWS V14.01,2013-01-16 19:19:00,
2013-01-16 13:20:00,35.2,25.7,29.92,SSW,202,6.7,6.7,68,0.00,,,0.00,VWS V14.01,2013-01-16 19:20:00,
2013-01-16 13:21:00,35.4,25.9,29.92,SW,225,4.0,6.7,68,0.00,,,0.00,VWS V14.01,2013-01-16 19:21:00,
2013-01-16 13:22:00,35.4,25.9,29.92,SW,225,4.0,4.0,68,0.00,,,0.00,VWS V14.01,2013-01-16 19:22:00,
2013-01-16 13:23:00,35.4,25.9,29.92,SW,225,4.0,4.0,68,0.00,,,0.00,VWS V14.01,2013-01-16 19:23:00,
2013-01-16 13:24:00,35.4,25.9,29.92,SW,225,4.0,4.0,68,0.00,,,0.00,VWS V14.01,2013-01-16 19:24:00,
2013-01-16 13:25:00,35.4,25.9,29.92,SW,225,4.0,4.0,68,0.00,,,0.00,VWS V14.01,2013-01-16 19:25:00,
2013-01-16 13:26:00,35.4,25.9,29.92,WNW,292,6.9,6.9,68,0.00,,,0.00,VWS V14.01,2013-01-16 19:26:00,
2013-01-16 13:27:00,35.4,25.9,29.92,WNW,292,6.9,6.9,68,0.00,,,0.00,VWS V14.01,2013-01-16 19:27:00,
2013-01-16 13:28:00,35.4,25.9,29.92,WNW,292,3.3,6.9,68,0.00,,,0.00,VWS V14.01,2013-01-16 19:28:00,
2013-01-16 13:29:00,35.4,25.9,29.92,WNW,292,3.3,3.3,68,0.00,,,0.00,VWS V14.01,2013-01-16 19:29:00,
2013-01-16 13:30:00,35.4,25.9,29.92,WNW,292,3.3,3.3,68,0.00,,,0.00,VWS V14.01,2013-01-16 19:30:00,
2013-01-16 13:31:00,35.4,25.5,29.92,SSW,202,5.5,5.5,67,0.00,,,0.00,VWS V14.01,2013-01-16 19:31:00,
2013-01-16 13:32:00,35.4,25.9,29.92,West,270,4.2,5.5,68,0.00,,,0.00,VWS V14.01,2013-01-16 19:32:00,
2013-01-16 13:33:00,35.4,25.9,29.92,West,270,4.2,4.2,68,0.00,,,0.00,VWS V14.01,2013-01-16 19:33:00,
2013-01-16 13:34:00,35.7,26.2,29.92,WSW,248,4.2,4.2,68,0.00,,,0.00,VWS V14.01,2013-01-16 19:34:00,
2013-01-16 13:35:00,35.7,26.2,29.92,WSW,248,4.2,4.2,68,0.00,,,0.00,VWS V14.01,2013-01-16 19:35:00,
2013-01-16 13:36:00,35.7,26.2,29.93,West,270,7.1,7.1,68,0.00,,,0.00,VWS V14.01,2013-01-16 19:36:00,
2013-01-16 13:37:00,35.7,26.2,29.92,West,270,7.1,7.1,68,0.00,,,0.00,VWS V14.01,2013-01-16 19:37:00,
2013-01-16 13:38:00,35.9,26.4,29.92,West,270,3.8,7.1,68,0.00,,,0.00,VWS V14.01,2013-01-16 19:38:00,
2013-01-16 13:39:00,35.9,26.4,29.93,West,270,3.8,3.8,68,0.00,,,0.00,VWS V14.01,2013-01-16 19:39:00,
2013-01-16 13:40:00,35.9,26.4,29.93,West,270,3.8,3.8,68,0.00,,,0.00,VWS V14.01,2013-01-16 19:40:00,
2013-01-16 13:41:00,36.1,26.6,29.93,WSW,248,6.4,6.4,68,0.00,,,0.00,VWS V14.01,2013-01-16 19:41:00,
2013-01-16 13:42:00,36.1,26.6,29.92,WNW,292,5.8,6.4,68,0.00,,,0.00,VWS V14.01,2013-01-16 19:42:00,
2013-01-16 13:43:00,36.1,26.2,29.93,WNW,292,5.8,5.8,67,0.00,,,0.00,VWS V14.01,2013-01-16 19:43:00,
2013-01-16 13:44:00,36.1,26.2,29.92,WNW,292,5.8,5.8,67,0.00,,,0.00,VWS V14.01,2013-01-16 19:44:00,
2013-01-16 13:45:00,36.1,26.2,29.92,WNW,292,5.8,5.8,67,0.00,,,0.00,VWS V14.01,2013-01-16 19:45:00,
2013-01-16 13:46:00,36.3,26.4,29.92,West,270,5.3,5.3,67,0.00,,,0.00,VWS V14.01,2013-01-16 19:46:00,
2013-01-16 13:47:00,36.3,26.8,29.92,SW,225,4.9,5.3,68,0.00,,,0.00,VWS V14.01,2013-01-16 19:47:00,
2013-01-16 13:48:00,36.3,26.8,29.92,SW,225,4.9,4.9,68,0.00,,,0.00,VWS V14.01,2013-01-16 19:48:00,
2013-01-16 13:49:00,36.3,26.4,29.93,SSW,202,6.0,6.0,67,0.00,,,0.00,VWS V14.01,2013-01-16 19:49:00,
2013-01-16 13:50:00,36.3,26.4,29.93,SSW,202,6.0,6.0,67,0.00,,,0.00,VWS V14.01,2013-01-16 19:50:00,
2013-01-16 13:51:00,35.9,26.0,29.93,SSW,202,3.3,6.0,67,0.00,,,0.00,VWS V14.01,2013-01-16 19:51:00,
2013-01-16 13:52:00,35.9,26.0,29.93,SSW,202,3.3,3.3,67,0.00,,,0.00,VWS V14.01,2013-01-16 19:52:00,
2013-01-16 13:53:00,35.9,26.0,29.93,WSW,248,4.2,4.2,67,0.00,,,0.00,VWS V14.01,2013-01-16 19:53:00,
2013-01-16 13:54:00,35.9,26.0,29.93,WSW,248,4.2,4.2,67,0.00,,,0.00,VWS V14.01,2013-01-16 19:54:00,
2013-01-16 13:55:00,35.9,26.0,29.93,WSW,248,4.2,4.2,67,0.00,,,0.00,VWS V14.01,2013-01-16 19:55:00,
2013-01-16 13:56:00,36.3,26.8,29.92,WSW,248,4.2,4.2,68,0.00,,,0.00,VWS V14.01,2013-01-16 19:56:00,
2013-01-16 13:57:00,36.3,26.8,29.92,WNW,292,5.1,5.1,68,0.00,,,0.00,VWS V14.01,2013-01-16 19:57:00,
2013-01-16 13:58:00,36.3,26.8,29.92,WNW,292,5.1,5.1,68,0.00,,,0.00,VWS V14.01,2013-01-16 19:58:00,
2013-01-16 13:59:00,36.3,26.8,29.92,WNW,292,5.1,5.1,68,0.00,,,0.00,VWS V14.01,2013-01-16 19:59:00,
2013-01-16 14:00:00,36.3,26.8,29.92,WNW,292,5.1,5.1,68,0.00,,,0.00,VWS V14.01,2013-01-16 20:00:00,
2013-01-16 14:01:00,36.5,27.0,29.92,WNW,292,4.0,4.0,68,0.00,,,0.00,VWS V14.01,2013-01-16 20:01:00,
2013-01-16 14:02:00,36.5,27.0,29.92,WNW,292,4.0,4.0,68,0.00,,,0.00,VWS V14.01,2013-01-16 20:02:00,
2013-01-16 14:03:00,36.8,27.2,29.92,WSW,248,4.0,4.0,68,0.00,,,0.00,VWS V14.01,2013-01-16 20:03:00,
2013-01-16 14:04:00,36.8,27.2,29.93,SW,225,2.9,4.0,68,0.00,,,0.00,VWS V14.01,2013-01-16 20:04:00,
2013-01-16 14:05:00,36.8,27.2,29.93,SW,225,2.9,2.9,68,0.00,,,0.00,VWS V14.01,2013-01-16 20:05:00,
2013-01-16 14:06:00,37.0,27.8,29.93,WSW,248,4.0,4.0,69,0.00,,,0.00,VWS V14.01,2013-01-16 20:06:00,
2013-01-16 14:07:00,37.0,27.8,29.93,WSW,248,4.0,4.0,69,0.00,,,0.00,VWS V14.01,2013-01-16 20:07:00,
2013-01-16 14:08:00,36.5,27.7,29.94,WSW,248,2.6,4.0,70,0.00,,,0.00,VWS V14.01,2013-01-16 20:08:00,
2013-01-16 14:09:00,36.5,27.7,29.94,WSW,248,2.6,2.6,70,0.00,,,0.00,VWS V14.01,2013-01-16 20:09:00,
2013-01-16 14:10:00,36.5,27.7,29.94,WSW,248,2.6,2.6,70,0.00,,,0.00,VWS V14.01,2013-01-16 20:10:00,
2013-01-16 14:11:00,36.1,27.3,29.94,SW,225,6.7,6.7,70,0.00,,,0.00,VWS V14.01,2013-01-16 20:11:00,
2013-01-16 14:12:00,36.1,27.3,29.94,WSW,248,3.8,6.7,70,0.00,,,0.00,VWS V14.01,2013-01-16 20:12:00,
2013-01-16 14:13:00,36.1,27.6,29.94,WSW,248,3.8,3.8,71,0.00,,,0.00,VWS V14.01,2013-01-16 20:13:00,
2013-01-16 14:14:00,36.1,27.6,29.93,WSW,248,3.8,3.8,71,0.00,,,0.00,VWS V14.01,2013-01-16 20:14:00,
2013-01-16 14:15:00,36.1,27.6,29.93,WSW,248,3.8,3.8,71,0.00,,,0.00,VWS V14.01,2013-01-16 20:15:00,
2013-01-16 14:16:00,36.1,28.0,29.94,West,270,3.1,3.1,72,0.00,,,0.00,VWS V14.01,2013-01-16 20:16:00,
2013-01-16 14:17:00,35.7,27.9,29.93,West,270,4.2,4.2,73,0.00,,,0.00,VWS V14.01,2013-01-16 20:17:00,
2013-01-16 14:18:00,35.7,27.9,29.94,West,270,4.2,4.2,73,0.00,,,0.00,VWS V14.01,2013-01-16 20:18:00,
2013-01-16 14:19:00,35.2,27.8,29.93,West,270,6.7,6.7,74,0.00,,,0.00,VWS V14.01,2013-01-16 20:19:00,
2013-01-16 14:20:00,35.2,27.8,29.93,West,270,6.7,6.7,74,0.00,,,0.00,VWS V14.01,2013-01-16 20:20:00,
2013-01-16 14:21:00,34.3,27.5,29.93,WSW,248,6.7,6.7,76,0.00,,,0.00,VWS V14.01,2013-01-16 20:21:00,
2013-01-16 14:22:00,34.3,27.5,29.93,WSW,248,6.7,6.7,76,0.00,,,0.00,VWS V14.01,2013-01-16 20:22:00,
2013-01-16 14:23:00,34.3,27.5,29.93,West,270,6.4,6.7,76,0.00,,,0.00,VWS V14.01,2013-01-16 20:23:00,
2013-01-16 14:24:00,34.3,27.5,29.93,West,270,6.4,6.4,76,0.00,,,0.00,VWS V14.01,2013-01-16 20:24:00,
2013-01-16 14:25:00,34.3,27.5,29.93,West,270,6.4,6.4,76,0.00,,,0.00,VWS V14.01,2013-01-16 20:25:00,
2013-01-16 14:26:00,34.3,27.9,29.94,SW,225,3.1,3.1,77,0.00,,,0.00,VWS V14.01,2013-01-16 20:26:00,
2013-01-16 14:27:00,34.3,27.9,29.94,WSW,248,5.5,5.5,77,0.00,,,0.00,VWS V14.01,2013-01-16 20:27:00,
2013-01-16 14:28:00,34.3,27.9,29.94,WSW,248,5.5,5.5,77,0.00,,,0.00,VWS V14.01,2013-01-16 20:28:00,
2013-01-16 14:29:00,34.3,27.9,29.94,WSW,248,5.5,5.5,77,0.00,,,0.00,VWS V14.01,2013-01-16 20:29:00,
2013-01-16 14:30:00,34.3,27.9,29.94,WSW,248,5.5,5.5,77,0.00,,,0.00,VWS V14.01,2013-01-16 20:30:00,
2013-01-16 14:31:00,34.3,27.9,29.94,WSW,248,3.1,3.1,77,0.00,,,0.00,VWS V14.01,2013-01-16 20:31:00,
2013-01-16 14:32:00,34.3,27.9,29.93,SSW,202,6.0,6.0,77,0.00,,,0.00,VWS V14.01,2013-01-16 20:32:00,
2013-01-16 14:33:00,34.3,27.9,29.93,SSW,202,6.0,6.0,77,0.00,,,0.00,VWS V14.01,2013-01-16 20:33:00,
2013-01-16 14:34:00,34.3,27.9,29.93,West,270,2.2,6.0,77,0.00,,,0.00,VWS V14.01,2013-01-16 20:34:00,
2013-01-16 14:35:00,34.3,27.9,29.93,West,270,2.2,2.2,77,0.00,,,0.00,VWS V14.01,2013-01-16 20:35:00,
2013-01-16 14:36:00,34.3,27.9,29.93,SSW,202,4.2,4.2,77,0.00,,,0.00,VWS V14.01,2013-01-16 20:36:00,
2013-01-16 14:37:00,34.3,27.9,29.93,SSW,202,4.2,4.2,77,0.00,,,0.00,VWS V14.01,2013-01-16 20:37:00,
2013-01-16 14:38:00,34.3,27.9,29.93,SW,225,4.4,4.4,77,0.00,,,0.00,VWS V14.01,2013-01-16 20:38:00,
2013-01-16 14:39:00,34.3,27.9,29.93,SW,225,4.4,4.4,77,0.00,,,0.00,VWS V14.01,2013-01-16 20:39:00,
2013-01-16 14:40:00,34.3,27.9,29.93,SW,225,4.4,4.4,77,0.00,,,0.00,VWS V14.01,2013-01-16 20:40:00,
2013-01-16 14:41:00,34.3,27.9,29.93,West,270,4.4,4.4,77,0.00,,,0.00,VWS V14.01,2013-01-16 20:41:00,
2013-01-16 14:42:00,34.3,27.9,29.93,WNW,292,1.7,4.4,77,0.00,,,0.00,VWS V14.01,2013-01-16 20:42:00,
2013-01-16 14:43:00,34.5,28.0,29.94,WNW,292,1.7,1.7,77,0.00,,,0.00,VWS V14.01,2013-01-16 20:43:00,
2013-01-16 14:44:00,34.5,28.0,29.93,WNW,292,1.7,1.7,77,0.00,,,0.00,VWS V14.01,2013-01-16 20:44:00,
2013-01-16 14:45:00,34.5,28.0,29.93,WNW,292,1.7,1.7,77,0.00,,,0.00,VWS V14.01,2013-01-16 20:45:00,
2013-01-16 14:46:00,34.7,28.2,29.94,WSW,248,1.5,1.5,77,0.00,,,0.00,VWS V14.01,2013-01-16 20:46:00,
2013-01-16 14:47:00,34.8,28.3,29.93,SW,225,2.2,2.2,77,0.00,,,0.00,VWS V14.01,2013-01-16 20:47:00,
2013-01-16 14:48:00,34.8,28.3,29.93,SW,225,2.2,2.2,77,0.00,,,0.00,VWS V14.01,2013-01-16 20:48:00,
2013-01-16 14:49:00,35.0,28.5,29.93,SSW,202,3.5,3.5,77,0.00,,,0.00,VWS V14.01,2013-01-16 20:49:00,
2013-01-16 14:50:00,35.0,28.5,29.93,SSW,202,3.5,3.5,77,0.00,,,0.00,VWS V14.01,2013-01-16 20:50:00,
2013-01-16 14:51:00,35.4,28.9,29.93,West,270,4.4,4.4,77,0.00,,,0.00,VWS V14.01,2013-01-16 20:51:00,
2013-01-16 14:52:00,35.4,28.9,29.93,West,270,4.4,4.4,77,0.00,,,0.00,VWS V14.01,2013-01-16 20:52:00,
2013-01-16 14:53:00,35.6,28.8,29.93,SSW,202,6.9,6.9,76,0.00,,,0.00,VWS V14.01,2013-01-16 20:53:00,
2013-01-16 14:54:00,35.6,28.8,29.94,SSW,202,6.9,6.9,76,0.00,,,0.00,VWS V14.01,2013-01-16 20:54:00,
2013-01-16 14:55:00,35.6,28.8,29.94,SSW,202,6.9,6.9,76,0.00,,,0.00,VWS V14.01,2013-01-16 20:55:00,
2013-01-16 14:56:00,35.7,28.9,29.94,SSW,202,2.9,2.9,76,0.00,,,0.00,VWS V14.01,2013-01-16 20:56:00,
2013-01-16 14:57:00,35.7,28.6,29.94,SSW,202,3.1,3.1,75,0.00,,,0.00,VWS V14.01,2013-01-16 20:57:00,
2013-01-16 14:58:00,35.7,28.6,29.93,SSW,202,3.1,3.1,75,0.00,,,0.00,VWS V14.01,2013-01-16 20:58:00,
2013-01-16 14:59:00,35.7,28.6,29.93,SSW,202,3.1,3.1,75,0.00,,,0.00,VWS V14.01,2013-01-16 20:59:00,
2013-01-16 15:00:00,35.7,28.6,29.93,SSW,202,3.1,3.1,75,0.00,,,0.00,VWS V14.01,2013-01-16 21:00:00,
2013-01-16 15:01:00,35.7,28.6,29.93,SSW,202,9.3,9.3,75,0.00,,,0.00,VWS V14.01,2013-01-16 21:01:00,
2013-01-16 15:02:00,35.4,28.3,29.93,WSW,248,3.8,9.3,75,0.00,,,0.00,VWS V14.01,2013-01-16 21:02:00,
2013-01-16 15:03:00,35.4,28.3,29.93,WSW,248,3.8,3.8,75,0.00,,,0.00,VWS V14.01,2013-01-16 21:03:00,
2013-01-16 15:04:00,35.4,28.3,29.93,SSW,202,4.6,4.6,75,0.00,,,0.00,VWS V14.01,2013-01-16 21:04:00,
2013-01-16 15:05:00,35.4,28.3,29.93,SSW,202,4.6,4.6,75,0.00,,,0.00,VWS V14.01,2013-01-16 21:05:00,
2013-01-16 15:06:00,36.3,28.8,29.94,SW,225,6.0,6.0,74,0.00,,,0.00,VWS V14.01,2013-01-16 21:06:00,
2013-01-16 15:07:00,36.3,28.8,29.94,SW,225,6.0,6.0,74,0.00,,,0.00,VWS V14.01,2013-01-16 21:07:00,
2013-01-16 15:08:00,37.2,29.7,29.94,SW,225,6.0,6.0,74,0.00,,,0.00,VWS V14.01,2013-01-16 21:08:00,
2013-01-16 15:09:00,37.2,29.7,29.94,West,270,5.8,6.0,74,0.00,,,0.00,VWS V14.01,2013-01-16 21:09:00,
2013-01-16 15:10:00,37.2,29.7,29.94,West,270,5.8,5.8,74,0.00,,,0.00,VWS V14.01,2013-01-16 21:10:00,
2013-01-16 15:11:00,37.4,29.5,29.95,SW,225,3.8,3.8,73,0.00,,,0.00,VWS V14.01,2013-01-16 21:11:00,
2013-01-16 15:12:00,37.2,29.4,29.95,SSW,202,2.9,3.8,73,0.00,,,0.00,VWS V14.01,2013-01-16 21:12:00,
2013-01-16 15:13:00,37.2,29.4,29.95,SSW,202,2.9,2.9,73,0.00,,,0.00,VWS V14.01,2013-01-16 21:13:00,
2013-01-16 15:14:00,37.2,29.4,29.95,SSW,202,2.9,2.9,73,0.00,,,0.00,VWS V14.01,2013-01-16 21:14:00,
2013-01-16 15:15:00,37.2,29.4,29.95,SSW,202,2.9,2.9,73,0.00,,,0.00,VWS V14.01,2013-01-16 21:15:00,
2013-01-16 15:16:00,37.0,29.2,29.95,SSW,202,3.8,3.8,73,0.00,,,0.00,VWS V14.01,2013-01-16 21:16:00,
2013-01-16 15:17:00,36.5,28.7,29.95,SW,225,3.5,3.8,73,0.00,,,0.00,VWS V14.01,2013-01-16 21:17:00,
2013-01-16 15:18:00,36.5,28.7,29.95,SW,225,3.5,3.5,73,0.00,,,0.00,VWS V14.01,2013-01-16 21:18:00,
2013-01-16 15:19:00,36.3,28.5,29.96,SW,225,3.5,3.5,73,0.00,,,0.00,VWS V14.01,2013-01-16 21:19:00,
2013-01-16 15:20:00,36.3,28.5,29.96,SW,225,3.5,3.5,73,0.00,,,0.00,VWS V14.01,2013-01-16 21:20:00,
2013-01-16 15:21:00,36.3,28.8,29.96,SSW,202,4.2,4.2,74,0.00,,,0.00,VWS V14.01,2013-01-16 21:21:00,
2013-01-16 15:22:00,36.3,28.8,29.96,SSW,202,4.2,4.2,74,0.00,,,0.00,VWS V14.01,2013-01-16 21:22:00,
2013-01-16 15:23:00,36.3,28.8,29.96,WNW,292,2.0,4.2,74,0.00,,,0.00,VWS V14.01,2013-01-16 21:23:00,
2013-01-16 15:24:00,36.3,28.8,29.96,WNW,292,2.0,2.0,74,0.00,,,0.00,VWS V14.01,2013-01-16 21:24:00,
2013-01-16 15:25:00,36.3,28.8,29.96,WNW,292,2.0,2.0,74,0.00,,,0.00,VWS V14.01,2013-01-16 21:25:00,
2013-01-16 15:26:00,36.3,28.8,29.96,West,270,2.2,2.2,74,0.00,,,0.00,VWS V14.01,2013-01-16 21:26:00,
2013-01-16 15:27:00,36.3,28.8,29.96,SW,225,2.0,2.2,74,0.00,,,0.00,VWS V14.01,2013-01-16 21:27:00,
2013-01-16 15:28:00,36.3,28.8,29.96,SW,225,2.0,2.0,74,0.00,,,0.00,VWS V14.01,2013-01-16 21:28:00,
2013-01-16 15:29:00,36.3,28.8,29.96,SW,225,2.0,2.0,74,0.00,,,0.00,VWS V14.01,2013-01-16 21:29:00,
2013-01-16 15:30:00,36.3,28.8,29.96,SW,225,2.0,2.0,74,0.00,,,0.00,VWS V14.01,2013-01-16 21:30:00,
2013-01-16 15:31:00,36.3,28.8,29.97,SW,225,3.5,3.5,74,0.00,,,0.00,VWS V14.01,2013-01-16 21:31:00,
2013-01-16 15:32:00,36.3,28.8,29.97,SW,225,6.2,6.2,74,0.00,,,0.00,VWS V14.01,2013-01-16 21:32:00,
2013-01-16 15:33:00,36.3,28.8,29.96,SW,225,6.2,6.2,74,0.00,,,0.00,VWS V14.01,2013-01-16 21:33:00,
2013-01-16 15:34:00,36.3,28.8,29.97,WSW,248,2.9,6.2,74,0.00,,,0.00,VWS V14.01,2013-01-16 21:34:00,
2013-01-16 15:35:00,36.3,28.8,29.97,WSW,248,2.9,2.9,74,0.00,,,0.00,VWS V14.01,2013-01-16 21:35:00,
2013-01-16 15:36:00,36.3,28.8,29.97,WNW,292,6.0,6.0,74,0.00,,,0.00,VWS V14.01,2013-01-16 21:36:00,
2013-01-16 15:37:00,36.3,28.8,29.97,WNW,292,6.0,6.0,74,0.00,,,0.00,VWS V14.01,2013-01-16 21:37:00,
2013-01-16 15:38:00,36.3,28.8,29.97,SW,225,3.8,6.0,74,0.00,,,0.00,VWS V14.01,2013-01-16 21:38:00,
2013-01-16 15:39:00,36.3,28.8,29.97,SW,225,3.8,3.8,74,0.00,,,0.00,VWS V14.01,2013-01-16 21:39:00,
2013-01-16 15:40:00,36.3,28.8,29.97,SW,225,3.8,3.8,74,0.00,,,0.00,VWS V14.01,2013-01-16 21:40:00,
2013-01-16 15:41:00,36.3,28.8,29.97,SW,225,2.6,2.6,74,0.00,,,0.00,VWS V14.01,2013-01-16 21:41:00,
2013-01-16 15:42:00,36.3,28.8,29.97,SW,225,5.5,5.5,74,0.00,,,0.00,VWS V14.01,2013-01-16 21:42:00,
2013-01-16 15:43:00,36.3,28.8,29.97,SW,225,5.5,5.5,74,0.00,,,0.00,VWS V14.01,2013-01-16 21:43:00,
2013-01-16 15:44:00,36.3,28.8,29.97,SW,225,5.5,5.5,74,0.00,,,0.00,VWS V14.01,2013-01-16 21:44:00,
2013-01-16 15:45:00,36.3,28.8,29.97,SW,225,5.5,5.5,74,0.00,,,0.00,VWS V14.01,2013-01-16 21:45:00,
2013-01-16 15:46:00,36.3,28.8,29.98,SSW,202,4.4,4.4,74,0.00,,,0.00,VWS V14.01,2013-01-16 21:46:00,
2013-01-16 15:47:00,36.3,28.8,29.98,SW,225,5.8,5.8,74,0.00,,,0.00,VWS V14.01,2013-01-16 21:47:00,
2013-01-16 15:48:00,36.3,28.8,29.98,SW,225,5.8,5.8,74,0.00,,,0.00,VWS V14.01,2013-01-16 21:48:00,
2013-01-16 15:49:00,36.3,28.8,29.98,SW,225,2.0,5.8,74,0.00,,,0.00,VWS V14.01,2013-01-16 21:49:00,
2013-01-16 15:50:00,36.3,28.8,29.98,SW,225,2.0,2.0,74,0.00,,,0.00,VWS V14.01,2013-01-16 21:50:00,
2013-01-16 15:51:00,36.1,28.6,29.98,SSW,202,4.2,4.2,74,0.00,,,0.00,VWS V14.01,2013-01-16 21:51:00,
2013-01-16 15:52:00,36.1,28.6,29.98,SSW,202,4.2,4.2,74,0.00,,,0.00,VWS V14.01,2013-01-16 21:52:00,
2013-01-16 15:53:00,36.1,28.6,29.98,WSW,248,4.4,4.4,74,0.00,,,0.00,VWS V14.01,2013-01-16 21:53:00,
2013-01-16 15:54:00,36.1,28.6,29.98,WSW,248,4.4,4.4,74,0.00,,,0.00,VWS V14.01,2013-01-16 21:54:00,
2013-01-16 15:55:00,36.1,28.6,29.98,WSW,248,4.4,4.4,74,0.00,,,0.00,VWS V14.01,2013-01-16 21:55:00,
2013-01-16 15:56:00,36.1,28.6,29.98,SW,225,2.9,2.9,74,0.00,,,0.00,VWS V14.01,2013-01-16 21:56:00,
2013-01-16 15:57:00,36.1,28.6,29.98,SSW,202,5.3,5.3,74,0.00,,,0.00,VWS V14.01,2013-01-16 21:57:00,
2013-01-16 15:58:00,36.1,28.6,29.98,SSW,202,5.3,5.3,74,0.00,,,0.00,VWS V14.01,2013-01-16 21:58:00,
2013-01-16 15:59:00,36.1,28.6,29.98,SSW,202,5.3,5.3,74,0.00,,,0.00,VWS V14.01,2013-01-16 21:59:00,
2013-01-16 16:00:00,36.1,28.6,29.98,SSW,202,5.3,5.3,74,0.00,,,0.00,VWS V14.01,2013-01-16 22:00:00,
2013-01-16 16:01:00,36.1,29.0,29.99,SSW,202,3.1,3.1,75,0.00,,,0.00,VWS V14.01,2013-01-16 22:01:00,
2013-01-16 16:02:00,35.9,28.8,29.98,SSW,202,4.6,4.6,75,0.00,,,0.00,VWS V14.01,2013-01-16 22:02:00,
2013-01-16 16:03:00,35.9,28.8,29.99,SSW,202,4.6,4.6,75,0.00,,,0.00,VWS V14.01,2013-01-16 22:03:00,
2013-01-16 16:04:00,36.1,28.6,29.99,WSW,248,4.6,4.6,74,0.00,,,0.00,VWS V14.01,2013-01-16 22:04:00,
2013-01-16 16:05:00,36.1,28.6,29.99,WSW,248,4.6,4.6,74,0.00,,,0.00,VWS V14.01,2013-01-16 22:05:00,
2013-01-16 16:06:00,36.3,28.8,29.99,SSW,202,6.0,6.0,74,0.00,,,0.00,VWS V14.01,2013-01-16 22:06:00,
2013-01-16 16:07:00,36.3,28.8,29.99,SSW,202,6.0,6.0,74,0.00,,,0.00,VWS V14.01,2013-01-16 22:07:00,
2013-01-16 16:08:00,36.5,29.0,29.98,SW,225,5.8,6.0,74,0.00,,,0.00,VWS V14.01,2013-01-16 22:08:00,
2013-01-16 16:09:00,36.5,29.0,29.99,SW,225,5.8,5.8,74,0.00,,,0.00,VWS V14.01,2013-01-16 22:09:00,
2013-01-16 16:10:00,36.5,29.0,29.99,SW,225,5.8,5.8,74,0.00,,,0.00,VWS V14.01,2013-01-16 22:10:00,
2013-01-16 16:11:00,36.3,28.5,29.99,WSW,248,4.4,4.4,73,0.00,,,0.00,VWS V14.01,2013-01-16 22:11:00,
2013-01-16 16:12:00,36.3,28.5,29.99,SW,225,5.5,5.5,73,0.00,,,0.00,VWS V14.01,2013-01-16 22:12:00,
2013-01-16 16:13:00,36.3,28.5,29.99,SW,225,5.5,5.5,73,0.00,,,0.00,VWS V14.01,2013-01-16 22:13:00,
2013-01-16 16:14:00,36.3,28.5,29.99,SW,225,5.5,5.5,73,0.00,,,0.00,VWS V14.01,2013-01-16 22:14:00,
2013-01-16 16:15:00,36.3,28.5,29.99,SW,225,5.5,5.5,73,0.00,,,0.00,VWS V14.01,2013-01-16 22:15:00,
2013-01-16 16:16:00,36.1,28.6,29.99,WSW,248,10.7,10.7,74,0.00,,,0.00,VWS V14.01,2013-01-16 22:16:00,
2013-01-16 16:17:00,36.1,28.6,29.99,SSW,202,3.8,10.7,74,0.00,,,0.00,VWS V14.01,2013-01-16 22:17:00,
2013-01-16 16:18:00,36.1,28.6,29.99,SSW,202,3.8,3.8,74,0.00,,,0.00,VWS V14.01,2013-01-16 22:18:00,
2013-01-16 16:19:00,35.9,28.4,29.99,WSW,248,6.2,6.2,74,0.00,,,0.00,VWS V14.01,2013-01-16 22:19:00,
2013-01-16 16:20:00,35.9,28.4,29.99,WSW,248,6.2,6.2,74,0.00,,,0.00,VWS V14.01,2013-01-16 22:20:00,
2013-01-16 16:21:00,35.7,28.2,29.99,SSW,202,5.5,6.2,74,0.00,,,0.00,VWS V14.01,2013-01-16 22:21:00,
2013-01-16 16:22:00,35.7,28.2,29.99,SSW,202,5.5,5.5,74,0.00,,,0.00,VWS V14.01,2013-01-16 22:22:00,
2013-01-16 16:23:00,35.7,28.2,29.99,SW,225,3.5,5.5,74,0.00,,,0.00,VWS V14.01,2013-01-16 22:23:00,
2013-01-16 16:24:00,35.7,28.2,29.99,SW,225,3.5,3.5,74,0.00,,,0.00,VWS V14.01,2013-01-16 22:24:00,
2013-01-16 16:25:00,35.7,28.2,29.99,SW,225,3.5,3.5,74,0.00,,,0.00,VWS V14.01,2013-01-16 22:25:00,
2013-01-16 16:26:00,35.7,28.2,29.99,SSW,202,2.9,2.9,74,0.00,,,0.00,VWS V14.01,2013-01-16 22:26:00,
2013-01-16 16:27:00,35.4,28.3,29.99,SSW,202,2.9,2.9,75,0.00,,,0.00,VWS V14.01,2013-01-16 22:27:00,
2013-01-16 16:28:00,35.4,28.3,29.99,SSW,202,4.2,4.2,75,0.00,,,0.00,VWS V14.01,2013-01-16 22:28:00,
2013-01-16 16:29:00,35.4,28.3,29.99,SSW,202,4.2,4.2,75,0.00,,,0.00,VWS V14.01,2013-01-16 22:29:00,
2013-01-16 16:30:00,35.4,28.3,29.99,SSW,202,4.2,4.2,75,0.00,,,0.00,VWS V14.01,2013-01-16 22:30:00,
2013-01-16 16:31:00,35.2,28.1,29.99,SW,225,6.0,6.0,75,0.00,,,0.00,VWS V14.01,2013-01-16 22:31:00,
2013-01-16 16:32:00,35.2,28.1,29.99,SW,225,5.8,6.0,75,0.00,,,0.00,VWS V14.01,2013-01-16 22:32:00,
2013-01-16 16:33:00,35.2,28.1,29.99,SW,225,5.8,5.8,75,0.00,,,0.00,VWS V14.01,2013-01-16 22:33:00,
2013-01-16 16:34:00,35.2,28.4,29.99,SW,225,5.1,5.8,76,0.00,,,0.00,VWS V14.01,2013-01-16 22:34:00,
2013-01-16 16:35:00,35.2,28.4,29.99,SW,225,5.1,5.1,76,0.00,,,0.00,VWS V14.01,2013-01-16 22:35:00,
2013-01-16 16:36:00,35.2,28.4,30.00,SSW,202,5.1,5.1,76,0.00,,,0.00,VWS V14.01,2013-01-16 22:36:00,
2013-01-16 16:37:00,35.2,28.4,30.00,SSW,202,5.1,5.1,76,0.00,,,0.00,VWS V14.01,2013-01-16 22:37:00,
2013-01-16 16:38:00,34.8,28.0,30.00,SSW,202,2.6,5.1,76,0.00,,,0.00,VWS V14.01,2013-01-16 22:38:00,
2013-01-16 16:39:00,34.8,28.0,30.01,SSW,202,2.6,2.6,76,0.00,,,0.00,VWS V14.01,2013-01-16 22:39:00,
2013-01-16 16:40:00,34.8,28.0,30.01,SSW,202,2.6,2.6,76,0.00,,,0.00,VWS V14.01,2013-01-16 22:40:00,
2013-01-16 16:41:00,34.7,28.2,30.01,SW,225,1.1,1.1,77,0.00,,,0.00,VWS V14.01,2013-01-16 22:41:00,
2013-01-16 16:42:00,34.5,28.0,30.01,SSW,202,3.8,3.8,77,0.00,,,0.00,VWS V14.01,2013-01-16 22:42:00,
2013-01-16 16:43:00,34.5,28.0,30.00,SSW,202,3.8,3.8,77,0.00,,,0.00,VWS V14.01,2013-01-16 22:43:00,
2013-01-16 16:44:00,34.5,28.0,30.00,WSW,248,3.5,3.8,77,0.00,,,0.00,VWS V14.01,2013-01-16 22:44:00,
2013-01-16 16:45:00,34.5,28.0,30.00,WSW,248,3.5,3.5,77,0.00,,,0.00,VWS V14.01,2013-01-16 22:45:00,
2013-01-16 16:46:00,34.5,28.0,30.00,WSW,248,3.5,3.5,77,0.00,,,0.00,VWS V14.01,2013-01-16 22:46:00,
2013-01-16 16:47:00,34.3,27.9,30.00,SW,225,4.9,4.9,77,0.00,,,0.00,VWS V14.01,2013-01-16 22:47:00,
2013-01-16 16:48:00,34.3,27.9,30.00,SW,225,4.9,4.9,77,0.00,,,0.00,VWS V14.01,2013-01-16 22:48:00,
2013-01-16 16:49:00,34.3,27.9,30.01,SSW,202,5.5,5.5,77,0.00,,,0.00,VWS V14.01,2013-01-16 22:49:00,
2013-01-16 16:50:00,34.3,27.9,30.01,SSW,202,5.5,5.5,77,0.00,,,0.00,VWS V14.01,2013-01-16 22:50:00,
2013-01-16 16:51:00,34.3,27.9,30.01,SW,225,1.3,5.5,77,0.00,,,0.00,VWS V14.01,2013-01-16 22:51:00,
2013-01-16 16:52:00,34.3,27.9,30.00,SW,225,1.3,1.3,77,0.00,,,0.00,VWS V14.01,2013-01-16 22:52:00,
2013-01-16 16:53:00,34.3,28.2,30.01,SW,225,0.8,1.3,78,0.00,,,0.00,VWS V14.01,2013-01-16 22:53:00,
2013-01-16 16:54:00,34.3,28.2,30.01,SW,225,0.8,0.8,78,0.00,,,0.00,VWS V14.01,2013-01-16 22:54:00,
2013-01-16 16:55:00,34.3,28.2,30.01,SW,225,0.8,0.8,78,0.00,,,0.00,VWS V14.01,2013-01-16 22:55:00,
2013-01-16 16:56:00,34.3,28.2,30.00,WSW,248,0.4,0.4,78,0.00,,,0.00,VWS V14.01,2013-01-16 22:56:00,
2013-01-16 16:57:00,34.1,28.0,30.00,SW,225,2.2,2.2,78,0.00,,,0.00,VWS V14.01,2013-01-16 22:57:00,
2013-01-16 16:58:00,34.1,28.0,30.00,SW,225,2.2,2.2,78,0.00,,,0.00,VWS V14.01,2013-01-16 22:58:00,
2013-01-16 16:59:00,34.1,28.0,30.00,SW,225,4.0,4.0,78,0.00,,,0.00,VWS V14.01,2013-01-16 22:59:00,
2013-01-16 17:00:00,34.1,28.0,30.00,SW,225,4.0,4.0,78,0.00,,,0.00,VWS V14.01,2013-01-16 23:00:00,
2013-01-16 17:01:00,34.1,28.0,30.00,SW,225,4.0,4.0,78,0.00,,,0.00,VWS V14.01,2013-01-16 23:01:00,
2013-01-16 17:02:00,34.1,28.0,30.00,WSW,248,2.0,4.0,78,0.00,,,0.00,VWS V14.01,2013-01-16 23:02:00,
2013-01-16 17:03:00,34.1,28.0,30.00,WSW,248,2.0,2.0,78,0.00,,,0.00,VWS V14.01,2013-01-16 23:03:00,
2013-01-16 17:04:00,34.1,28.3,30.00,West,270,5.1,5.1,79,0.00,,,0.00,VWS V14.01,2013-01-16 23:04:00,
2013-01-16 17:05:00,34.1,28.3,30.00,West,270,5.1,5.1,79,0.00,,,0.00,VWS V14.01,2013-01-16 23:05:00,
2013-01-16 17:06:00,34.1,28.3,30.00,WSW,248,0.8,5.1,79,0.00,,,0.00,VWS V14.01,2013-01-16 23:06:00,
2013-01-16 17:07:00,34.1,28.3,30.00,WSW,248,0.8,0.8,79,0.00,,,0.00,VWS V14.01,2013-01-16 23:07:00,
2013-01-16 17:08:00,34.1,28.3,30.00,SSW,202,4.6,4.6,79,0.00,,,0.00,VWS V14.01,2013-01-16 23:08:00,
2013-01-16 17:09:00,34.1,28.3,30.00,SSW,202,4.6,4.6,79,0.00,,,0.00,VWS V14.01,2013-01-16 23:09:00,
2013-01-16 17:10:00,34.1,28.3,30.00,SSW,202,4.6,4.6,79,0.00,,,0.00,VWS V14.01,2013-01-16 23:10:00,
2013-01-16 17:11:00,34.1,28.3,30.00,SW,225,3.1,3.1,79,0.00,,,0.00,VWS V14.01,2013-01-16 23:11:00,
2013-01-16 17:12:00,34.1,28.3,30.00,SW,225,3.1,3.1,79,0.00,,,0.00,VWS V14.01,2013-01-16 23:12:00,
2013-01-16 17:13:00,34.1,28.3,30.00,WSW,248,3.1,3.1,79,0.00,,,0.00,VWS V14.01,2013-01-16 23:13:00,
2013-01-16 17:14:00,34.1,28.3,30.01,SW,225,2.9,3.1,79,0.00,,,0.00,VWS V14.01,2013-01-16 23:14:00,
2013-01-16 17:15:00,34.1,28.3,30.01,SW,225,2.9,2.9,79,0.00,,,0.00,VWS V14.01,2013-01-16 23:15:00,
2013-01-16 17:16:00,34.1,28.3,30.01,SW,225,2.9,2.9,79,0.00,,,0.00,VWS V14.01,2013-01-16 23:16:00,
2013-01-16 17:17:00,34.1,28.3,30.01,SW,225,1.5,2.9,79,0.00,,,0.00,VWS V14.01,2013-01-16 23:17:00,
2013-01-16 17:18:00,34.1,28.3,30.01,SW,225,1.5,1.5,79,0.00,,,0.00,VWS V14.01,2013-01-16 23:18:00,
2013-01-16 17:19:00,34.3,28.5,30.01,SSW,202,5.5,5.5,79,0.00,,,0.00,VWS V14.01,2013-01-16 23:19:00,
2013-01-16 17:20:00,34.3,28.5,30.01,SSW,202,5.5,5.5,79,0.00,,,0.00,VWS V14.01,2013-01-16 23:20:00,
2013-01-16 17:21:00,34.3,28.5,30.01,SSW,202,3.5,5.5,79,0.00,,,0.00,VWS V14.01,2013-01-16 23:21:00,
2013-01-16 17:22:00,34.3,28.5,30.02,SSW,202,3.5,3.5,79,0.00,,,0.00,VWS V14.01,2013-01-16 23:22:00,
2013-01-16 17:23:00,34.3,28.5,30.02,SW,225,3.3,3.5,79,0.00,,,0.00,VWS V14.01,2013-01-16 23:23:00,
2013-01-16 17:24:00,34.3,28.5,30.02,SW,225,3.3,3.3,79,0.00,,,0.00,VWS V14.01,2013-01-16 23:24:00,
2013-01-16 17:25:00,34.3,28.5,30.02,SW,225,3.3,3.3,79,0.00,,,0.00,VWS V14.01,2013-01-16 23:25:00,
2013-01-16 17:26:00,34.3,28.5,30.02,WSW,248,3.5,3.5,79,0.00,,,0.00,VWS V14.01,2013-01-16 23:26:00,
2013-01-16 17:27:00,34.3,28.5,30.01,SW,225,2.2,3.5,79,0.00,,,0.00,VWS V14.01,2013-01-16 23:27:00,
2013-01-16 17:28:00,34.3,28.5,30.02,SW,225,2.2,2.2,79,0.00,,,0.00,VWS V14.01,2013-01-16 23:28:00,
2013-01-16 17:29:00,34.3,28.5,30.01,SW,225,0.6,2.2,79,0.00,,,0.00,VWS V14.01,2013-01-16 23:29:00,
2013-01-16 17:30:00,34.3,28.5,30.01,SW,225,0.6,0.6,79,0.00,,,0.00,VWS V14.01,2013-01-16 23:30:00,
2013-01-16 17:31:00,34.3,28.5,30.01,SW,225,0.6,0.6,79,0.00,,,0.00,VWS V14.01,2013-01-16 23:31:00,
2013-01-16 17:32:00,34.3,28.5,30.01,West,270,3.3,3.3,79,0.00,,,0.00,VWS V14.01,2013-01-16 23:32:00,
2013-01-16 17:33:00,34.3,28.5,30.01,West,270,3.3,3.3,79,0.00,,,0.00,VWS V14.01,2013-01-16 23:33:00,
2013-01-16 17:34:00,34.3,28.5,30.02,SW,225,2.2,3.3,79,0.00,,,0.00,VWS V14.01,2013-01-16 23:34:00,
2013-01-16 17:35:00,34.3,28.5,30.02,SW,225,2.2,2.2,79,0.00,,,0.00,VWS V14.01,2013-01-16 23:35:00,
2013-01-16 17:36:00,34.3,28.5,30.01,SW,225,4.6,4.6,79,0.00,,,0.00,VWS V14.01,2013-01-16 23:36:00,
2013-01-16 17:37:00,34.3,28.5,30.01,SW,225,4.6,4.6,79,0.00,,,0.00,VWS V14.01,2013-01-16 23:37:00,
2013-01-16 17:38:00,34.3,28.5,30.02,SW,225,3.1,4.6,79,0.00,,,0.00,VWS V14.01,2013-01-16 23:38:00,
2013-01-16 17:39:00,34.3,28.5,30.02,SW,225,3.1,3.1,79,0.00,,,0.00,VWS V14.01,2013-01-16 23:39:00,
2013-01-16 17:40:00,34.3,28.5,30.02,SW,225,3.1,3.1,79,0.00,,,0.00,VWS V14.01,2013-01-16 23:40:00,
2013-01-16 17:41:00,34.3,28.5,30.02,SSW,202,2.9,2.9,79,0.00,,,0.00,VWS V14.01,2013-01-16 23:41:00,
2013-01-16 17:42:00,34.3,28.5,30.02,SW,225,3.1,3.1,79,0.00,,,0.00,VWS V14.01,2013-01-16 23:42:00,
2013-01-16 17:43:00,34.3,28.5,30.02,SW,225,3.1,3.1,79,0.00,,,0.00,VWS V14.01,2013-01-16 23:43:00,
2013-01-16 17:44:00,34.3,28.5,30.02,SW,225,4.9,4.9,79,0.00,,,0.00,VWS V14.01,2013-01-16 23:44:00,
2013-01-16 17:45:00,34.3,28.5,30.02,SW,225,4.9,4.9,79,0.00,,,0.00,VWS V14.01,2013-01-16 23:45:00,
2013-01-16 17:46:00,34.3,28.5,30.02,SW,225,4.9,4.9,79,0.00,,,0.00,VWS V14.01,2013-01-16 23:46:00,
2013-01-16 17:47:00,34.5,28.7,30.02,SW,225,6.4,6.4,79,0.00,,,0.00,VWS V14.01,2013-01-16 23:47:00,
2013-01-16 17:48:00,34.5,28.7,30.02,SW,225,6.4,6.4,79,0.00,,,0.00,VWS V14.01,2013-01-16 23:48:00,
2013-01-16 17:49:00,34.5,28.7,30.02,SW,225,2.6,6.4,79,0.00,,,0.00,VWS V14.01,2013-01-16 23:49:00,
2013-01-16 17:50:00,34.5,28.7,30.02,SW,225,2.6,2.6,79,0.00,,,0.00,VWS V14.01,2013-01-16 23:50:00,
2013-01-16 17:51:00,34.7,28.9,30.02,SW,225,2.9,2.9,79,0.00,,,0.00,VWS V14.01,2013-01-16 23:51:00,
2013-01-16 17:52:00,34.7,28.9,30.02,SW,225,2.9,2.9,79,0.00,,,0.00,VWS V14.01,2013-01-16 23:52:00,
2013-01-16 17:53:00,34.7,28.9,30.02,SW,225,1.5,2.9,79,0.00,,,0.00,VWS V14.01,2013-01-16 23:53:00,
2013-01-16 17:54:00,34.7,28.9,30.02,SW,225,1.5,1.5,79,0.00,,,0.00,VWS V14.01,2013-01-16 23:54:00,
2013-01-16 17:55:00,34.7,28.9,30.02,SW,225,1.5,1.5,79,0.00,,,0.00,VWS V14.01,2013-01-16 23:55:00,
2013-01-16 17:56:00,34.7,28.9,30.02,SW,225,4.0,4.0,79,0.00,,,0.00,VWS V14.01,2013-01-16 23:56:00,
2013-01-16 17:57:00,34.7,28.9,30.02,SW,225,4.0,4.0,79,0.00,,,0.00,VWS V14.01,2013-01-16 23:57:00,
2013-01-16 17:58:00,34.7,28.9,30.02,SW,225,4.0,4.0,79,0.00,,,0.00,VWS V14.01,2013-01-16 23:58:00,
2013-01-16 17:59:00,34.5,28.7,30.02,SW,225,1.5,4.0,79,0.00,,,0.00,VWS V14.01,2013-01-16 23:59:00,
2013-01-16 18:00:00,34.5,28.7,30.02,SW,225,1.5,1.5,79,0.00,,,0.00,VWS V14.01,2013-01-17 00:00:00,
2013-01-16 18:01:00,34.5,28.7,30.02,SW,225,1.5,1.5,79,0.00,,,0.00,VWS V14.01,2013-01-17 00:01:00,
2013-01-16 18:02:00,34.5,28.7,30.02,WSW,248,2.2,2.2,79,0.00,,,0.00,VWS V14.01,2013-01-17 00:02:00,
2013-01-16 18:03:00,34.5,28.7,30.02,WSW,248,2.2,2.2,79,0.00,,,0.00,VWS V14.01,2013-01-17 00:03:00,
2013-01-16 18:04:00,34.5,28.7,30.02,SSW,202,3.1,3.1,79,0.00,,,0.00,VWS V14.01,2013-01-17 00:04:00,
2013-01-16 18:05:00,34.5,28.7,30.02,SSW,202,3.1,3.1,79,0.00,,,0.00,VWS V14.01,2013-01-17 00:05:00,
2013-01-16 18:06:00,34.5,28.7,30.02,WSW,248,0.8,3.1,79,0.00,,,0.00,VWS V14.01,2013-01-17 00:06:00,
2013-01-16 18:07:00,34.5,28.7,30.03,WSW,248,0.8,0.8,79,0.00,,,0.00,VWS V14.01,2013-01-17 00:07:00,
2013-01-16 18:08:00,34.5,28.7,30.02,SW,225,4.2,4.2,79,0.00,,,0.00,VWS V14.01,2013-01-17 00:08:00,
2013-01-16 18:09:00,34.5,28.7,30.02,SW,225,4.2,4.2,79,0.00,,,0.00,VWS V14.01,2013-01-17 00:09:00,
2013-01-16 18:10:00,34.5,28.7,30.02,SW,225,4.2,4.2,79,0.00,,,0.00,VWS V14.01,2013-01-17 00:10:00,
2013-01-16 18:11:00,34.5,28.7,30.03,SW,225,1.3,1.3,79,0.00,,,0.00,VWS V14.01,2013-01-17 00:11:00,
2013-01-16 18:12:00,34.5,28.7,30.03,SSW,202,1.7,1.7,79,0.00,,,0.00,VWS V14.01,2013-01-17 00:12:00,
2013-01-16 18:13:00,34.5,28.7,30.03,SSW,202,1.7,1.7,79,0.00,,,0.00,VWS V14.01,2013-01-17 00:13:00,
2013-01-16 18:14:00,34.5,28.7,30.03,SW,225,2.0,2.0,79,0.00,,,0.00,VWS V14.01,2013-01-17 00:14:00,
2013-01-16 18:15:00,34.5,28.7,30.03,SW,225,2.0,2.0,79,0.00,,,0.00,VWS V14.01,2013-01-17 00:15:00,
2013-01-16 18:16:00,34.5,28.7,30.03,SW,225,2.0,2.0,79,0.00,,,0.00,VWS V14.01,2013-01-17 00:16:00,
2013-01-16 18:17:00,34.5,29.0,30.03,SSW,202,3.1,3.1,80,0.00,,,0.00,VWS V14.01,2013-01-17 00:17:00,
2013-01-16 18:18:00,34.5,29.0,30.03,SSW,202,3.1,3.1,80,0.00,,,0.00,VWS V14.01,2013-01-17 00:18:00,
2013-01-16 18:19:00,34.5,29.0,30.03,SSW,202,7.6,7.6,80,0.00,,,0.00,VWS V14.01,2013-01-17 00:19:00,
2013-01-16 18:20:00,34.5,29.0,30.03,SSW,202,7.6,7.6,80,0.00,,,0.00,VWS V14.01,2013-01-17 00:20:00,
2013-01-16 18:21:00,34.7,29.2,30.03,SW,225,6.7,7.6,80,0.00,,,0.00,VWS V14.01,2013-01-17 00:21:00,
2013-01-16 18:22:00,34.7,29.2,30.03,SW,225,6.7,6.7,80,0.00,,,0.00,VWS V14.01,2013-01-17 00:22:00,
2013-01-16 18:23:00,34.7,28.9,30.03,SW,225,7.6,7.6,79,0.00,,,0.00,VWS V14.01,2013-01-17 00:23:00,
2013-01-16 18:24:00,34.7,28.9,30.03,SW,225,7.6,7.6,79,0.00,,,0.00,VWS V14.01,2013-01-17 00:24:00,
2013-01-16 18:25:00,34.7,28.9,30.03,SW,225,7.6,7.6,79,0.00,,,0.00,VWS V14.01,2013-01-17 00:25:00,
2013-01-16 18:26:00,34.7,28.9,30.03,SW,225,6.4,6.4,79,0.00,,,0.00,VWS V14.01,2013-01-17 00:26:00,
2013-01-16 18:27:00,34.7,28.9,30.03,SW,225,2.2,6.4,79,0.00,,,0.00,VWS V14.01,2013-01-17 00:27:00,
2013-01-16 18:28:00,34.7,28.9,30.03,SW,225,2.2,2.2,79,0.00,,,0.00,VWS V14.01,2013-01-17 00:28:00,
2013-01-16 18:29:00,34.7,28.9,30.03,SSW,202,6.2,6.2,79,0.00,,,0.00,VWS V14.01,2013-01-17 00:29:00,
2013-01-16 18:30:00,34.7,28.9,30.03,SSW,202,6.2,6.2,79,0.00,,,0.00,VWS V14.01,2013-01-17 00:30:00,
2013-01-16 18:31:00,34.7,28.9,30.03,SSW,202,6.2,6.2,79,0.00,,,0.00,VWS V14.01,2013-01-17 00:31:00,
2013-01-16 18:32:00,34.8,29.0,30.03,SSW,202,8.0,8.0,79,0.00,,,0.00,VWS V14.01,2013-01-17 00:32:00,
2013-01-16 18:33:00,34.8,29.0,30.04,SSW,202,8.0,8.0,79,0.00,,,0.00,VWS V14.01,2013-01-17 00:33:00,
2013-01-16 18:34:00,34.8,29.0,30.04,SSW,202,6.2,8.0,79,0.00,,,0.00,VWS V14.01,2013-01-17 00:34:00,
2013-01-16 18:35:00,34.8,29.0,30.04,SSW,202,6.2,6.2,79,0.00,,,0.00,VWS V14.01,2013-01-17 00:35:00,
2013-01-16 18:36:00,34.8,29.0,30.04,SSW,202,6.0,6.2,79,0.00,,,0.00,VWS V14.01,2013-01-17 00:36:00,
2013-01-16 18:37:00,34.8,29.0,30.04,SSW,202,6.0,6.0,79,0.00,,,0.00,VWS V14.01,2013-01-17 00:37:00,
2013-01-16 18:38:00,34.8,29.0,30.04,SW,225,6.2,6.2,79,0.00,,,0.00,VWS V14.01,2013-01-17 00:38:00,
2013-01-16 18:39:00,34.8,29.0,30.04,SW,225,6.2,6.2,79,0.00,,,0.00,VWS V14.01,2013-01-17 00:39:00,
2013-01-16 18:40:00,34.8,29.0,30.04,SW,225,6.2,6.2,79,0.00,,,0.00,VWS V14.01,2013-01-17 00:40:00,
2013-01-16 18:41:00,34.8,29.0,30.05,SSW,202,3.5,3.5,79,0.00,,,0.00,VWS V14.01,2013-01-17 00:41:00,
2013-01-16 18:42:00,34.8,29.0,30.05,SW,225,4.2,4.2,79,0.00,,,0.00,VWS V14.01,2013-01-17 00:42:00,
2013-01-16 18:43:00,34.8,29.0,30.05,SW,225,4.2,4.2,79,0.00,,,0.00,VWS V14.01,2013-01-17 00:43:00,
2013-01-16 18:44:00,34.8,29.0,30.05,SW,225,6.0,6.0,79,0.00,,,0.00,VWS V14.01,2013-01-17 00:44:00,
2013-01-16 18:45:00,34.8,29.0,30.05,SW,225,6.0,6.0,79,0.00,,,0.00,VWS V14.01,2013-01-17 00:45:00,
2013-01-16 18:46:00,34.8,29.0,30.05,SW,225,6.0,6.0,79,0.00,,,0.00,VWS V14.01,2013-01-17 00:46:00,
2013-01-16 18:47:00,34.8,29.0,30.05,SSW,202,5.1,6.0,79,0.00,,,0.00,VWS V14.01,2013-01-17 00:47:00,
2013-01-16 18:48:00,34.8,29.0,30.05,SSW,202,5.1,5.1,79,0.00,,,0.00,VWS V14.01,2013-01-17 00:48:00,
2013-01-16 18:49:00,34.8,29.0,30.05,SSW,202,2.4,5.1,79,0.00,,,0.00,VWS V14.01,2013-01-17 00:49:00,
2013-01-16 18:50:00,34.8,29.0,30.05,SSW,202,2.4,2.4,79,0.00,,,0.00,VWS V14.01,2013-01-17 00:50:00,
2013-01-16 18:51:00,34.8,29.0,30.05,SSW,202,0.0,2.4,79,0.00,,,0.00,VWS V14.01,2013-01-17 00:51:00,
2013-01-16 18:52:00,34.8,29.0,30.05,SSW,202,0.0,0.0,79,0.00,,,0.00,VWS V14.01,2013-01-17 00:52:00,
2013-01-16 18:53:00,34.8,29.0,30.05,SW,225,0.0,0.0,79,0.00,,,0.00,VWS V14.01,2013-01-17 00:53:00,
2013-01-16 18:54:00,34.8,29.0,30.05,SW,225,0.0,0.0,79,0.00,,,0.00,VWS V14.01,2013-01-17 00:54:00,
2013-01-16 18:55:00,34.8,29.0,30.05,SW,225,0.0,0.0,79,0.00,,,0.00,VWS V14.01,2013-01-17 00:55:00,
2013-01-16 18:56:00,34.8,29.0,30.05,SW,225,0.4,0.4,79,0.00,,,0.00,VWS V14.01,2013-01-17 00:56:00,
2013-01-16 18:57:00,34.8,29.0,30.05,WSW,248,0.8,0.8,79,0.00,,,0.00,VWS V14.01,2013-01-17 00:57:00,
2013-01-16 18:58:00,34.8,29.0,30.05,WSW,248,0.8,0.8,79,0.00,,,0.00,VWS V14.01,2013-01-17 00:58:00,
2013-01-16 18:59:00,34.8,29.0,30.05,WSW,248,0.0,0.8,79,0.00,,,0.00,VWS V14.01,2013-01-17 00:59:00,
2013-01-16 19:00:00,34.8,29.0,30.05,WSW,248,0.0,0.0,79,0.00,,,0.00,VWS V14.01,2013-01-17 01:00:00,
2013-01-16 19:01:00,34.8,29.0,30.05,SW,225,0.0,0.0,79,0.00,,,0.00,VWS V14.01,2013-01-17 01:01:00,
2013-01-16 19:02:00,34.8,29.0,30.05,SW,225,0.0,0.0,79,0.00,,,0.00,VWS V14.01,2013-01-17 01:02:00,
2013-01-16 19:03:00,34.8,29.0,30.05,SW,225,0.0,0.0,79,0.00,,,0.00,VWS V14.01,2013-01-17 01:03:00,
2013-01-16 19:04:00,34.8,29.0,30.05,SW,225,0.8,0.8,79,0.00,,,0.00,VWS V14.01,2013-01-17 01:04:00,
2013-01-16 19:05:00,34.8,29.0,30.05,SW,225,0.8,0.8,79,0.00,,,0.00,VWS V14.01,2013-01-17 01:05:00,
2013-01-16 19:06:00,34.8,29.0,30.05,SSW,202,2.0,2.0,79,0.00,,,0.00,VWS V14.01,2013-01-17 01:06:00,
2013-01-16 19:07:00,34.8,29.0,30.05,SSW,202,2.0,2.0,79,0.00,,,0.00,VWS V14.01,2013-01-17 01:07:00,
2013-01-16 19:08:00,34.8,29.0,30.05,WSW,248,0.0,2.0,79,0.00,,,0.00,VWS V14.01,2013-01-17 01:08:00,
2013-01-16 19:09:00,34.8,29.0,30.05,WSW,248,0.0,0.0,79,0.00,,,0.00,VWS V14.01,2013-01-17 01:09:00,
2013-01-16 19:10:00,34.8,29.0,30.05,WSW,248,0.0,0.0,79,0.00,,,0.00,VWS V14.01,2013-01-17 01:10:00,
2013-01-16 19:11:00,34.8,29.0,30.06,WSW,248,0.0,0.0,79,0.00,,,0.00,VWS V14.01,2013-01-17 01:11:00,
2013-01-16 19:12:00,34.8,29.0,30.05,WSW,248,0.0,0.0,79,0.00,,,0.00,VWS V14.01,2013-01-17 01:12:00,
2013-01-16 19:13:00,34.8,29.0,30.05,WSW,248,0.0,0.0,79,0.00,,,0.00,VWS V14.01,2013-01-17 01:13:00,
2013-01-16 19:14:00,34.8,29.0,30.05,WSW,248,0.0,0.0,79,0.00,,,0.00,VWS V14.01,2013-01-17 01:14:00,
2013-01-16 19:15:00,34.8,29.0,30.05,WSW,248,0.0,0.0,79,0.00,,,0.00,VWS V14.01,2013-01-17 01:15:00,
2013-01-16 19:16:00,34.8,29.0,30.06,WSW,248,0.0,0.0,79,0.00,,,0.00,VWS V14.01,2013-01-17 01:16:00,
2013-01-16 19:17:00,34.8,29.0,30.06,WSW,248,0.0,0.0,79,0.00,,,0.00,VWS V14.01,2013-01-17 01:17:00,
2013-01-16 19:18:00,34.8,29.0,30.05,WSW,248,0.0,0.0,79,0.00,,,0.00,VWS V14.01,2013-01-17 01:18:00,
2013-01-16 19:19:00,34.8,29.0,30.06,WSW,248,0.0,0.0,79,0.00,,,0.00,VWS V14.01,2013-01-17 01:19:00,
2013-01-16 19:20:00,34.8,29.0,30.06,WSW,248,0.0,0.0,79,0.00,,,0.00,VWS V14.01,2013-01-17 01:20:00,
2013-01-16 19:21:00,34.8,29.0,30.06,WSW,248,0.0,0.0,79,0.00,,,0.00,VWS V14.01,2013-01-17 01:21:00,
2013-01-16 19:22:00,34.8,29.0,30.06,WSW,248,0.0,0.0,79,0.00,,,0.00,VWS V14.01,2013-01-17 01:22:00,
2013-01-16 19:23:00,34.8,29.0,30.06,WSW,248,0.0,0.0,79,0.00,,,0.00,VWS V14.01,2013-01-17 01:23:00,
2013-01-16 19:24:00,34.8,29.0,30.06,WSW,248,0.0,0.0,79,0.00,,,0.00,VWS V14.01,2013-01-17 01:24:00,
2013-01-16 19:25:00,34.8,29.0,30.06,WSW,248,0.0,0.0,79,0.00,,,0.00,VWS V14.01,2013-01-17 01:25:00,
2013-01-16 19:26:00,34.8,29.3,30.06,WSW,248,0.0,0.0,80,0.00,,,0.00,VWS V14.01,2013-01-17 01:26:00,
2013-01-16 19:27:00,34.8,29.3,30.06,WSW,248,0.0,0.0,80,0.00,,,0.00,VWS V14.01,2013-01-17 01:27:00,
2013-01-16 19:28:00,34.8,29.3,30.06,WSW,248,0.0,0.0,80,0.00,,,0.00,VWS V14.01,2013-01-17 01:28:00,
2013-01-16 19:29:00,34.8,29.3,30.06,WSW,248,0.0,0.0,80,0.00,,,0.00,VWS V14.01,2013-01-17 01:29:00,
2013-01-16 19:30:00,34.8,29.3,30.06,WSW,248,0.0,0.0,80,0.00,,,0.00,VWS V14.01,2013-01-17 01:30:00,
2013-01-16 19:31:00,34.8,29.3,30.06,WSW,248,0.0,0.0,80,0.00,,,0.00,VWS V14.01,2013-01-17 01:31:00,
2013-01-16 19:32:00,34.8,29.3,30.06,WSW,248,0.0,0.0,80,0.00,,,0.00,VWS V14.01,2013-01-17 01:32:00,
2013-01-16 19:33:00,34.8,29.3,30.06,WSW,248,0.0,0.0,80,0.00,,,0.00,VWS V14.01,2013-01-17 01:33:00,
2013-01-16 19:34:00,34.8,29.3,30.06,WSW,248,0.0,0.0,80,0.00,,,0.00,VWS V14.01,2013-01-17 01:34:00,
2013-01-16 19:35:00,34.8,29.3,30.06,WSW,248,0.0,0.0,80,0.00,,,0.00,VWS V14.01,2013-01-17 01:35:00,
2013-01-16 19:36:00,34.8,29.3,30.06,WSW,248,0.0,0.0,80,0.00,,,0.00,VWS V14.01,2013-01-17 01:36:00,
2013-01-16 19:37:00,34.8,29.3,30.07,WSW,248,0.0,0.0,80,0.00,,,0.00,VWS V14.01,2013-01-17 01:37:00,
2013-01-16 19:38:00,34.8,29.3,30.07,WSW,248,0.0,0.0,80,0.00,,,0.00,VWS V14.01,2013-01-17 01:38:00,
2013-01-16 19:39:00,34.8,29.3,30.07,WSW,248,0.0,0.0,80,0.00,,,0.00,VWS V14.01,2013-01-17 01:39:00,
2013-01-16 19:40:00,34.8,29.3,30.07,WSW,248,0.0,0.0,80,0.00,,,0.00,VWS V14.01,2013-01-17 01:40:00,
2013-01-16 19:41:00,34.8,29.3,30.07,WSW,248,0.0,0.0,80,0.00,,,0.00,VWS V14.01,2013-01-17 01:41:00,
2013-01-16 19:42:00,34.8,29.3,30.06,WSW,248,0.0,0.0,80,0.00,,,0.00,VWS V14.01,2013-01-17 01:42:00,
2013-01-16 19:43:00,34.8,29.3,30.06,WSW,248,0.0,0.0,80,0.00,,,0.00,VWS V14.01,2013-01-17 01:43:00,
2013-01-16 19:44:00,34.8,29.3,30.06,WSW,248,0.0,0.0,80,0.00,,,0.00,VWS V14.01,2013-01-17 01:44:00,
2013-01-16 19:45:00,34.8,29.3,30.06,WSW,248,0.0,0.0,80,0.00,,,0.00,VWS V14.01,2013-01-17 01:45:00,
2013-01-16 19:46:00,34.8,29.3,30.06,WSW,248,0.0,0.0,80,0.00,,,0.00,VWS V14.01,2013-01-17 01:46:00,
2013-01-16 19:47:00,34.8,29.3,30.06,WSW,248,0.0,0.0,80,0.00,,,0.00,VWS V14.01,2013-01-17 01:47:00,
2013-01-16 19:48:00,34.8,29.3,30.06,WSW,248,0.0,0.0,80,0.00,,,0.00,VWS V14.01,2013-01-17 01:48:00,
2013-01-16 19:49:00,34.8,29.3,30.07,WSW,248,0.0,0.0,80,0.00,,,0.00,VWS V14.01,2013-01-17 01:49:00,
2013-01-16 19:50:00,34.8,29.3,30.07,WSW,248,0.0,0.0,80,0.00,,,0.00,VWS V14.01,2013-01-17 01:50:00,
2013-01-16 19:51:00,34.8,29.3,30.07,WSW,248,0.0,0.0,80,0.00,,,0.00,VWS V14.01,2013-01-17 01:51:00,
2013-01-16 19:52:00,34.8,29.3,30.07,WSW,248,0.0,0.0,80,0.00,,,0.00,VWS V14.01,2013-01-17 01:52:00,
2013-01-16 19:53:00,34.8,29.3,30.07,WSW,248,0.0,0.0,80,0.00,,,0.00,VWS V14.01,2013-01-17 01:53:00,
2013-01-16 19:54:00,34.8,29.3,30.07,WSW,248,0.0,0.0,80,0.00,,,0.00,VWS V14.01,2013-01-17 01:54:00,
2013-01-16 19:55:00,34.8,29.3,30.07,WSW,248,0.0,0.0,80,0.00,,,0.00,VWS V14.01,2013-01-17 01:55:00,
2013-01-16 19:56:00,34.8,29.3,30.07,WSW,248,0.0,0.0,80,0.00,,,0.00,VWS V14.01,2013-01-17 01:56:00,
2013-01-16 19:57:00,34.7,29.2,30.06,WSW,248,0.0,0.0,80,0.00,,,0.00,VWS V14.01,2013-01-17 01:57:00,
2013-01-16 19:58:00,34.7,29.2,30.07,WSW,248,0.0,0.0,80,0.00,,,0.00,VWS V14.01,2013-01-17 01:58:00,
2013-01-16 19:59:00,34.7,29.2,30.07,WSW,248,0.0,0.0,80,0.00,,,0.00,VWS V14.01,2013-01-17 01:59:00,
2013-01-16 20:00:00,34.7,29.2,30.07,WSW,248,0.0,0.0,80,0.00,,,0.00,VWS V14.01,2013-01-17 02:00:00,
2013-01-16 20:01:00,34.7,29.2,30.07,SW,225,1.5,1.5,80,0.00,,,0.00,VWS V14.01,2013-01-17 02:01:00,
2013-01-16 20:02:00,34.7,29.2,30.07,SW,225,1.5,1.5,80,0.00,,,0.00,VWS V14.01,2013-01-17 02:02:00,
2013-01-16 20:03:00,34.7,29.2,30.07,SW,225,1.5,1.5,80,0.00,,,0.00,VWS V14.01,2013-01-17 02:03:00,
2013-01-16 20:04:00,34.8,29.3,30.07,SW,225,0.0,1.5,80,0.00,,,0.00,VWS V14.01,2013-01-17 02:04:00,
2013-01-16 20:05:00,34.8,29.3,30.07,SW,225,0.0,0.0,80,0.00,,,0.00,VWS V14.01,2013-01-17 02:05:00,
2013-01-16 20:06:00,34.8,29.3,30.07,SW,225,0.0,0.0,80,0.00,,,0.00,VWS V14.01,2013-01-17 02:06:00,
2013-01-16 20:07:00,34.8,29.3,30.07,SW,225,0.0,0.0,80,0.00,,,0.00,VWS V14.01,2013-01-17 02:07:00,
2013-01-16 20:08:00,34.8,29.3,30.07,SW,225,0.0,0.0,80,0.00,,,0.00,VWS V14.01,2013-01-17 02:08:00,
2013-01-16 20:09:00,34.7,29.2,30.07,WSW,248,0.0,0.0,80,0.00,,,0.00,VWS V14.01,2013-01-17 02:09:00,
2013-01-16 20:10:00,34.7,29.2,30.07,WSW,248,0.0,0.0,80,0.00,,,0.00,VWS V14.01,2013-01-17 02:10:00,
2013-01-16 20:11:00,34.7,29.2,30.07,WSW,248,0.0,0.0,80,0.00,,,0.00,VWS V14.01,2013-01-17 02:11:00,
2013-01-16 20:12:00,34.7,29.2,30.07,WSW,248,0.0,0.0,80,0.00,,,0.00,VWS V14.01,2013-01-17 02:12:00,
2013-01-16 20:13:00,34.7,29.2,30.07,WSW,248,0.0,0.0,80,0.00,,,0.00,VWS V14.01,2013-01-17 02:13:00,
2013-01-16 20:14:00,34.7,29.2,30.07,WSW,248,0.0,0.0,80,0.00,,,0.00,VWS V14.01,2013-01-17 02:14:00,
2013-01-16 20:15:00,34.7,29.2,30.07,WSW,248,0.0,0.0,80,0.00,,,0.00,VWS V14.01,2013-01-17 02:15:00,
2013-01-16 20:16:00,34.7,29.2,30.07,WSW,248,0.0,0.0,80,0.00,,,0.00,VWS V14.01,2013-01-17 02:16:00,
2013-01-16 20:17:00,34.5,29.0,30.07,WSW,248,0.0,0.0,80,0.00,,,0.00,VWS V14.01,2013-01-17 02:17:00,
2013-01-16 20:18:00,34.5,29.0,30.07,WSW,248,0.0,0.0,80,0.00,,,0.00,VWS V14.01,2013-01-17 02:18:00,
2013-01-16 20:19:00,34.5,29.0,30.07,WSW,248,0.0,0.0,80,0.00,,,0.00,VWS V14.01,2013-01-17 02:19:00,
2013-01-16 20:20:00,34.5,29.0,30.07,WSW,248,0.0,0.0,80,0.00,,,0.00,VWS V14.01,2013-01-17 02:20:00,
2013-01-16 20:21:00,34.7,29.5,30.07,WSW,248,0.0,0.0,81,0.00,,,0.00,VWS V14.01,2013-01-17 02:21:00,
2013-01-16 20:22:00,34.7,29.5,30.07,WSW,248,0.0,0.0,81,0.00,,,0.00,VWS V14.01,2013-01-17 02:22:00,
2013-01-16 20:23:00,34.7,29.5,30.07,WSW,248,0.0,0.0,81,0.00,,,0.00,VWS V14.01,2013-01-17 02:23:00,
2013-01-16 20:24:00,34.7,29.5,30.07,WSW,248,0.0,0.0,81,0.00,,,0.00,VWS V14.01,2013-01-17 02:24:00,
2013-01-16 20:25:00,34.7,29.5,30.07,WSW,248,0.0,0.0,81,0.00,,,0.00,VWS V14.01,2013-01-17 02:25:00,
2013-01-16 20:26:00,34.8,29.6,30.07,WSW,248,0.0,0.0,81,0.00,,,0.00,VWS V14.01,2013-01-17 02:26:00,
2013-01-16 20:27:00,34.8,29.6,30.07,West,270,0.0,0.0,81,0.00,,,0.00,VWS V14.01,2013-01-17 02:27:00,
2013-01-16 20:28:00,34.8,29.6,30.08,West,270,0.0,0.0,81,0.00,,,0.00,VWS V14.01,2013-01-17 02:28:00,
2013-01-16 20:29:00,34.8,29.6,30.08,West,270,0.0,0.0,81,0.00,,,0.00,VWS V14.01,2013-01-17 02:29:00,
2013-01-16 20:30:00,34.8,29.6,30.08,West,270,0.0,0.0,81,0.00,,,0.00,VWS V14.01,2013-01-17 02:30:00,
2013-01-16 20:31:00,34.8,29.3,30.08,West,270,0.0,0.0,80,0.00,,,0.00,VWS V14.01,2013-01-17 02:31:00,
2013-01-16 20:32:00,34.8,29.3,30.08,West,270,0.0,0.0,80,0.00,,,0.00,VWS V14.01,2013-01-17 02:32:00,
2013-01-16 20:33:00,34.8,29.3,30.08,West,270,0.0,0.0,80,0.00,,,0.00,VWS V14.01,2013-01-17 02:33:00,
2013-01-16 20:34:00,34.8,29.3,30.08,West,270,0.0,0.0,80,0.00,,,0.00,VWS V14.01,2013-01-17 02:34:00,
2013-01-16 20:35:00,34.8,29.3,30.08,West,270,0.0,0.0,80,0.00,,,0.00,VWS V14.01,2013-01-17 02:35:00,
2013-01-16 20:36:00,34.8,29.3,30.09,West,270,0.0,0.0,80,0.00,,,0.00,VWS V14.01,2013-01-17 02:36:00,
2013-01-16 20:37:00,34.8,29.3,30.09,West,270,0.0,0.0,80,0.00,,,0.00,VWS V14.01,2013-01-17 02:37:00,
2013-01-16 20:38:00,34.7,29.2,30.09,NNW,338,3.1,3.1,80,0.00,,,0.00,VWS V14.01,2013-01-17 02:38:00,
2013-01-16 20:39:00,34.7,29.2,30.09,NNW,338,3.1,3.1,80,0.00,,,0.00,VWS V14.01,2013-01-17 02:39:00,
2013-01-16 20:40:00,34.7,29.2,30.09,NNW,338,3.1,3.1,80,0.00,,,0.00,VWS V14.01,2013-01-17 02:40:00,
2013-01-16 20:41:00,34.7,29.5,30.09,NNW,338,0.0,0.0,81,0.00,,,0.00,VWS V14.01,2013-01-17 02:41:00,
2013-01-16 20:42:00,34.5,29.3,30.08,NW,315,0.8,0.8,81,0.00,,,0.00,VWS V14.01,2013-01-17 02:42:00,
2013-01-16 20:43:00,34.5,29.3,30.08,NW,315,0.8,0.8,81,0.00,,,0.00,VWS V14.01,2013-01-17 02:43:00,
2013-01-16 20:44:00,34.5,29.3,30.09,NW,315,0.0,0.8,81,0.00,,,0.00,VWS V14.01,2013-01-17 02:44:00,
2013-01-16 20:45:00,34.5,29.3,30.09,NW,315,0.0,0.0,81,0.00,,,0.00,VWS V14.01,2013-01-17 02:45:00,
2013-01-16 20:46:00,34.5,29.3,30.09,NW,315,0.0,0.0,81,0.00,,,0.00,VWS V14.01,2013-01-17 02:46:00,
2013-01-16 20:47:00,34.5,29.3,30.09,NNW,338,3.5,3.5,81,0.00,,,0.00,VWS V14.01,2013-01-17 02:47:00,
2013-01-16 20:48:00,34.5,29.3,30.09,NNW,338,3.5,3.5,81,0.00,,,0.00,VWS V14.01,2013-01-17 02:48:00,
2013-01-16 20:49:00,34.3,29.1,30.09,NNW,338,5.5,5.5,81,0.00,,,0.00,VWS V14.01,2013-01-17 02:49:00,
2013-01-16 20:50:00,34.3,29.1,30.09,NNW,338,5.5,5.5,81,0.00,,,0.00,VWS V14.01,2013-01-17 02:50:00,
2013-01-16 20:51:00,34.3,29.1,30.09,NNW,338,3.3,5.5,81,0.00,,,0.00,VWS V14.01,2013-01-17 02:51:00,
2013-01-16 20:52:00,34.3,29.1,30.09,NNW,338,3.3,3.3,81,0.00,,,0.00,VWS V14.01,2013-01-17 02:52:00,
2013-01-16 20:53:00,34.3,29.4,30.09,NNW,338,0.0,3.3,82,0.00,,,0.00,VWS V14.01,2013-01-17 02:53:00,
2013-01-16 20:54:00,34.3,29.4,30.09,NNW,338,0.0,0.0,82,0.00,,,0.00,VWS V14.01,2013-01-17 02:54:00,
2013-01-16 20:55:00,34.3,29.4,30.09,NNW,338,0.0,0.0,82,0.00,,,0.00,VWS V14.01,2013-01-17 02:55:00,
2013-01-16 20:56:00,34.3,29.4,30.09,NNW,338,3.3,3.3,82,0.00,,,0.00,VWS V14.01,2013-01-17 02:56:00,
2013-01-16 20:57:00,34.3,29.4,30.09,WNW,292,0.0,3.3,82,0.00,,,0.00,VWS V14.01,2013-01-17 02:57:00,
2013-01-16 20:58:00,34.3,29.4,30.09,WNW,292,0.0,0.0,82,0.00,,,0.00,VWS V14.01,2013-01-17 02:58:00,
2013-01-16 20:59:00,34.3,29.4,30.09,WNW,292,2.2,2.2,82,0.00,,,0.00,VWS V14.01,2013-01-17 02:59:00,
2013-01-16 21:00:00,34.3,29.4,30.09,WNW,292,2.2,2.2,82,0.00,,,0.00,VWS V14.01,2013-01-17 03:00:00,
2013-01-16 21:01:00,34.3,29.4,30.09,WNW,292,0.0,2.2,82,0.00,,,0.00,VWS V14.01,2013-01-17 03:01:00,
2013-01-16 21:02:00,34.3,29.1,30.09,WNW,292,0.0,0.0,81,0.00,,,0.00,VWS V14.01,2013-01-17 03:02:00,
2013-01-16 21:03:00,34.3,29.1,30.10,WNW,292,0.0,0.0,81,0.00,,,0.00,VWS V14.01,2013-01-17 03:03:00,
2013-01-16 21:04:00,34.5,29.3,30.10,WNW,292,0.0,0.0,81,0.00,,,0.00,VWS V14.01,2013-01-17 03:04:00,
2013-01-16 21:05:00,34.5,29.3,30.10,WNW,292,0.0,0.0,81,0.00,,,0.00,VWS V14.01,2013-01-17 03:05:00,
2013-01-16 21:06:00,34.5,29.3,30.10,WNW,292,0.0,0.0,81,0.00,,,0.00,VWS V14.01,2013-01-17 03:06:00,
2013-01-16 21:07:00,34.5,29.3,30.10,WNW,292,0.0,0.0,81,0.00,,,0.00,VWS V14.01,2013-01-17 03:07:00,
2013-01-16 21:08:00,34.5,29.6,30.10,NW,315,0.0,0.0,82,0.00,,,0.00,VWS V14.01,2013-01-17 03:08:00,
2013-01-16 21:09:00,34.5,29.6,30.10,NW,315,0.0,0.0,82,0.00,,,0.00,VWS V14.01,2013-01-17 03:09:00,
2013-01-16 21:10:00,34.7,29.8,30.10,NW,315,0.0,0.0,82,0.00,,,0.00,VWS V14.01,2013-01-17 03:10:00,
2013-01-16 21:11:00,34.7,29.8,30.09,NW,315,0.0,0.0,82,0.00,,,0.00,VWS V14.01,2013-01-17 03:11:00,
2013-01-16 21:12:00,34.8,29.9,30.09,NW,315,0.0,0.0,82,0.00,,,0.00,VWS V14.01,2013-01-17 03:12:00,
2013-01-16 21:13:00,34.8,29.9,30.09,NW,315,0.0,0.0,82,0.00,,,0.00,VWS V14.01,2013-01-17 03:13:00,
2013-01-16 21:14:00,34.8,29.9,30.09,NW,315,0.0,0.0,82,0.00,,,0.00,VWS V14.01,2013-01-17 03:14:00,
2013-01-16 21:15:00,34.8,29.9,30.09,NW,315,0.0,0.0,82,0.00,,,0.00,VWS V14.01,2013-01-17 03:15:00,
2013-01-16 21:16:00,35.2,30.3,30.10,WNW,292,0.0,0.0,82,0.00,,,0.00,VWS V14.01,2013-01-17 03:16:00,
2013-01-16 21:17:00,35.2,30.3,30.10,WNW,292,0.0,0.0,82,0.00,,,0.00,VWS V14.01,2013-01-17 03:17:00,
2013-01-16 21:18:00,35.2,30.3,30.09,WNW,292,0.0,0.0,82,0.00,,,0.00,VWS V14.01,2013-01-17 03:18:00,
2013-01-16 21:19:00,35.2,30.3,30.09,WNW,292,0.0,0.0,82,0.00,,,0.00,VWS V14.01,2013-01-17 03:19:00,
2013-01-16 21:20:00,35.2,30.3,30.09,WNW,292,0.0,0.0,82,0.00,,,0.00,VWS V14.01,2013-01-17 03:20:00,
2013-01-16 21:21:00,35.4,30.5,30.09,WNW,292,0.0,0.0,82,0.00,,,0.00,VWS V14.01,2013-01-17 03:21:00,
2013-01-16 21:22:00,35.4,30.5,30.09,WNW,292,0.0,0.0,82,0.00,,,0.00,VWS V14.01,2013-01-17 03:22:00,
2013-01-16 21:23:00,35.4,30.5,30.09,WNW,292,0.0,0.0,82,0.00,,,0.00,VWS V14.01,2013-01-17 03:23:00,
2013-01-16 21:24:00,35.4,30.5,30.09,WNW,292,0.0,0.0,82,0.00,,,0.00,VWS V14.01,2013-01-17 03:24:00,
2013-01-16 21:25:00,35.4,30.5,30.09,WNW,292,0.0,0.0,82,0.00,,,0.00,VWS V14.01,2013-01-17 03:25:00,
2013-01-16 21:26:00,35.4,30.5,30.09,WNW,292,0.0,0.0,82,0.00,,,0.00,VWS V14.01,2013-01-17 03:26:00,
2013-01-16 21:27:00,35.4,30.5,30.09,WNW,292,0.0,0.0,82,0.00,,,0.00,VWS V14.01,2013-01-17 03:27:00,
2013-01-16 21:28:00,35.4,30.5,30.09,WNW,292,0.0,0.0,82,0.00,,,0.00,VWS V14.01,2013-01-17 03:28:00,
2013-01-16 21:29:00,35.2,30.3,30.09,West,270,0.0,0.0,82,0.00,,,0.00,VWS V14.01,2013-01-17 03:29:00,
2013-01-16 21:30:00,35.2,30.3,30.09,West,270,0.0,0.0,82,0.00,,,0.00,VWS V14.01,2013-01-17 03:30:00,
2013-01-16 21:31:00,35.2,30.3,30.09,WSW,248,0.0,0.0,82,0.00,,,0.00,VWS V14.01,2013-01-17 03:31:00,
2013-01-16 21:32:00,34.8,29.9,30.09,WSW,248,0.0,0.0,82,0.00,,,0.00,VWS V14.01,2013-01-17 03:32:00,
2013-01-16 21:33:00,34.8,29.9,30.09,WSW,248,0.0,0.0,82,0.00,,,0.00,VWS V14.01,2013-01-17 03:33:00,
2013-01-16 21:34:00,34.7,29.8,30.08,SW,225,1.7,1.7,82,0.00,,,0.00,VWS V14.01,2013-01-17 03:34:00,
2013-01-16 21:35:00,34.7,29.8,30.08,SW,225,1.7,1.7,82,0.00,,,0.00,VWS V14.01,2013-01-17 03:35:00,
2013-01-16 21:36:00,34.5,29.6,30.08,SW,225,2.0,2.0,82,0.00,,,0.00,VWS V14.01,2013-01-17 03:36:00,
2013-01-16 21:37:00,34.5,29.6,30.09,SW,225,2.0,2.0,82,0.00,,,0.00,VWS V14.01,2013-01-17 03:37:00,
2013-01-16 21:38:00,34.3,29.4,30.09,SW,225,0.6,2.0,82,0.00,,,0.00,VWS V14.01,2013-01-17 03:38:00,
2013-01-16 21:39:00,34.3,29.4,30.09,SW,225,0.6,0.6,82,0.00,,,0.00,VWS V14.01,2013-01-17 03:39:00,
2013-01-16 21:40:00,34.3,29.4,30.09,SW,225,0.6,0.6,82,0.00,,,0.00,VWS V14.01,2013-01-17 03:40:00,
2013-01-16 21:41:00,34.3,29.4,30.09,SW,225,0.6,0.6,82,0.00,,,0.00,VWS V14.01,2013-01-17 03:41:00,
2013-01-16 21:42:00,34.3,29.7,30.09,SW,225,0.6,0.6,83,0.00,,,0.00,VWS V14.01,2013-01-17 03:42:00,
2013-01-16 21:43:00,34.3,29.7,30.09,SW,225,0.6,0.6,83,0.00,,,0.00,VWS V14.01,2013-01-17 03:43:00,
2013-01-16 21:44:00,34.3,29.7,30.09,SW,225,0.0,0.6,83,0.00,,,0.00,VWS V14.01,2013-01-17 03:44:00,
2013-01-16 21:45:00,34.3,29.7,30.09,SW,225,0.0,0.0,83,0.00,,,0.00,VWS V14.01,2013-01-17 03:45:00,
2013-01-16 21:46:00,34.3,29.7,30.10,SW,225,0.0,0.0,83,0.00,,,0.00,VWS V14.01,2013-01-17 03:46:00,
2013-01-16 21:47:00,34.3,29.7,30.09,SW,225,0.0,0.0,83,0.00,,,0.00,VWS V14.01,2013-01-17 03:47:00,
2013-01-16 21:48:00,34.3,29.7,30.10,SW,225,0.0,0.0,83,0.00,,,0.00,VWS V14.01,2013-01-17 03:48:00,
2013-01-16 21:49:00,34.3,29.7,30.09,SW,225,0.0,0.0,83,0.00,,,0.00,VWS V14.01,2013-01-17 03:49:00,
2013-01-16 21:50:00,34.3,29.7,30.09,SW,225,0.0,0.0,83,0.00,,,0.00,VWS V14.01,2013-01-17 03:50:00,
2013-01-16 21:51:00,34.1,29.5,30.09,WSW,248,0.0,0.0,83,0.00,,,0.00,VWS V14.01,2013-01-17 03:51:00,
2013-01-16 21:52:00,34.1,29.5,30.09,WSW,248,0.0,0.0,83,0.00,,,0.00,VWS V14.01,2013-01-17 03:52:00,
2013-01-16 21:53:00,33.8,29.2,30.09,WSW,248,0.0,0.0,83,0.00,,,0.00,VWS V14.01,2013-01-17 03:53:00,
2013-01-16 21:54:00,33.8,29.2,30.09,WSW,248,0.0,0.0,83,0.00,,,0.00,VWS V14.01,2013-01-17 03:54:00,
2013-01-16 21:55:00,33.8,29.2,30.09,WSW,248,0.0,0.0,83,0.00,,,0.00,VWS V14.01,2013-01-17 03:55:00,
2013-01-16 21:56:00,33.6,29.0,30.09,WSW,248,0.0,0.0,83,0.00,,,0.00,VWS V14.01,2013-01-17 03:56:00,
2013-01-16 21:57:00,33.4,28.8,30.10,West,270,0.0,0.0,83,0.00,,,0.00,VWS V14.01,2013-01-17 03:57:00,
2013-01-16 21:58:00,33.4,28.8,30.10,West,270,0.0,0.0,83,0.00,,,0.00,VWS V14.01,2013-01-17 03:58:00,
2013-01-16 21:59:00,33.0,28.4,30.10,WNW,292,0.0,0.0,83,0.00,,,0.00,VWS V14.01,2013-01-17 03:59:00,
2013-01-16 22:00:00,33.0,28.4,30.10,WNW,292,0.0,0.0,83,0.00,,,0.00,VWS V14.01,2013-01-17 04:00:00,
2013-01-16 22:01:00,32.7,28.1,30.10,NW,315,2.9,2.9,83,0.00,,,0.00,VWS V14.01,2013-01-17 04:01:00,
2013-01-16 22:02:00,32.7,28.1,30.11,NW,315,2.9,2.9,83,0.00,,,0.00,VWS V14.01,2013-01-17 04:02:00,
2013-01-16 22:03:00,32.7,28.1,30.11,NW,315,2.9,2.9,83,0.00,,,0.00,VWS V14.01,2013-01-17 04:03:00,
2013-01-16 22:04:00,32.3,27.7,30.11,WNW,292,1.5,2.9,83,0.00,,,0.00,VWS V14.01,2013-01-17 04:04:00,
2013-01-16 22:05:00,32.3,27.7,30.11,WNW,292,1.5,1.5,83,0.00,,,0.00,VWS V14.01,2013-01-17 04:05:00,
2013-01-16 22:06:00,32.1,27.5,30.11,WNW,292,0.6,1.5,83,0.00,,,0.00,VWS V14.01,2013-01-17 04:06:00,
2013-01-16 22:07:00,32.1,27.5,30.11,WNW,292,0.6,0.6,83,0.00,,,0.00,VWS V14.01,2013-01-17 04:07:00,
2013-01-16 22:08:00,31.8,27.5,30.11,WNW,292,6.0,6.0,84,0.00,,,0.00,VWS V14.01,2013-01-17 04:08:00,
2013-01-16 22:09:00,31.8,27.5,30.11,WNW,292,6.0,6.0,84,0.00,,,0.00,VWS V14.01,2013-01-17 04:09:00,
2013-01-16 22:10:00,31.8,27.5,30.11,WNW,292,6.0,6.0,84,0.00,,,0.00,VWS V14.01,2013-01-17 04:10:00,
2013-01-16 22:11:00,31.6,27.3,30.11,WNW,292,2.0,2.0,84,0.00,,,0.00,VWS V14.01,2013-01-17 04:11:00,
2013-01-16 22:12:00,31.2,26.9,30.11,WNW,292,1.5,2.0,84,0.00,,,0.00,VWS V14.01,2013-01-17 04:12:00,
2013-01-16 22:13:00,31.2,26.9,30.11,WNW,292,1.5,1.5,84,0.00,,,0.00,VWS V14.01,2013-01-17 04:13:00,
2013-01-16 22:14:00,31.8,27.8,30.11,WNW,292,5.5,5.5,85,0.00,,,0.00,VWS V14.01,2013-01-17 04:14:00,
2013-01-16 22:15:00,31.8,27.8,30.11,WNW,292,5.5,5.5,85,0.00,,,0.00,VWS V14.01,2013-01-17 04:15:00,
2013-01-16 22:16:00,32.1,28.1,30.11,NW,315,0.0,5.5,85,0.00,,,0.00,VWS V14.01,2013-01-17 04:16:00,
2013-01-16 22:17:00,32.1,28.1,30.11,NW,315,0.0,0.0,85,0.00,,,0.00,VWS V14.01,2013-01-17 04:17:00,
2013-01-16 22:18:00,32.1,28.1,30.11,NW,315,0.0,0.0,85,0.00,,,0.00,VWS V14.01,2013-01-17 04:18:00,
2013-01-16 22:19:00,32.1,28.4,30.11,NW,315,3.8,3.8,86,0.00,,,0.00,VWS V14.01,2013-01-17 04:19:00,
2013-01-16 22:20:00,32.1,28.4,30.11,NW,315,3.8,3.8,86,0.00,,,0.00,VWS V14.01,2013-01-17 04:20:00,
2013-01-16 22:21:00,32.3,28.6,30.11,North,0,7.3,7.3,86,0.00,,,0.00,VWS V14.01,2013-01-17 04:21:00,
2013-01-16 22:22:00,32.3,28.6,30.11,North,0,7.3,7.3,86,0.00,,,0.00,VWS V14.01,2013-01-17 04:22:00,
2013-01-16 22:23:00,33.0,29.6,30.11,NW,315,13.4,13.4,87,0.00,,,0.00,VWS V14.01,2013-01-17 04:23:00,
2013-01-16 22:24:00,33.0,29.6,30.11,NW,315,13.4,13.4,87,0.00,,,0.00,VWS V14.01,2013-01-17 04:24:00,
2013-01-16 22:25:00,33.0,29.6,30.11,NW,315,13.4,13.4,87,0.00,,,0.00,VWS V14.01,2013-01-17 04:25:00,
2013-01-16 22:26:00,33.6,30.1,30.11,NNW,338,9.1,9.1,87,0.00,,,0.00,VWS V14.01,2013-01-17 04:26:00,
2013-01-16 22:27:00,34.3,30.8,30.11,NNW,338,9.6,9.6,87,0.00,,,0.00,VWS V14.01,2013-01-17 04:27:00,
2013-01-16 22:28:00,34.3,30.8,30.11,NNW,338,9.6,9.6,87,0.00,,,0.00,VWS V14.01,2013-01-17 04:28:00,
2013-01-16 22:29:00,34.5,31.0,30.11,NW,315,9.3,9.6,87,0.00,,,0.00,VWS V14.01,2013-01-17 04:29:00,
2013-01-16 22:30:00,34.5,31.0,30.11,NW,315,9.3,9.3,87,0.00,,,0.00,VWS V14.01,2013-01-17 04:30:00,
2013-01-16 22:31:00,34.8,31.3,30.12,NNW,338,13.4,13.4,87,0.00,,,0.00,VWS V14.01,2013-01-17 04:31:00,
2013-01-16 22:32:00,34.8,31.3,30.12,NNW,338,13.4,13.4,87,0.00,,,0.00,VWS V14.01,2013-01-17 04:32:00,
2013-01-16 22:33:00,34.8,31.3,30.12,NNW,338,13.4,13.4,87,0.00,,,0.00,VWS V14.01,2013-01-17 04:33:00,
2013-01-16 22:34:00,34.8,31.3,30.12,NNW,338,13.8,13.8,87,0.00,,,0.00,VWS V14.01,2013-01-17 04:34:00,
2013-01-16 22:35:00,34.8,31.3,30.12,NNW,338,13.8,13.8,87,0.00,,,0.00,VWS V14.01,2013-01-17 04:35:00,
2013-01-16 22:36:00,34.7,31.2,30.12,NW,315,3.1,13.8,87,0.00,,,0.00,VWS V14.01,2013-01-17 04:36:00,
2013-01-16 22:37:00,34.7,31.2,30.12,NW,315,3.1,3.1,87,0.00,,,0.00,VWS V14.01,2013-01-17 04:37:00,
2013-01-16 22:38:00,34.5,30.8,30.12,NNW,338,10.9,10.9,86,0.00,,,0.00,VWS V14.01,2013-01-17 04:38:00,
2013-01-16 22:39:00,34.5,30.8,30.12,NNW,338,10.9,10.9,86,0.00,,,0.00,VWS V14.01,2013-01-17 04:39:00,
2013-01-16 22:40:00,34.5,30.8,30.12,NNW,338,10.9,10.9,86,0.00,,,0.00,VWS V14.01,2013-01-17 04:40:00,
2013-01-16 22:41:00,34.5,30.8,30.12,NW,315,10.0,10.0,86,0.00,,,0.00,VWS V14.01,2013-01-17 04:41:00,
2013-01-16 22:42:00,34.3,30.6,30.12,NW,315,5.8,10.0,86,0.00,,,0.00,VWS V14.01,2013-01-17 04:42:00,
2013-01-16 22:43:00,34.3,30.6,30.12,NW,315,5.8,5.8,86,0.00,,,0.00,VWS V14.01,2013-01-17 04:43:00,
2013-01-16 22:44:00,34.3,30.6,30.12,North,0,9.1,9.1,86,0.00,,,0.00,VWS V14.01,2013-01-17 04:44:00,
2013-01-16 22:45:00,34.3,30.6,30.12,North,0,9.1,9.1,86,0.00,,,0.00,VWS V14.01,2013-01-17 04:45:00,
2013-01-16 22:46:00,34.3,30.8,30.12,NNW,338,7.1,9.1,87,0.00,,,0.00,VWS V14.01,2013-01-17 04:46:00,
2013-01-16 22:47:00,34.3,30.8,30.12,NNW,338,7.1,7.1,87,0.00,,,0.00,VWS V14.01,2013-01-17 04:47:00,
2013-01-16 22:48:00,34.3,30.8,30.13,NNW,338,7.1,7.1,87,0.00,,,0.00,VWS V14.01,2013-01-17 04:48:00,
2013-01-16 22:49:00,34.3,30.8,30.13,NNW,338,6.7,7.1,87,0.00,,,0.00,VWS V14.01,2013-01-17 04:49:00,
2013-01-16 22:50:00,34.3,30.8,30.13,NNW,338,6.7,6.7,87,0.00,,,0.00,VWS V14.01,2013-01-17 04:50:00,
2013-01-16 22:51:00,34.3,30.8,30.13,NW,315,8.2,8.2,87,0.00,,,0.00,VWS V14.01,2013-01-17 04:51:00,
2013-01-16 22:52:00,34.3,30.8,30.13,NW,315,8.2,8.2,87,0.00,,,0.00,VWS V14.01,2013-01-17 04:52:00,
2013-01-16 22:53:00,34.1,30.6,30.13,NW,315,7.1,8.2,87,0.00,,,0.00,VWS V14.01,2013-01-17 04:53:00,
2013-01-16 22:54:00,34.1,30.6,30.13,NW,315,7.1,7.1,87,0.00,,,0.00,VWS V14.01,2013-01-17 04:54:00,
2013-01-16 22:55:00,34.1,30.6,30.13,NW,315,7.1,7.1,87,0.00,,,0.00,VWS V14.01,2013-01-17 04:55:00,
2013-01-16 22:56:00,33.9,30.5,30.13,NW,315,6.4,6.4,87,0.00,,,0.00,VWS V14.01,2013-01-17 04:56:00,
2013-01-16 22:57:00,33.8,30.4,30.13,NW,315,6.4,6.4,87,0.00,,,0.00,VWS V14.01,2013-01-17 04:57:00,
2013-01-16 22:58:00,33.8,30.4,30.13,NW,315,6.4,6.4,87,0.00,,,0.00,VWS V14.01,2013-01-17 04:58:00,
2013-01-16 22:59:00,33.8,30.4,30.13,NNW,338,4.4,6.4,87,0.00,,,0.00,VWS V14.01,2013-01-17 04:59:00,
2013-01-16 23:00:00,33.8,30.4,30.13,NNW,338,4.4,4.4,87,0.00,,,0.00,VWS V14.01,2013-01-17 05:00:00,
2013-01-16 23:01:00,33.8,30.4,30.13,NW,315,5.8,5.8,87,0.00,,,0.00,VWS V14.01,2013-01-17 05:01:00,
2013-01-16 23:02:00,33.8,30.4,30.13,NW,315,5.8,5.8,87,0.00,,,0.00,VWS V14.01,2013-01-17 05:02:00,
2013-01-16 23:03:00,33.8,30.4,30.13,NW,315,5.8,5.8,87,0.00,,,0.00,VWS V14.01,2013-01-17 05:03:00,
2013-01-16 23:04:00,33.8,30.4,30.13,NW,315,4.0,5.8,87,0.00,,,0.00,VWS V14.01,2013-01-17 05:04:00,
2013-01-16 23:05:00,33.8,30.4,30.13,NW,315,4.0,4.0,87,0.00,,,0.00,VWS V14.01,2013-01-17 05:05:00,
2013-01-16 23:06:00,33.8,30.4,30.13,NW,315,6.4,6.4,87,0.00,,,0.00,VWS V14.01,2013-01-17 05:06:00,
2013-01-16 23:07:00,33.8,30.4,30.13,NW,315,6.4,6.4,87,0.00,,,0.00,VWS V14.01,2013-01-17 05:07:00,
2013-01-16 23:08:00,33.8,30.4,30.13,NW,315,6.0,6.4,87,0.00,,,0.00,VWS V14.01,2013-01-17 05:08:00,
2013-01-16 23:09:00,33.8,30.4,30.13,NW,315,6.0,6.0,87,0.00,,,0.00,VWS V14.01,2013-01-17 05:09:00,
2013-01-16 23:10:00,33.8,30.4,30.13,NW,315,6.0,6.0,87,0.00,,,0.00,VWS V14.01,2013-01-17 05:10:00,
2013-01-16 23:11:00,33.9,30.5,30.13,WNW,292,10.5,10.5,87,0.00,,,0.00,VWS V14.01,2013-01-17 05:11:00,
2013-01-16 23:12:00,33.9,30.5,30.13,NW,315,2.0,10.5,87,0.00,,,0.00,VWS V14.01,2013-01-17 05:12:00,
2013-01-16 23:13:00,33.9,30.5,30.13,NW,315,2.0,2.0,87,0.00,,,0.00,VWS V14.01,2013-01-17 05:13:00,
2013-01-16 23:14:00,33.9,30.5,30.13,NW,315,10.7,10.7,87,0.00,,,0.00,VWS V14.01,2013-01-17 05:14:00,
2013-01-16 23:15:00,33.9,30.5,30.13,NW,315,10.7,10.7,87,0.00,,,0.00,VWS V14.01,2013-01-17 05:15:00,
2013-01-16 23:16:00,33.9,30.5,30.14,NW,315,10.7,10.7,87,0.00,,,0.00,VWS V14.01,2013-01-17 05:16:00,
2013-01-16 23:17:00,33.9,30.5,30.14,NW,315,7.8,10.7,87,0.00,,,0.00,VWS V14.01,2013-01-17 05:17:00,
2013-01-16 23:18:00,33.9,30.5,30.14,NW,315,7.8,7.8,87,0.00,,,0.00,VWS V14.01,2013-01-17 05:18:00,
2013-01-16 23:19:00,33.9,30.5,30.14,NW,315,7.6,7.8,87,0.00,,,0.00,VWS V14.01,2013-01-17 05:19:00,
2013-01-16 23:20:00,33.9,30.5,30.14,NW,315,7.6,7.6,87,0.00,,,0.00,VWS V14.01,2013-01-17 05:20:00,
2013-01-16 23:21:00,33.9,30.2,30.14,NW,315,2.0,7.6,86,0.00,,,0.00,VWS V14.01,2013-01-17 05:21:00,
2013-01-16 23:22:00,33.9,30.2,30.13,NW,315,2.0,2.0,86,0.00,,,0.00,VWS V14.01,2013-01-17 05:22:00,
2013-01-16 23:23:00,33.9,30.2,30.14,WNW,292,4.9,4.9,86,0.00,,,0.00,VWS V14.01,2013-01-17 05:23:00,
2013-01-16 23:24:00,33.9,30.2,30.14,WNW,292,4.9,4.9,86,0.00,,,0.00,VWS V14.01,2013-01-17 05:24:00,
2013-01-16 23:25:00,33.9,30.2,30.14,WNW,292,4.9,4.9,86,0.00,,,0.00,VWS V14.01,2013-01-17 05:25:00,
2013-01-16 23:26:00,33.9,30.2,30.14,NW,315,10.9,10.9,86,0.00,,,0.00,VWS V14.01,2013-01-17 05:26:00,
2013-01-16 23:27:00,34.1,30.4,30.14,North,0,10.7,10.9,86,0.00,,,0.00,VWS V14.01,2013-01-17 05:27:00,
2013-01-16 23:28:00,34.1,30.4,30.14,North,0,10.7,10.7,86,0.00,,,0.00,VWS V14.01,2013-01-17 05:28:00,
2013-01-16 23:29:00,34.1,30.1,30.14,NNW,338,5.8,10.7,85,0.00,,,0.00,VWS V14.01,2013-01-17 05:29:00,
2013-01-16 23:30:00,34.1,30.1,30.14,NNW,338,5.8,5.8,85,0.00,,,0.00,VWS V14.01,2013-01-17 05:30:00,
2013-01-16 23:31:00,34.1,30.1,30.14,NNW,338,5.8,5.8,85,0.00,,,0.00,VWS V14.01,2013-01-17 05:31:00,
2013-01-16 23:32:00,34.3,30.3,30.14,NW,315,6.4,6.4,85,0.00,,,0.00,VWS V14.01,2013-01-17 05:32:00,
2013-01-16 23:33:00,34.3,30.3,30.14,NW,315,6.4,6.4,85,0.00,,,0.00,VWS V14.01,2013-01-17 05:33:00,
2013-01-16 23:34:00,34.3,30.0,30.14,NNW,338,10.7,10.7,84,0.00,,,0.00,VWS V14.01,2013-01-17 05:34:00,
2013-01-16 23:35:00,34.3,30.0,30.14,NNW,338,10.7,10.7,84,0.00,,,0.00,VWS V14.01,2013-01-17 05:35:00,
2013-01-16 23:36:00,34.3,29.7,30.15,NNW,338,6.2,10.7,83,0.00,,,0.00,VWS V14.01,2013-01-17 05:36:00,
2013-01-16 23:37:00,34.3,29.7,30.15,NNW,338,6.2,6.2,83,0.00,,,0.00,VWS V14.01,2013-01-17 05:37:00,
2013-01-16 23:38:00,34.3,29.7,30.15,NW,315,8.5,8.5,83,0.00,,,0.00,VWS V14.01,2013-01-17 05:38:00,
2013-01-16 23:39:00,34.3,29.7,30.15,NW,315,8.5,8.5,83,0.00,,,0.00,VWS V14.01,2013-01-17 05:39:00,
2013-01-16 23:40:00,34.3,29.7,30.15,NW,315,8.5,8.5,83,0.00,,,0.00,VWS V14.01,2013-01-17 05:40:00,
2013-01-16 23:41:00,34.3,29.7,30.15,NNW,338,7.6,7.6,83,0.00,,,0.00,VWS V14.01,2013-01-17 05:41:00,
2013-01-16 23:42:00,34.3,29.7,30.15,WNW,292,5.1,7.6,83,0.00,,,0.00,VWS V14.01,2013-01-17 05:42:00,
2013-01-16 23:43:00,34.3,29.7,30.16,WNW,292,5.1,5.1,83,0.00,,,0.00,VWS V14.01,2013-01-17 05:43:00,
2013-01-16 23:44:00,34.3,29.7,30.15,NNW,338,8.0,8.0,83,0.00,,,0.00,VWS V14.01,2013-01-17 05:44:00,
2013-01-16 23:45:00,34.3,29.7,30.15,NNW,338,8.0,8.0,83,0.00,,,0.00,VWS V14.01,2013-01-17 05:45:00,
2013-01-16 23:46:00,34.3,29.7,30.15,NW,315,12.0,12.0,83,0.00,,,0.00,VWS V14.01,2013-01-17 05:46:00,
2013-01-16 23:47:00,34.3,29.7,30.15,NW,315,12.0,12.0,83,0.00,,,0.00,VWS V14.01,2013-01-17 05:47:00,
2013-01-16 23:48:00,34.3,29.7,30.15,NW,315,12.0,12.0,83,0.00,,,0.00,VWS V14.01,2013-01-17 05:48:00,
2013-01-16 23:49:00,34.3,29.7,30.15,NW,315,7.6,12.0,83,0.00,,,0.00,VWS V14.01,2013-01-17 05:49:00,
2013-01-16 23:50:00,34.3,29.7,30.15,NW,315,7.6,7.6,83,0.00,,,0.00,VWS V14.01,2013-01-17 05:50:00,
2013-01-16 23:51:00,34.3,29.7,30.16,NNW,338,8.2,8.2,83,0.00,,,0.00,VWS V14.01,2013-01-17 05:51:00,
2013-01-16 23:52:00,34.3,29.7,30.15,NNW,338,8.2,8.2,83,0.00,,,0.00,VWS V14.01,2013-01-17 05:52:00,
2013-01-16 23:53:00,34.3,29.7,30.16,NW,315,3.1,8.2,83,0.00,,,0.00,VWS V14.01,2013-01-17 05:53:00,
2013-01-16 23:54:00,34.3,29.7,30.16,NW,315,3.1,3.1,83,0.00,,,0.00,VWS V14.01,2013-01-17 05:54:00,
2013-01-16 23:55:00,34.3,29.7,30.16,NW,315,3.1,3.1,83,0.00,,,0.00,VWS V14.01,2013-01-17 05:55:00,
2013-01-16 23:56:00,34.3,29.7,30.16,NNW,338,6.7,6.7,83,0.00,,,0.00,VWS V14.01,2013-01-17 05:56:00,
2013-01-16 23:57:00,34.3,29.7,30.16,NNW,338,7.6,7.6,83,0.00,,,0.00,VWS V14.01,2013-01-17 05:57:00,
2013-01-16 23:58:00,34.3,29.7,30.16,NNW,338,7.6,7.6,83,0.00,,,0.00,VWS V14.01,2013-01-17 05:58:00,
2013-01-16 23:59:00,34.3,29.7,30.16,NW,315,8.7,8.7,83,0.00,,,0.00,VWS V14.01,2013-01-17 05:59:00,